Not logged in
PANGAEA.
Data Publisher for Earth & Environmental Science

Long, Charles (2015): Radiosonde measurements from station Boulder (2013-04) [dataset]. NOAA - Air Resources Laboratory, Boulder, PANGAEA, https://doi.org/10.1594/PANGAEA.846311

Always quote citation above when using data! You can download the citation in several formats below.

Published: 2015-05-19DOI registered: 2015-06-16

RIS CitationBibTeX Citation ShareShow MapGoogle Earth

Other version:
Long, Charles (2015): BSRN Station-to-archive file for station Boulder (2013-04). ftp://ftp.bsrn.awi.de/bou/bou0413.dat.gz
Coverage:
Latitude: 40.050000 * Longitude: -105.007000
Date/Time Start: 2013-04-01T00:00:00 * Date/Time End: 2013-04-30T12:00:00
Minimum ALTITUDE: 15 m * Maximum ALTITUDE: 33048 m
Event(s):
BOU (Boulder) * Latitude: 40.050000 * Longitude: -105.007000 * Date/Time Start: 1992-01-01T00:00:00 * Date/Time End: 2016-06-30T00:00:00 * Elevation: 1577.0 m * Location: Colorado, United States of America * Method/Device: Monitoring station (MONS) * Comment: BSRN station no: 23; Surface type: grass; Topography type: flat, rural; Station scientist: David Longenecker (David.U.Longenecker@noaa.gov) ** Station closed in July 2016 **
Comment:
Start location: Denver, Colorado, USA; Distance from radiation site: 30 km
Parameter(s):
#NameShort NameUnitPrincipal InvestigatorMethod/DeviceComment
DATE/TIMEDate/TimeLong, CharlesGeocode
ALTITUDEAltitudemLong, CharlesGeocode
Pressure, at given altitudePPPPhPaLong, CharlesRadiosonde (RADIO)
Temperature, airTTT°CLong, CharlesRadiosonde (RADIO)
Dew/frost pointTdTdTd°CLong, CharlesRadiosonde (RADIO)
Wind directiondddegLong, CharlesRadiosonde (RADIO)
Wind speedffm/sLong, CharlesRadiosonde (RADIO)
Size:
14323 data points

Data

Download dataset as tab-delimited text — use the following character encoding:


Date/Time

Altitude [m]

PPPP [hPa]

TTT [°C]

TdTdTd [°C]

dd [deg]

ff [m/s]
2013-04-01T00:00731000
2013-04-01T00:00743925
2013-04-01T00:001459850
2013-04-01T00:00180781617.0-10.0
2013-04-01T00:0029857084.8-13.2
2013-04-01T00:0030807004.2-12.82953
2013-04-01T00:0033976731.6-16.4
2013-04-01T00:0035416611.2-22.8
2013-04-01T00:004076618-3.3-25.3
2013-04-01T00:005710500-18.3-31.331515
2013-04-01T00:005951484-20.3-32.3
2013-04-01T00:006183469-21.5-33.5
2013-04-01T00:006983420-28.5-39.5
2013-04-01T00:007330400-30.9-42.930017
2013-04-01T00:007673381-32.7-46.7
2013-04-01T00:009259302-46.1-58.1
2013-04-01T00:009310300-46.1-58.129017
2013-04-01T00:0010500250-55.3-65.329022
2013-04-01T00:0011385217-62.7-71.7
2013-04-01T00:0011733205-64.3-73.3
2013-04-01T00:0011880200-65.9-74.928524
2013-04-01T00:0011941198-66.3-74.3
2013-04-01T00:0012449182-67.3-75.3
2013-04-01T00:0012652176-64.9-73.9
2013-04-01T00:0012757173-65.1-74.1
2013-04-01T00:0012936168-62.1-71.1
2013-04-01T00:0013010166-59.5-68.5
2013-04-01T00:0013278159-61.1-70.1
2013-04-01T00:0013356157-60.5-69.5
2013-04-01T00:0013516153-61.7-70.7
2013-04-01T00:0013650150-60.3-69.327526
2013-04-01T00:0013692149-59.9-68.9
2013-04-01T00:0013862145-59.5-68.5
2013-04-01T00:0013992142-60.9-69.9
2013-04-01T00:0014169138-61.1-70.1
2013-04-01T00:0014260136-60.1-69.1
2013-04-01T00:0014399133-60.5-69.5
2013-04-01T00:0014637128-59.7-69.7
2013-04-01T00:0014836124-58.1-68.1
2013-04-01T00:0015696108-61.7-70.7
2013-04-01T00:0016170100-62.7-71.728523
2013-04-01T00:001667292-65.5-74.5
2013-04-01T00:001726083-59.5-69.5
2013-04-01T00:001795474-59.1-69.1
2013-04-01T00:001838070-60.7-70.730516
2013-04-01T00:001895963-65.1-74.1
2013-04-01T00:001914461-63.3-72.3
2013-04-01T00:001923560-59.5-69.5
2013-04-01T00:001950858-58.5-68.5
2013-04-01T00:001994154-59.5-69.5
2013-04-01T00:002047050-63.5-72.53359
2013-04-01T00:002077047-65.1-74.1
2013-04-01T00:002079647-64.3-73.3
2013-04-01T00:002082247-59.9-69.9
2013-04-01T00:002087646-58.9-68.9
2013-04-01T00:002092946-55.5-66.5
2013-04-01T00:002106845-54.7-65.7
2013-04-01T00:002202439-60.9-70.9
2013-04-01T00:002252336-58.7-68.7
2013-04-01T00:002280634-60.7-70.7
2013-04-01T00:002295333-57.9-68.9
2013-04-01T00:002367030-58.1-69.130011
2013-04-01T00:002406228-54.1-66.1
2013-04-01T00:002460325-56.9-67.9
2013-04-01T00:002521823-56.5-68.5
2013-04-01T00:002541022-55.7-67.7
2013-04-01T00:002549422-53.7-66.7
2013-04-01T00:002566821-52.5-65.5
2013-04-01T00:002626020-51.9-65.926011
2013-04-01T00:002812615-50.3-69.3
2013-04-01T00:002834714-47.5-69.5
2013-04-01T00:002857814-48.1-71.1
2013-04-01T00:002891713-45.9-71.9
2013-04-01T00:002922612-42.5-71.5
2013-04-01T00:002966411-42.3-74.3
2013-04-01T00:003019211-44.3-79.3
2013-04-01T00:003085010-41.1-78.125531
2013-04-01T00:00314909-40.1-77.1
2013-04-01T00:00318778-36.9-74.9
2013-04-01T00:00322898-37.9-75.9
2013-04-01T12:001321000
2013-04-01T12:00801925
2013-04-01T12:001514850
2013-04-01T12:0017848220.6-3.5
2013-04-01T12:0018628142.6-2.1
2013-04-01T12:0019228083.0-2.0
2013-04-01T12:002833721-1.7-6.7
2013-04-01T12:003076700-1.9-8.92206
2013-04-01T12:003201689-2.3-10.3
2013-04-01T12:003376674-0.5-10.5
2013-04-01T12:003531661-1.3-13.3
2013-04-01T12:004149611-6.7-15.7
2013-04-01T12:004551580-10.3-16.3
2013-04-01T12:004684570-11.5-18.5
2013-04-01T12:004860557-12.7-22.7
2013-04-01T12:005207532-15.5-28.5
2013-04-01T12:005436516-16.3-35.3
2013-04-01T12:005680500-17.9-36.926513
2013-04-01T12:005710498-18.1-37.1
2013-04-01T12:006311459-23.7-42.7
2013-04-01T12:006651438-25.3-39.3
2013-04-01T12:007310400-31.5-41.528012
2013-04-01T12:007967364-37.5-46.5
2013-04-01T12:008374343-39.9-48.9
2013-04-01T12:008906317-44.5-53.5
2013-04-01T12:009270300-46.7-55.726518
2013-04-01T12:009771278-49.5-57.5
2013-04-01T12:0010460250-54.9-62.928531
2013-04-01T12:0010933232-58.3-66.3
2013-04-01T12:0011821201-64.1-71.1
2013-04-01T12:0011860200-64.1-71.128531
2013-04-01T12:0012572178-63.5
2013-04-01T12:0012962167-64.3
2013-04-01T12:0013148162-62.7
2013-04-01T12:0013380156-62.9
2013-04-01T12:0013500153-61.5
2013-04-01T12:0013620150-61.327530
2013-04-01T12:0013873144-60.3
2013-04-01T12:0014274135-60.9
2013-04-01T12:0014414132-59.7
2013-04-01T12:0014905122-60.1
2013-04-01T12:0015008120-58.9
2013-04-01T12:0015607109-60.9
2013-04-01T12:0015722107-60.1
2013-04-01T12:0015839105-60.9
2013-04-01T12:0016150100-60.729026
2013-04-01T12:001642995-61.7
2013-04-01T12:001665392-60.1
2013-04-01T12:001715685-62.7
2013-04-01T12:001756979-60.7
2013-04-01T12:001836070-61.131019
2013-04-01T12:001872366-62.1
2013-04-01T12:001938759-59.1
2013-04-01T12:002006253-61.3
2013-04-01T12:002039950-58.5
2013-04-01T12:002045050-58.53159
2013-04-01T12:002087646-61.5
2013-04-01T12:002124344-61.5
2013-04-01T12:002150242-60.3
2013-04-01T12:002188139-61.3
2013-04-01T12:002213738-59.5
2013-04-01T12:002250735-60.5
2013-04-01T12:002277334-59.1
2013-04-01T12:002293833-60.3
2013-04-01T12:002312832-57.7
2013-04-01T12:002364030-59.12606
2013-04-01T12:002420527-60.3
2013-04-01T12:002465425-57.7
2013-04-01T12:002563721-59.3
2013-04-01T12:002596320-55.7
2013-04-01T12:002619020-56.328512
2013-04-01T12:002654818-56.7
2013-04-01T12:002714917-52.9
2013-04-01T12:002794415-52.9
2013-04-01T12:002852213-50.5
2013-04-01T12:002876213-47.5
2013-04-01T12:002954311-48.1
2013-04-01T12:002988511-44.9
2013-04-01T12:003072010-42.725532
2013-04-01T12:00309269-41.7
2013-04-01T12:00318188-41.5
2013-04-01T12:00321468-38.7
2013-04-01T12:00330487-38.9-67.9
2013-04-02T00:001131000
2013-04-02T00:00769925
2013-04-02T00:001471850
2013-04-02T00:0016818299.8-1.2
2013-04-02T00:0018628118.0-3.0
2013-04-02T00:0020677917.4-3.6
2013-04-02T00:0026417372.6-5.4
2013-04-02T00:003057700-0.3-7.31353
2013-04-02T00:003789638-5.5-10.0
2013-04-02T00:004177607-6.7-12.7
2013-04-02T00:004812559-11.9-16.9
2013-04-02T00:004880554-12.3-18.3
2013-04-02T00:005005545-12.9-24.9
2013-04-02T00:005089539-13.7-27.7
2013-04-02T00:005476512-16.7-26.7
2013-04-02T00:005549507-17.1-23.1
2013-04-02T00:005623502-17.7-23.7
2013-04-02T00:005660500-18.1-24.125515
2013-04-02T00:005705497-18.5-24.5
2013-04-02T00:005780492-18.7-28.7
2013-04-02T00:005826489-19.1-30.1
2013-04-02T00:006339456-22.9-31.9
2013-04-02T00:006731432-26.5-36.5
2013-04-02T00:007290400-31.5-37.526021
2013-04-02T00:007343397-31.9-36.9
2013-04-02T00:007948364-36.9-42.9
2013-04-02T00:008357343-38.5-47.5
2013-04-02T00:009215302-46.1-56.1
2013-04-02T00:009260300-46.3-56.326035
2013-04-02T00:009785277-49.5-59.5
2013-04-02T00:0010450250-54.9-63.926542
2013-04-02T00:0011058227-59.9-67.9
2013-04-02T00:0011840200-62.7-70.726039
2013-04-02T00:0011871199-62.5-70.5
2013-04-02T00:0012187189-63.7-71.7
2013-04-02T00:0012318185-62.5-70.5
2013-04-02T00:0012555178-62.7-70.7
2013-04-02T00:0012767172-61.1-69.1
2013-04-02T00:0012876169-59.5-67.5
2013-04-02T00:0013140162-58.7-67.7
2013-04-02T00:0013376156-59.3-68.3
2013-04-02T00:0013580151-58.7-67.7
2013-04-02T00:0013630150-59.1-68.128028
2013-04-02T00:0013885144-60.1-69.1
2013-04-02T00:0014016141-59.3-68.3
2013-04-02T00:0014105139-59.5-68.5
2013-04-02T00:0014287135-60.5-69.5
2013-04-02T00:0014380133-59.5-68.5
2013-04-02T00:0014619128-59.3-68.3
2013-04-02T00:0014817124-60.7-69.7
2013-04-02T00:0014918122-58.7-67.7
2013-04-02T00:0015074119-57.7-66.7
2013-04-02T00:0015398113-60.1-69.1
2013-04-02T00:0015681108-58.1-67.1
2013-04-02T00:0016170100-59.1-68.130020
2013-04-02T00:001776777-62.5-71.5
2013-04-02T00:001839070-60.3-69.329016
2013-04-02T00:001853468-59.5-69.5
2013-04-02T00:001930360-63.1-72.1
2013-04-02T00:002005653-57.9-67.9
2013-04-02T00:002041850-59.3-69.3
2013-04-02T00:002048050-59.3-69.332010
2013-04-02T00:002072348-57.7-67.7
2013-04-02T00:002157642-58.5-68.5
2013-04-02T00:002210038-61.9-71.9
2013-04-02T00:002305733-58.1-69.1
2013-04-02T00:002369030-58.5-69.53358
2013-04-02T00:002508924-58.5-70.5
2013-04-02T00:002587621-53.9-67.9
2013-04-02T00:002625020-54.9-69.93009
2013-04-02T00:002743716-55.1-72.1
2013-04-02T00:002800315-50.9-73.9
2013-04-02T00:002853414-52.9-77.9
2013-04-02T00:002901513-49.3-82.3
2013-04-02T00:002993511-47.5-82.5
2013-04-02T00:003017410-44.9-79.9
2013-04-02T00:003077010-43.1-79.125025
2013-04-02T00:00309769-41.9-77.9
2013-04-02T00:00315558-42.5-78.5
2013-04-02T00:00317878-40.3-77.3
2013-04-02T00:00321118-40.1-77.1
2013-04-02T00:00329127-34.3-73.3
2013-04-02T12:001351000
2013-04-02T12:00794925
2013-04-02T12:001498850
2013-04-02T12:0016408352.8-0.3
2013-04-02T12:0019738010.0-2.5
2013-04-02T12:0020537930.2-2.6
2013-04-02T12:002360763-1.5-2.1
2013-04-02T12:002668734-1.1-1.5
2013-04-02T12:003055700-3.5-4.12202
2013-04-02T12:003340675-5.5-5.9
2013-04-02T12:003422668-5.3-5.9
2013-04-02T12:003853632-7.9-8.8
2013-04-02T12:004165607-9.5-15.5
2013-04-02T12:004331594-10.1-16.1
2013-04-02T12:004740563-13.1-17.7
2013-04-02T12:005153533-16.5-23.5
2013-04-02T12:005496509-19.7-24.7
2013-04-02T12:005640500-20.7-26.725010
2013-04-02T12:005774491-21.7-27.7
2013-04-02T12:006408450-26.5-36.5
2013-04-02T12:006586439-27.1-41.1
2013-04-02T12:007250400-30.7-44.724520
2013-04-02T12:007268399-30.9-44.9
2013-04-02T12:008121353-38.7-48.7
2013-04-02T12:008806319-44.1-53.1
2013-04-02T12:009220300-47.1-56.124029
2013-04-02T12:009626282-49.7-58.7
2013-04-02T12:0010400250-56.5-64.524032
2013-04-02T12:0010579243-58.1-66.1
2013-04-02T12:0011114223-61.5-69.5
2013-04-02T12:0011283217-61.3-69.3
2013-04-02T12:0011790200-63.125023
2013-04-02T12:0012271185-60.7
2013-04-02T12:0012339183-57.7
2013-04-02T12:0012408181-57.1
2013-04-02T12:0012878168-57.5
2013-04-02T12:0012954166-56.3
2013-04-02T12:0013069163-56.3
2013-04-02T12:0013386155-59.1
2013-04-02T12:0013600150-59.726525
2013-04-02T12:0013684148-58.7
2013-04-02T12:0013942142-60.1
2013-04-02T12:0013986141-58.5
2013-04-02T12:0014121138-57.9
2013-04-02T12:0014353133-57.9
2013-04-02T12:0014642127-58.9
2013-04-02T12:0014843123-57.1
2013-04-02T12:0014946121-57.9
2013-04-02T12:0015432112-57.9
2013-04-02T12:0015836105-60.1
2013-04-02T12:0016140100-59.928520
2013-04-02T12:001672191-59.3
2013-04-02T12:001837070-61.330020
2013-04-02T12:001839769-61.3
2013-04-02T12:001914461-59.5
2013-04-02T12:001952858-61.1
2013-04-02T12:002024051-60.5
2013-04-02T12:002046050-59.130513
2013-04-02T12:002047349-58.9
2013-04-02T12:002081947-61.3
2013-04-02T12:002113044-59.3
2013-04-02T12:002185040-60.1
2013-04-02T12:002226937-59.1
2013-04-02T12:002339831-60.7
2013-04-02T12:002365030-58.931511
2013-04-02T12:002371329-58.7
2013-04-02T12:002408228-59.3
2013-04-02T12:002464725-55.5
2013-04-02T12:002621020-60.73006
2013-04-02T12:002633519-60.9
2013-04-02T12:002643119-58.3
2013-04-02T12:002666418-55.7
2013-04-02T12:002716417-52.9
2013-04-02T12:002750816-55.5
2013-04-02T12:002799615-53.9
2013-04-02T12:002852613-54.9
2013-04-02T12:002958611-47.7
2013-04-02T12:003028810-50.1
2013-04-02T12:003068010-47.527513
2013-04-02T12:00310209-44.7
2013-04-02T12:00316038-47.7
2013-04-02T12:00319148-45.5
2013-04-02T12:00321598-45.9
2013-04-02T12:00324157-42.5
2013-04-02T12:00325927-43.3
2013-04-02T12:00328687-40.5-63.5
2013-04-03T00:001591000
2013-04-03T00:00808925
2013-04-03T00:001501850
2013-04-03T00:0017858211.0-0.2
2013-04-03T00:002042795-0.7-1.5
2013-04-03T00:002296770-0.9-1.7
2013-04-03T00:003052700-5.3-6.71054
2013-04-03T00:003187688-6.1-7.7
2013-04-03T00:003267681-5.3-6.4
2013-04-03T00:003371672-5.7-7.0
2013-04-03T00:003618651-7.1-9.3
2013-04-03T00:003896628-9.1-10.6
2013-04-03T00:004158607-9.7-11.8
2013-04-03T00:004612572-13.3-16.5
2013-04-03T00:004705565-14.7-20.7
2013-04-03T00:004840555-15.3-21.3
2013-04-03T00:004922549-15.3-20.3
2013-04-03T00:005414514-19.3-23.2
2013-04-03T00:005530506-20.5-24.9
2013-04-03T00:005630500-21.9-29.91408
2013-04-03T00:005704495-22.7-34.7
2013-04-03T00:005793489-22.9-36.9
2013-04-03T00:006523442-28.3-42.3
2013-04-03T00:007004413-32.3-42.3
2013-04-03T00:007230400-33.7-45.72402
2013-04-03T00:007641377-36.7-49.7
2013-04-03T00:009180300-50.5-59.521512
2013-04-03T00:009556283-53.9-61.9
2013-04-03T00:0010340250-57.3-65.320014
2013-04-03T00:0010545242-57.3-65.3
2013-04-03T00:0010922228-55.5-63.5
2013-04-03T00:0011265216-56.7-65.7
2013-04-03T00:0011474209-55.9-64.9
2013-04-03T00:0011760200-57.1-66.12159
2013-04-03T00:0012251185-58.1-67.1
2013-04-03T00:0012424180-56.3-65.3
2013-04-03T00:0012712172-56.5-65.5
2013-04-03T00:0012786170-55.3-64.3
2013-04-03T00:0013014164-55.5-64.5
2013-04-03T00:0013092162-54.9-63.9
2013-04-03T00:0013373155-56.3-65.3
2013-04-03T00:0013590150-56.1-65.126514
2013-04-03T00:0014165137-55.5-64.5
2013-04-03T00:0014353133-56.9-65.9
2013-04-03T00:0014644127-57.1-66.1
2013-04-03T00:0015000120-58.7-67.7
2013-04-03T00:0015604109-57.1-66.1
2013-04-03T00:0015900104-57.5-66.5
2013-04-03T00:0016022102-58.5-67.5
2013-04-03T00:0016084101-57.7-66.7
2013-04-03T00:0016150100-58.3-67.328017
2013-04-03T00:001767878-60.3-69.3
2013-04-03T00:001781576-59.1-68.1
2013-04-03T00:001838070-60.1-69.128015
2013-04-03T00:001846969-60.7-69.7
2013-04-03T00:001886064-58.9-68.9
2013-04-03T00:001938359-59.3-69.3
2013-04-03T00:002009153-60.3-70.3
2013-04-03T00:002032851-62.1-71.1
2013-04-03T00:002048050-61.3-70.328516
2013-04-03T00:002054249-60.9-69.9
2013-04-03T00:002066948-58.3-68.3
2013-04-03T00:002122244-59.5-69.5
2013-04-03T00:002213438-56.7-66.7
2013-04-03T00:002286234-59.3-69.3
2013-04-03T00:002314432-56.3-66.3
2013-04-03T00:002370030-56.5-67.52103
2013-04-03T00:002457826-58.1-69.1
2013-04-03T00:002532323-55.1-66.1
2013-04-03T00:002560322-55.9-66.9
2013-04-03T00:002598820-53.5-65.5
2013-04-03T00:002627020-55.5-67.53204
2013-04-03T00:002643119-55.9-67.9
2013-04-03T00:002669818-54.5-67.5
2013-04-03T00:002708417-55.3-68.3
2013-04-03T00:002769516-52.1-67.1
2013-04-03T00:002874013-53.9-69.9
2013-04-03T00:002918312-48.9-68.9
2013-04-03T00:002961011-47.7-68.7
2013-04-03T00:002977911-45.5-66.5
2013-04-03T00:003050310-46.7-68.7
2013-04-03T00:003078010-46.1-69.126012
2013-04-03T00:00316328-43.7-69.7
2013-04-03T00:00318648-44.7-71.7
2013-04-03T00:00323567-41.1-69.1
2013-04-03T12:001691000
2013-04-03T12:00817925
2013-04-03T12:001511850
2013-04-03T12:0016888322.41.0
2013-04-03T12:0018248181.8-0.7
2013-04-03T12:0019338070.8-0.5
2013-04-03T12:002485753-1.1-2.5
2013-04-03T12:002971708-4.9-5.7
2013-04-03T12:003063700-4.7-5.23555
2013-04-03T12:003108696-4.5-5.1
2013-04-03T12:003441667-6.3-7.9
2013-04-03T12:004308596-12.7-13.3
2013-04-03T12:004580575-13.5-16.7
2013-04-03T12:005550505-21.1-24.2
2013-04-03T12:005630500-21.7-24.6158
2013-04-03T12:005838486-23.3-25.4
2013-04-03T12:005989476-24.5-30.5
2013-04-03T12:006190463-25.7-35.7
2013-04-03T12:006802425-31.1-37.1
2013-04-03T12:007240400-34.5-41.53512
2013-04-03T12:007908363-40.1-48.1
2013-04-03T12:009180300-51.1-58.12513
2013-04-03T12:009761274-56.3-62.3
2013-04-03T12:0010091260-58.9-64.9
2013-04-03T12:0010340250-57.1-63.14514
2013-04-03T12:0010416247-56.1-62.1
2013-04-03T12:0010785233-56.7-63.7
2013-04-03T12:0010867230-55.9-62.9
2013-04-03T12:0011091222-56.7-63.7
2013-04-03T12:0011474209-54.5-61.5
2013-04-03T12:0011760200-55.7-63.73159
2013-04-03T12:0011792199-56.1-64.1
2013-04-03T12:0012153188-55.1-63.1
2013-04-03T12:0012644174-56.7-64.7
2013-04-03T12:0013057163-56.1-64.1
2013-04-03T12:0013580150-56.9-65.929513
2013-04-03T12:0014108138-56.1-65.1
2013-04-03T12:0014341133-57.3-66.3
2013-04-03T12:0014437131-56.9-65.9
2013-04-03T12:0014682126-58.1-67.1
2013-04-03T12:0014988120-58.1-67.1
2013-04-03T12:0015200116-59.1-68.1
2013-04-03T12:0015706107-57.7-66.7
2013-04-03T12:0016140100-57.7-66.728513
2013-04-03T12:001738382-59.5-68.5
2013-04-03T12:001791775-58.1-68.1
2013-04-03T12:001838070-59.1-69.128514
2013-04-03T12:001840769-59.1-69.1
2013-04-03T12:001901263-57.3-67.3
2013-04-03T12:001941159-59.5-69.5
2013-04-03T12:001988155-58.1-68.1
2013-04-03T12:002049050-60.9-70.92205
2013-04-03T12:002088646-61.5-71.5
2013-04-03T12:002117044-59.5-69.5
2013-04-03T12:002170541-61.9-71.9
2013-04-03T12:002225837-58.9-69.9
2013-04-03T12:002283234-59.3-70.3
2013-04-03T12:002305633-56.7-68.7
2013-04-03T12:002361230-59.1-70.1
2013-04-03T12:002369030-58.9-70.93107
2013-04-03T12:002396928-56.7-68.7
2013-04-03T12:002472025-54.7-67.7
2013-04-03T12:002543122-56.5-70.5
2013-04-03T12:002613820-54.7-70.7
2013-04-03T12:002626020-55.3-71.33205
2013-04-03T12:002703517-56.5-73.5
2013-04-03T12:002748116-54.9-74.9
2013-04-03T12:002783815-55.3-75.3
2013-04-03T12:002817614-51.7-80.7
2013-04-03T12:002830814-51.7-82.7
2013-04-03T12:002844414-48.9-82.9
2013-04-03T12:002897413-47.5-82.5
2013-04-03T12:002944212-48.9-82.9
2013-04-03T12:002988911-46.3-81.3
2013-04-03T12:003036910-47.7-82.7
2013-04-03T12:003077010-45.9-80.925012
2013-04-03T12:00310429-44.5-80.5
2013-04-04T00:001201000
2013-04-04T00:00782925
2013-04-04T00:001491850
2013-04-04T00:00167183213.4-10.6
2013-04-04T00:0024087616.4-9.6
2013-04-04T00:0028467213.4-14.6
2013-04-04T00:0030897001.2-15.812
2013-04-04T00:003545661-2.7-16.7
2013-04-04T00:003910631-5.9-14.9
2013-04-04T00:004706569-13.3-24.3
2013-04-04T00:005298526-17.3-30.3
2013-04-04T00:005384520-17.9-33.9
2013-04-04T00:005680500-20.5-36.535013
2013-04-04T00:006723433-29.5-42.5
2013-04-04T00:006889423-29.9-43.9
2013-04-04T00:007290400-33.1-48.135011
2013-04-04T00:007593383-35.3-49.3
2013-04-04T00:008916315-47.5-57.5
2013-04-04T00:009240300-49.9-59.935012
2013-04-04T00:0010410250-58.1-67.133515
2013-04-04T00:0010588243-59.3-68.3
2013-04-04T00:0011179221-60.7-69.7
2013-04-04T00:0011349215-62.1-71.1
2013-04-04T00:0011800200-59.9-68.933017
2013-04-04T00:0011831199-59.9-68.9
2013-04-04T00:0011894197-58.7-67.7
2013-04-04T00:0012023193-57.7-66.7
2013-04-04T00:0012221187-59.1-68.1
2013-04-04T00:0012459180-59.7-68.7
2013-04-04T00:0012635175-58.7-67.7
2013-04-04T00:0012781171-56.1-65.1
2013-04-04T00:0013241159-57.5-66.5
2013-04-04T00:0013442154-57.1-66.1
2013-04-04T00:0013610150-57.9-66.930014
2013-04-04T00:0013694148-58.1-67.1
2013-04-04T00:0013866144-57.9-66.9
2013-04-04T00:0013999141-56.5-66.5
2013-04-04T00:0014367133-57.9-67.9
2013-04-04T00:0014511130-56.9-66.9
2013-04-04T00:0014809124-57.1-67.1
2013-04-04T00:0015015120-58.3-68.3
2013-04-04T00:0015337114-58.3-68.3
2013-04-04T00:0015676108-59.9-68.9
2013-04-04T00:0015792106-58.9-68.9
2013-04-04T00:0016170100-59.9-68.930016
2013-04-04T00:001716085-59.9-69.9
2013-04-04T00:001766778-61.5-70.5
2013-04-04T00:001839070-58.5-68.528015
2013-04-04T00:001844469-58.3-68.3
2013-04-04T00:001867366-59.9-69.9
2013-04-04T00:001911862-58.5-68.5
2013-04-04T00:001986355-59.9-69.9
2013-04-04T00:002005953-57.1-67.1
2013-04-04T00:002044950-54.9-65.9
2013-04-04T00:002050050-55.5-66.52755
2013-04-04T00:002085147-57.7-67.7
2013-04-04T00:002139443-56.7-67.7
2013-04-04T00:002221238-59.7-69.7
2013-04-04T00:002249836-57.9-68.9
2013-04-04T00:002301833-59.1-69.1
2013-04-04T00:002373030-54.5-65.52757
2013-04-04T00:002399128-53.7-65.7
2013-04-04T00:002564722-56.9-68.9
2013-04-04T00:002570422-55.1-67.1
2013-04-04T00:002591021-55.5-67.5
2013-04-04T00:002618720-51.7-65.7
2013-04-04T00:002632020-51.9-65.93304
2013-04-04T00:002665219-50.5-65.5
2013-04-04T00:002686018-51.7-66.7
2013-04-04T00:002729717-50.7-67.7
2013-04-04T00:002805415-52.7-71.7
2013-04-04T00:002871813-52.7-74.7
2013-04-04T00:002886013-51.1-75.1
2013-04-04T00:002915412-51.9-76.9
2013-04-04T00:002979111-47.9-79.9
2013-04-04T00:003069210-48.5-82.5
2013-04-04T00:003084010-46.1-81.127515
2013-04-04T00:00309079-45.5-80.5
2013-04-04T00:00316158-45.5-80.5
2013-04-04T00:00324997-41.7-77.7
2013-04-04T12:001541000
2013-04-04T12:00815925
2013-04-04T12:001524850
2013-04-04T12:0017188308.4-1.6
2013-04-04T12:0018188208.2-2.8
2013-04-04T12:0026967362.0-6.0
2013-04-04T12:003106700-0.3-8.33108
2013-04-04T12:003301683-1.5-9.5
2013-04-04T12:004772565-13.7-19.7
2013-04-04T12:005700500-19.7-31.731511
2013-04-04T12:005774495-20.1-32.1
2013-04-04T12:006846427-29.3-41.3
2013-04-04T12:007310400-31.9-43.934022
2013-04-04T12:007688379-33.7-46.7
2013-04-04T12:009187304-47.1-57.1
2013-04-04T12:009280300-47.7-57.734525
2013-04-04T12:0010460250-57.3-66.335024
2013-04-04T12:0010717240-58.5-67.5
2013-04-04T12:0011313218-63.3-71.3
2013-04-04T12:0011630207-63.5-71.5
2013-04-04T12:0011840200-65.333024
2013-04-04T12:0012152190-63.9-71.9
2013-04-04T12:0012282186-64.7-72.7
2013-04-04T12:0012381183-63.5-71.5
2013-04-04T12:0012482180-63.7-71.7
2013-04-04T12:0012551178-62.3-70.3
2013-04-04T12:0012656175-60.5-69.5
2013-04-04T12:0012946167-61.3-70.3
2013-04-04T12:0013252159-58.5-67.5
2013-04-04T12:0013452154-59.1-68.1
2013-04-04T12:0013576151-57.7-66.7
2013-04-04T12:0013630150-57.731025
2013-04-04T12:0013800146-57.3-66.3
2013-04-04T12:0014020141-57.5-66.5
2013-04-04T12:0014480131-60.5-69.5
2013-04-04T12:0014873123-59.1-68.1
2013-04-04T12:0015184117-61.3-70.3
2013-04-04T12:0015237116-61.1-70.1
2013-04-04T12:0015455112-59.1-68.1
2013-04-04T12:0016040102-58.9-67.9
2013-04-04T12:0016170100-57.730515
2013-04-04T12:001672691-60.5
2013-04-04T12:001719184-59.9
2013-04-04T12:001771778-61.5
2013-04-04T12:001806973-59.1
2013-04-04T12:001839070-60.130018
2013-04-04T12:001854368-61.1
2013-04-04T12:001980255-58.5
2013-04-04T12:002043550-62.1
2013-04-04T12:002049050-61.727512
2013-04-04T12:002057749-61.7
2013-04-04T12:002066648-59.1
2013-04-04T12:002086247-58.5
2013-04-04T12:002112245-54.9
2013-04-04T12:002212038-58.5
2013-04-04T12:002286534-55.9
2013-04-04T12:002372030-57.9104
2013-04-04T12:002395428-58.5
2013-04-04T12:002484425-55.5
2013-04-04T12:002550822-57.1
2013-04-04T12:002565022-55.7
2013-04-04T12:002591421-56.3
2013-04-04T12:002629020-55.13108
2013-04-04T12:002672018-53.3
2013-04-04T12:002700017-53.7
2013-04-04T12:002729417-51.9
2013-04-04T12:002797315-50.5
2013-04-04T12:002840914-51.5
2013-04-04T12:002873413-47.5
2013-04-04T12:002983211-46.7
2013-04-04T12:003012211-48.1
2013-04-04T12:003048810-46.5
2013-04-04T12:003082010-47.926513
2013-04-04T12:00308869-48.1
2013-04-04T12:00315159-46.5
2013-04-04T12:00319768-41.9
2013-04-04T12:00322228-40.9
2013-04-04T12:00328327-42.9
2013-04-04T12:00329247-41.9
2013-04-05T00:00951000
2013-04-05T00:00766925
2013-04-05T00:001483850
2013-04-05T00:00166283218.2-8.8
2013-04-05T00:00192080715.4-12.6
2013-04-05T00:0030727024.4-12.6
2013-04-05T00:0031037004.2-12.82455
2013-04-05T00:004264605-5.1-18.1
2013-04-05T00:004946554-10.5-26.5
2013-04-05T00:005015549-10.9-31.9
2013-04-05T00:005113542-11.5-33.5
2013-04-05T00:005649505-15.3-31.3
2013-04-05T00:005709501-15.7-28.7
2013-04-05T00:005740500-15.7-27.730515
2013-04-05T00:005846493-16.7-27.7
2013-04-05T00:006139474-18.3-29.3
2013-04-05T00:006574447-19.9-33.9
2013-04-05T00:007118415-24.7-37.7
2013-04-05T00:007380400-27.3-37.331017
2013-04-05T00:007488394-28.3-37.3
2013-04-05T00:008204356-34.3-43.3
2013-04-05T00:009390300-43.7-51.732028
2013-04-05T00:0010590250-53.1-62.132031
2013-04-05T00:0011980200-65.331531
2013-04-05T00:0012710177-71.7
2013-04-05T00:0012948170-70.9
2013-04-05T00:0013196163-71.5
2013-04-05T00:0013343159-69.5
2013-04-05T00:0013533154-69.9
2013-04-05T00:0013572153-69.1
2013-04-05T00:0013651151-66.1
2013-04-05T00:0013700150-64.730524
2013-04-05T00:0014122140-62.9
2013-04-05T00:0014300136-62.3
2013-04-05T00:0014483132-63.5
2013-04-05T00:0014624129-62.9
2013-04-05T00:0014768126-63.5
2013-04-05T00:0014866124-61.3
2013-04-05T00:0014967122-60.7
2013-04-05T00:0015333115-61.3-69.3
2013-04-05T00:0015387114-61.5
2013-04-05T00:0015839106-59.1
2013-04-05T00:0016018103-59.1
2013-04-05T00:0016210100-60.130518
2013-04-05T00:001644496-61.5
2013-04-05T00:001730783-59.7
2013-04-05T00:001834070-63.5
2013-04-05T00:001842070-62.730018
2013-04-05T00:001874466-62.7
2013-04-05T00:001899263-58.7
2013-04-05T00:001960657-61.5
2013-04-05T00:001971456-59.3
2013-04-05T00:002008753-59.9
2013-04-05T00:002035051-56.7
2013-04-05T00:002052050-57.328511
2013-04-05T00:002120944-59.5
2013-04-05T00:002153942-57.9
2013-04-05T00:002227637-57.9
2013-04-05T00:002249736-55.9
2013-04-05T00:002375030-56.73456
2013-04-05T00:002444026-56.5
2013-04-05T00:002485725-51.9
2013-04-05T00:002635020-52.32659
2013-04-05T00:002657919-52.9-85.9
2013-04-05T00:002724517-53.5
2013-04-05T00:002751016-51.5
2013-04-05T00:002782815-51.5
2013-04-05T00:002803615-47.9
2013-04-05T00:002852214-48.9
2013-04-05T00:002915113-45.5
2013-04-05T00:002968112-46.9
2013-04-05T00:003013811-45.7
2013-04-05T00:003090010-46.726011
2013-04-05T00:00315249-46.5
2013-04-05T00:00320588-42.7
2013-04-05T00:00323048-39.5
2013-04-05T00:00326507-38.9-75.9
2013-04-05T12:00531000
2013-04-05T12:00732925
2013-04-05T12:001457850
2013-04-05T12:00171182512.4-7.6
2013-04-05T12:00186481014.2-9.8
2013-04-05T12:00213878413.8-12.2
2013-04-05T12:0030777005.2-15.82905
2013-04-05T12:0031246964.8-16.2
2013-04-05T12:004243605-3.9-24.9
2013-04-05T12:004888557-8.3-31.3
2013-04-05T12:005386522-12.1-22.1
2013-04-05T12:005720500-14.3-26.325517
2013-04-05T12:005857491-15.1-27.1
2013-04-05T12:006264465-18.3-29.3
2013-04-05T12:006639442-21.1-28.1
2013-04-05T12:007118414-24.1-31.1
2013-04-05T12:007370400-26.3-30.924519
2013-04-05T12:007388399-26.3-30.8
2013-04-05T12:007700382-28.7-32.8
2013-04-05T12:009380300-43.1-47.625522
2013-04-05T12:0010580250-53.9-58.726026
2013-04-05T12:0011356221-61.1-65.9
2013-04-05T12:0011980200-65.526531
2013-04-05T12:0012922171-69.1
2013-04-05T12:0013136165-66.9
2013-04-05T12:0013247162-66.7
2013-04-05T12:0013555154-63.1
2013-04-05T12:0013710150-63.128028
2013-04-05T12:0014002143-64.1
2013-04-05T12:0014132140-62.7
2013-04-05T12:0014266137-60.1
2013-04-05T12:0014451133-58.9
2013-04-05T12:0014642129-59.5
2013-04-05T12:0015246117-63.1
2013-04-05T12:0015681109-62.5
2013-04-05T12:0015912105-61.1
2013-04-05T12:0016220100-62.328022
2013-04-05T12:001665393-63.1
2013-04-05T12:001700788-61.1
2013-04-05T12:001728684-63.1
2013-04-05T12:001843070-60.729514
2013-04-05T12:001894364-64.5
2013-04-05T12:001918661-61.1
2013-04-05T12:001998054-58.1
2013-04-05T12:002048050-60.9
2013-04-05T12:002052050-60.729011
2013-04-05T12:002086647-59.3
2013-04-05T12:002114945-60.5
2013-04-05T12:002146043-58.5
2013-04-05T12:002172741-59.5
2013-04-05T12:002221938-55.7
2013-04-05T12:002271935-57.9
2013-04-05T12:002280934-56.7
2013-04-05T12:002335731-59.3
2013-04-05T12:002363930-57.3
2013-04-05T12:002373030-57.53357
2013-04-05T12:002403128-57.9
2013-04-05T12:002514724-52.5
2013-04-05T12:002632020-51.93105
2013-04-05T12:002675418-52.1
2013-04-05T12:002729617-49.9
2013-04-05T12:002826914-52.9
2013-04-05T12:002853714-49.1
2013-04-05T12:003033410-47.5
2013-04-05T12:003071310-44.1
2013-04-05T12:003086010-44.527512
2013-04-05T12:00312739-44.7-61.7
2013-04-06T00:00660925
2013-04-06T00:001389850
2013-04-06T00:00168482120.0-10.0
2013-04-06T00:0027537239.6-12.4
2013-04-06T00:0030267007.6-13.42803
2013-04-06T00:004528580-6.7-16.7
2013-04-06T00:005409517-14.7-21.7
2013-04-06T00:005670500-16.7-25.725517
2013-04-06T00:006020477-19.9-27.9
2013-04-06T00:006192466-21.5-28.5
2013-04-06T00:006432451-23.3-29.3
2013-04-06T00:006579442-24.1-32.1
2013-04-06T00:007300400-29.9-37.926021
2013-04-06T00:007497389-31.7-39.7
2013-04-06T00:008783323-40.9-52.9
2013-04-06T00:009290300-45.5-57.525523
2013-04-06T00:0010077266-52.5-62.5
2013-04-06T00:0010249259-52.3-62.3
2013-04-06T00:0010480250-54.3-64.323523
2013-04-06T00:0010714241-55.3-65.3
2013-04-06T00:0011640208-60.5-69.5
2013-04-06T00:0011880200-61.5-70.524525
2013-04-06T00:0011942198-61.7-70.7
2013-04-06T00:0012132192-60.9-69.9
2013-04-06T00:0012429183-62.3-71.3
2013-04-06T00:0012565179-61.9-70.9
2013-04-06T00:0012635177-59.3-68.3
2013-04-06T00:0012778173-58.9-67.9
2013-04-06T00:0012851171-57.3-67.3
2013-04-06T00:0013308159-58.7-68.7
2013-04-06T00:0013427156-58.1-68.1
2013-04-06T00:0013590152-58.5-68.5
2013-04-06T00:0013670150-58.3-68.326531
2013-04-06T00:0013712149-58.3-68.3
2013-04-06T00:0013927144-56.3-66.3
2013-04-06T00:0014150139-57.3-67.3
2013-04-06T00:0014288136-56.3-66.3
2013-04-06T00:0014720127-57.9-67.9
2013-04-06T00:0015284116-61.9-71.9
2013-04-06T00:0015612110-61.5-71.5
2013-04-06T00:0015840106-62.9-72.9
2013-04-06T00:0016137101-62.1-72.1
2013-04-06T00:0016210100-61.3-71.326023
2013-04-06T00:001651595-60.1-70.1
2013-04-06T00:001708486-64.1-73.1
2013-04-06T00:001731583-61.5-71.5
2013-04-06T00:001747281-61.7-71.7
2013-04-06T00:001765879-58.5-68.5
2013-04-06T00:001815173-59.9-69.9
2013-04-06T00:001843070-57.5-68.529522
2013-04-06T00:001849369-56.7-67.7
2013-04-06T00:001952858-62.5-72.5
2013-04-06T00:001973256-59.1-70.1
2013-04-06T00:002042750-61.1-72.1
2013-04-06T00:002053050-60.5-71.529511
2013-04-06T00:002086247-59.9-70.9
2013-04-06T00:002110545-57.3-69.3
2013-04-06T00:002169641-59.5-70.5
2013-04-06T00:002192640-59.1-71.1
2013-04-06T00:002198939-56.5-68.5
2013-04-06T00:002205339-55.9-67.9
2013-04-06T00:002231637-57.5-69.5
2013-04-06T00:002280734-54.3-67.3
2013-04-06T00:002346031-56.9-69.9
2013-04-06T00:002376030-55.5-69.53507
2013-04-06T00:002378129-55.5-69.5
2013-04-06T00:002406228-57.3-71.3
2013-04-06T00:002438027-54.5-69.5
2013-04-06T00:002471725-55.3-71.3
2013-04-06T00:002486725-53.3-70.3
2013-04-06T00:002597921-52.3-77.3
2013-04-06T00:002636020-50.3-83.330010
2013-04-06T00:002679918-49.1-83.1
2013-04-06T00:002715717-50.5-84.5
2013-04-06T00:002773716-47.5-82.5
2013-04-06T00:002873713-51.3-84.3
2013-04-06T00:002943012-47.9-82.9
2013-04-06T00:003039410-46.7-81.7
2013-04-06T00:003070910-44.9-79.9
2013-04-06T00:003092010-45.3-80.326511
2013-04-06T00:00311229-46.1-81.1
2013-04-06T00:00316209-45.1-80.1
2013-04-06T12:00411000
2013-04-06T12:00723925
2013-04-06T12:001452850
2013-04-06T12:00162183310.0-10.0
2013-04-06T12:00165183010.2-11.8
2013-04-06T12:0018228139.0-10.0
2013-04-06T12:003040700-1.3-14.33206
2013-04-06T12:003468663-4.7-14.7
2013-04-06T12:003660647-4.5-22.5
2013-04-06T12:004094612-7.9-28.9
2013-04-06T12:005052540-13.9-36.9
2013-04-06T12:005640500-19.1-39.131017
2013-04-06T12:005987477-22.3-41.3
2013-04-06T12:006365453-23.1-43.1
2013-04-06T12:007104409-27.7-44.7
2013-04-06T12:007260400-29.3-46.330026
2013-04-06T12:009250300-46.1-58.129031
2013-04-06T12:0010430250-57.1-67.128533
2013-04-06T12:0011198221-62.7-71.7
2013-04-06T12:0011692204-60.7-69.7
2013-04-06T12:0011820200-61.5-70.528031
2013-04-06T12:0011945196-61.7-70.7
2013-04-06T12:0012106191-59.1-68.1
2013-04-06T12:0012306185-58.1-67.1
2013-04-06T12:0012622176-54.5-64.5
2013-04-06T12:0013034165-54.7-64.7
2013-04-06T12:0013191161-52.5-62.5
2013-04-06T12:0013435155-53.3-63.3
2013-04-06T12:0013650150-51.7-62.729024
2013-04-06T12:0013693149-51.5-62.5
2013-04-06T12:0014815125-57.3-67.3
2013-04-06T12:0015449113-58.7-68.7
2013-04-06T12:0015733108-58.1-68.1
2013-04-06T12:0016220100-61.7-70.726015
2013-04-06T12:001675891-64.3-73.3
2013-04-06T12:001691489-63.1-72.1
2013-04-06T12:001699188-58.1-68.1
2013-04-06T12:001728984-59.5-69.5
2013-04-06T12:001801774-56.3-66.3
2013-04-06T12:001845070-58.7-68.730511
2013-04-06T12:001900764-61.9-71.9
2013-04-06T12:001913462-61.3-71.3
2013-04-06T12:001924561-56.3-66.3
2013-04-06T12:002032651-62.9-71.9
2013-04-06T12:002055050-60.9-70.928512
2013-04-06T12:002096446-57.1-67.1
2013-04-06T12:002158342-59.9-69.9
2013-04-06T12:002213838-57.9-67.9
2013-04-06T12:002296734-58.5-68.5
2013-04-06T12:002309833-56.5-67.5
2013-04-06T12:002343031-55.7-66.7
2013-04-06T12:002376030-56.3-67.33454
2013-04-06T12:002384529-56.7-67.7
2013-04-06T12:002395329-55.7-66.7
2013-04-06T12:002459226-57.9-68.9
2013-04-06T12:002473825-55.5-66.5
2013-04-06T12:002555622-54.9-66.9
2013-04-06T12:002612320-49.3-63.3
2013-04-06T12:002636020-50.1-64.12655
2013-04-06T12:002730017-52.1-66.1
2013-04-06T12:002752916-50.5-65.5
2013-04-06T12:002788815-51.5-66.5
2013-04-06T12:002831314-49.3-66.3
2013-04-06T12:002862814-51.3-67.3
2013-04-06T12:002910613-50.3-68.3
2013-04-06T12:003019311-46.7-67.7
2013-04-06T12:003043710-44.7-66.7
2013-04-06T12:003090010-45.1-68.124511
2013-04-06T12:00318268-46.5-73.5
2013-04-07T00:00361000
2013-04-07T00:00713925
2013-04-07T00:001435850
2013-04-07T00:00167282615.4-10.6
2013-04-07T00:0023987578.2-10.8
2013-04-07T00:0030457002.4-12.62953
2013-04-07T00:003348674-0.5-12.5
2013-04-07T00:004018619-7.1-13.1
2013-04-07T00:004665569-12.7-14.7
2013-04-07T00:005033542-14.7-16.1
2013-04-07T00:005533507-18.3-20.8
2013-04-07T00:005650500-19.3-22.226018
2013-04-07T00:006357454-25.3-28.9
2013-04-07T00:006453448-26.1-32.1
2013-04-07T00:006815426-27.3-38.3
2013-04-07T00:007054412-29.1-41.1
2013-04-07T00:007159406-28.9-40.9
2013-04-07T00:007270400-29.9-41.927524
2013-04-07T00:008104355-37.9-45.9
2013-04-07T00:008440338-39.9-46.9
2013-04-07T00:009240300-47.1-53.128031
2013-04-07T00:009396293-47.3-53.3
2013-04-07T00:0010430250-55.5-61.528540
2013-04-07T00:0010741238-58.3-64.3
2013-04-07T00:0011036227-60.5-66.5
2013-04-07T00:0011287218-61.1-67.1
2013-04-07T00:0011820200-64.929032
2013-04-07T00:0011974195-64.3
2013-04-07T00:0012134190-61.3
2013-04-07T00:0012266186-60.1
2013-04-07T00:0012540178-58.7
2013-04-07T00:0012718173-59.7
2013-04-07T00:0012864169-59.5
2013-04-07T00:0013208160-55.7
2013-04-07T00:0013620150-56.127523
2013-04-07T00:0014334134-56.5
2013-04-07T00:0014526130-55.3
2013-04-07T00:0014676127-52.5
2013-04-07T00:0015423113-54.9
2013-04-07T00:0015828106-58.1
2013-04-07T00:0016200100-58.127020
2013-04-07T00:001721585-57.3
2013-04-07T00:001845070-60.12608
2013-04-07T00:001875066-61.3
2013-04-07T00:001888265-58.3
2013-04-07T00:001943159-60.5
2013-04-07T00:001956858-59.5
2013-04-07T00:001965457-56.9
2013-04-07T00:002013153-56.7
2013-04-07T00:002049450-58.9
2013-04-07T00:002056050-58.92458
2013-04-07T00:002093647-56.9
2013-04-07T00:002139343-58.9
2013-04-07T00:002168741-57.3
2013-04-07T00:002252236-58.7
2013-04-07T00:002266135-56.1
2013-04-07T00:002306433-55.3
2013-04-07T00:002376030-57.9
2013-04-07T00:002379030-57.92554
2013-04-07T00:002425027-54.1
2013-04-07T00:002457826-55.7
2013-04-07T00:002479925-52.9
2013-04-07T00:002560022-53.1
2013-04-07T00:002592321-49.7
2013-04-07T00:002620120-51.3
2013-04-07T00:002632820-49.7
2013-04-07T00:002640020-50.12557
2013-04-07T00:002723017-51.7
2013-04-07T00:002858214-48.5
2013-04-07T00:002881513-49.7
2013-04-07T00:003073610-46.9
2013-04-07T00:003095010-46.126517
2013-04-07T00:00315069-43.9
2013-04-07T00:00319578-44.5-61.5
2013-04-07T12:00361000
2013-04-07T12:00710925
2013-04-07T12:001430850
2013-04-07T12:0017908146.40.4
2013-04-07T12:0021077836.2-3.8
2013-04-07T12:0024037553.6-5.4
2013-04-07T12:0024787483.8-6.2
2013-04-07T12:003016700-0.9-8.928010
2013-04-07T12:003576652-5.9-10.9
2013-04-07T12:003807633-6.5-13.5
2013-04-07T12:004469581-10.7-20.7
2013-04-07T12:005610500-20.9-25.928513
2013-04-07T12:005654497-21.3-26.3
2013-04-07T12:005926479-22.1-28.1
2013-04-07T12:006396449-25.7-36.7
2013-04-07T12:006690431-28.1-41.1
2013-04-07T12:006977414-29.1-43.1
2013-04-07T12:007220400-31.3-43.328023
2013-04-07T12:008772319-45.1-51.1
2013-04-07T12:008856315-45.1-51.1
2013-04-07T12:009180300-47.7-54.727036
2013-04-07T12:009561283-50.9-57.9
2013-04-07T12:0010370250-54.5-61.527033
2013-04-07T12:0010709237-56.7-63.7
2013-04-07T12:0011564207-56.7-63.7
2013-04-07T12:0011718202-57.5-64.5
2013-04-07T12:0011780200-56.728032
2013-04-07T12:0011940195-57.1
2013-04-07T12:0012038192-55.9
2013-04-07T12:0012377182-56.5
2013-04-07T12:0012412181-55.7
2013-04-07T12:0012808170-57.7
2013-04-07T12:0013512152-57.9
2013-04-07T12:0013600150-58.527026
2013-04-07T12:0014397132-60.7
2013-04-07T12:0014637127-59.7
2013-04-07T12:0014686126-58.5
2013-04-07T12:0014889122-57.5
2013-04-07T12:0015207116-56.9
2013-04-07T12:0015372113-57.5
2013-04-07T12:0015428112-55.9
2013-04-07T12:0015898104-56.3
2013-04-07T12:0016150100-55.326522
2013-04-07T12:001708986-57.7
2013-04-07T12:001738882-57.1
2013-04-07T12:001747481-54.1
2013-04-07T12:001768378-52.7
2013-04-07T12:001842070-56.32306
2013-04-07T12:001886765-59.1
2013-04-07T12:001951658-57.1
2013-04-07T12:001994754-59.3
2013-04-07T12:002005154-57.9
2013-04-07T12:002054050-58.52705
2013-04-07T12:002068048-58.3
2013-04-07T12:002112945-60.9
2013-04-07T12:002133844-58.1
2013-04-07T12:002227237-59.5
2013-04-07T12:002250836-57.3
2013-04-07T12:002271835-57.9
2013-04-07T12:002316332-55.5
2013-04-07T12:002368330-58.3
2013-04-07T12:002376030-58.13104
2013-04-07T12:002419528-55.9
2013-04-07T12:002437927-56.5
2013-04-07T12:002481625-52.7
2013-04-07T12:002550822-54.7
2013-04-07T12:002619220-51.1
2013-04-07T12:002635020-52.33058
2013-04-07T12:002674818-53.5
2013-04-07T12:002692118-52.3
2013-04-07T12:002709917-53.5
2013-04-07T12:002724517-51.9
2013-04-07T12:002795315-50.5
2013-04-07T12:002842714-51.7
2013-04-07T12:002944912-47.3
2013-04-07T12:003054810-46.5-81.5
2013-04-08T00:00672925
2013-04-08T00:001393850
2013-04-08T00:00169382015.2-8.8
2013-04-08T00:00181780813.8-10.2
2013-04-08T00:0030037002.4-11.626510
2013-04-08T00:0032836760.2-13.8
2013-04-08T00:003582651-2.9-12.9
2013-04-08T00:003753637-3.5-14.5
2013-04-08T00:004615570-11.3-18.3
2013-04-08T00:004887550-13.1-24.1
2013-04-08T00:005281522-16.3-25.3
2013-04-08T00:005514506-18.3-31.3
2013-04-08T00:005610500-19.1-32.127522
2013-04-08T00:006065470-23.3-33.3
2013-04-08T00:006429447-26.3-36.3
2013-04-08T00:006658433-28.1-40.1
2013-04-08T00:007133405-31.7-40.7
2013-04-08T00:007230400-32.7-41.727021
2013-04-08T00:008113352-40.7-48.7
2013-04-08T00:008589328-43.7-50.7
2013-04-08T00:009180300-49.1-56.128540
2013-04-08T00:009790273-54.5-61.5
2013-04-08T00:0010350250-55.7-62.727549
2013-04-08T00:0010636239-55.9-62.9
2013-04-08T00:0011018225-57.5-64.5
2013-04-08T00:0011424211-56.3-63.3
2013-04-08T00:0011577206-53.9-61.9
2013-04-08T00:0011770200-54.1-62.128530
2013-04-08T00:0011802199-54.1-62.1
2013-04-08T00:0012232186-56.7-64.7
2013-04-08T00:0012335183-55.5-63.5
2013-04-08T00:0012656174-54.9-62.9
2013-04-08T00:0013070163-56.7-64.7
2013-04-08T00:0013600150-56.5-65.528033
2013-04-08T00:0014034140-58.7-67.7
2013-04-08T00:0014124138-58.1-67.1
2013-04-08T00:0014170137-56.7-65.7
2013-04-08T00:0014502130-56.1-65.1
2013-04-08T00:0014601128-54.7-63.7
2013-04-08T00:0014907122-54.5-63.5
2013-04-08T00:0015564110-57.1-66.1
2013-04-08T00:0016170100-59.5-68.524515
2013-04-08T00:001652294-60.3-69.3
2013-04-08T00:001676091-54.7-64.7
2013-04-08T00:001726884-56.7-66.7
2013-04-08T00:001754780-54.1-64.1
2013-04-08T00:001843070-58.1-68.126014
2013-04-08T00:001874266-59.7-69.7
2013-04-08T00:001879966-58.9-68.9
2013-04-08T00:001887665-55.3-65.3
2013-04-08T00:001905463-54.7-64.7
2013-04-08T00:002056050-61.3-71.32659
2013-04-08T00:002071148-58.7-68.7
2013-04-08T00:002160242-60.7-70.7
2013-04-08T00:002178241-56.3-67.3
2013-04-08T00:002227738-57.9-68.9
2013-04-08T00:002254936-55.7-66.7
2013-04-08T00:002288934-56.1-67.1
2013-04-08T00:002326932-54.1-66.1
2013-04-08T00:002378030-55.5-67.52357
2013-04-08T00:002449626-56.3-69.3
2013-04-08T00:002512224-52.1-67.1
2013-04-08T00:002638020-55.3-71.324514
2013-04-08T00:002641219-55.3-71.3
2013-04-08T00:002670919-52.1-72.1
2013-04-08T00:002709417-51.5-74.5
2013-04-08T00:002761916-53.5-77.5
2013-04-08T00:002859114-49.5-83.5
2013-04-08T00:002991111-49.9-83.9
2013-04-08T00:003056610-46.1-81.1
2013-04-08T00:003090010-46.3-81.326024
2013-04-08T00:00318288-43.7-79.7
2013-04-08T12:00661925
2013-04-08T12:001378850
2013-04-08T12:0016608226.8-2.2
2013-04-08T12:0017408147.8-6.2
2013-04-08T12:0018318059.0-5.0
2013-04-08T12:0020397859.8-8.2
2013-04-08T12:0029787002.6-14.42552
2013-04-08T12:0030826911.8-15.2
2013-04-08T12:003619646-2.3-14.3
2013-04-08T12:004446581-10.1-17.1
2013-04-08T12:004687563-11.9-17.9
2013-04-08T12:004796555-12.3-20.3
2013-04-08T12:005590500-19.1-27.124515
2013-04-08T12:005906479-22.1-28.1
2013-04-08T12:006329452-24.9-31.9
2013-04-08T12:007166402-32.5-37.1
2013-04-08T12:007200400-32.7-37.224021
2013-04-08T12:008646324-43.5-47.7
2013-04-08T12:009170300-48.3-52.925030
2013-04-08T12:0010190256-57.5-62.3
2013-04-08T12:0010340250-58.5-63.325039
2013-04-08T12:0011463209-58.5-63.3
2013-04-08T12:0011584205-58.3-63.2
2013-04-08T12:0011730200-56.925028
2013-04-08T12:0011762199-56.3
2013-04-08T12:0011858196-56.7
2013-04-08T12:0011989192-55.1
2013-04-08T12:0012089189-54.9
2013-04-08T12:0012509177-52.5
2013-04-08T12:0012693172-53.7
2013-04-08T12:0012882167-53.9
2013-04-08T12:0013077162-52.5
2013-04-08T12:0013197159-53.1
2013-04-08T12:0013445153-52.5
2013-04-08T12:0013570150-52.925031
2013-04-08T12:0013788145-53.9
2013-04-08T12:0013922142-53.7
2013-04-08T12:0014437131-55.3
2013-04-08T12:0014736125-54.1
2013-04-08T12:0015050119-55.1
2013-04-08T12:0015379113-55.3
2013-04-08T12:0015784106-57.7
2013-04-08T12:0015904104-56.3
2013-04-08T12:0016160100-56.530510
2013-04-08T12:001637996-56.5
2013-04-08T12:001651294-54.3
2013-04-08T12:001720584-58.1
2013-04-08T12:001783476-58.9
2013-04-08T12:001828671-55.5
2013-04-08T12:001842070-55.73104
2013-04-08T12:001920361-59.9
2013-04-08T12:001954758-57.5
2013-04-08T12:002025952-60.9
2013-04-08T12:002038051-58.1
2013-04-08T12:002053050-58.924510
2013-04-08T12:002124144-61.5
2013-04-08T12:002196239-60.5
2013-04-08T12:002225237-58.1
2013-04-08T12:002346931-59.9
2013-04-08T12:002373030-57.32907
2013-04-08T12:002377229-56.9
2013-04-08T12:002425527-58.5
2013-04-08T12:002441726-56.1
2013-04-08T12:002470625-56.7
2013-04-08T12:002490724-55.1
2013-04-08T12:002546722-55.9
2013-04-08T12:002631020-54.72605
2013-04-08T12:002677318-54.3
2013-04-08T12:002712617-55.3
2013-04-08T12:002765416-54.1
2013-04-08T12:002785515-52.3
2013-04-08T12:002907913-49.9
2013-04-08T12:003080010-50.725022
2013-04-08T12:00312719-51.1-71.1
2013-04-09T00:00585925
2013-04-09T00:001306850
2013-04-09T00:00166381517.2-2.8
2013-04-09T00:00221876312.8-6.2
2013-04-09T00:00232875311.2-6.8
2013-04-09T00:00243974311.0-8.0
2013-04-09T00:0029327006.6-10.41757
2013-04-09T00:003869623-2.1-14.1
2013-04-09T00:004510574-8.5-14.5
2013-04-09T00:004769555-10.3-18.3
2013-04-09T00:005308517-15.9-19.6
2013-04-09T00:005570500-17.5-21.921019
2013-04-09T00:007200400-30.7-36.721525
2013-04-09T00:008268343-39.9-46.9
2013-04-09T00:009170300-47.9-54.923029
2013-04-09T00:009643279-51.9-58.9
2013-04-09T00:009854270-52.7-59.7
2013-04-09T00:009950266-52.1-59.1
2013-04-09T00:0010196256-54.3-61.3
2013-04-09T00:0010350250-54.7-61.723038
2013-04-09T00:0011431211-54.9-61.9
2013-04-09T00:0011770200-57.1-64.123529
2013-04-09T00:0011897196-58.1-65.1
2013-04-09T00:0012059191-58.5-65.5
2013-04-09T00:0012126189-57.9-65.9
2013-04-09T00:0012226186-58.7-66.7
2013-04-09T00:0012293184-57.9-65.9
2013-04-09T00:0012362182-54.9-62.9
2013-04-09T00:0012433180-53.7-61.7
2013-04-09T00:0012541177-54.3-62.3
2013-04-09T00:0012614175-52.9-60.9
2013-04-09T00:0012954166-52.7-61.7
2013-04-09T00:0013072163-51.3-60.3
2013-04-09T00:0013315157-50.5-60.5
2013-04-09T00:0013357156-49.5-59.5
2013-04-09T00:0013484153-48.7-58.7
2013-04-09T00:0013620150-49.5-60.525021
2013-04-09T00:0013976142-51.7-62.7
2013-04-09T00:0014068140-51.3-62.3
2013-04-09T00:0014303135-53.1-64.1
2013-04-09T00:0014545130-53.9-64.9
2013-04-09T00:0014846124-56.1-67.1
2013-04-09T00:0015160118-57.1-68.1
2013-04-09T00:0015268116-56.5-67.5
2013-04-09T00:0015489112-57.9-67.9
2013-04-09T00:0015660109-57.9-67.9
2013-04-09T00:0015777107-57.1-68.1
2013-04-09T00:0015956104-58.7-68.7
2013-04-09T00:0016200100-59.1-69.124518
2013-04-09T00:001686489-60.3-70.3
2013-04-09T00:001695588-57.9-68.9
2013-04-09T00:001721785-56.1-67.1
2013-04-09T00:001749881-57.5-68.5
2013-04-09T00:001760879-55.9-66.9
2013-04-09T00:001845070-61.9-71.92656
2013-04-09T00:001860168-62.9-72.9
2013-04-09T00:001874866-60.1-70.1
2013-04-09T00:001943859-59.9-70.9
2013-04-09T00:001997454-57.9-68.9
2013-04-09T00:002009053-55.9-66.9
2013-04-09T00:002056050-57.9-68.91355
2013-04-09T00:002153042-61.1-72.1
2013-04-09T00:002161842-59.5-70.5
2013-04-09T00:002193640-60.3-71.3
2013-04-09T00:002223938-58.3-69.3
2013-04-09T00:002271535-59.5-70.5
2013-04-09T00:002280434-58.1-69.1
2013-04-09T00:002298633-58.9-69.9
2013-04-09T00:002371330-56.3-68.3
2013-04-09T00:002376030-56.5-68.52757
2013-04-09T00:002410728-56.3-68.3
2013-04-09T00:002454326-58.5-70.5
2013-04-09T00:002473625-56.5-68.5
2013-04-09T00:002530523-54.7-67.7
2013-04-09T00:002595721-57.9-70.9
2013-04-09T00:002607720-57.5-70.5
2013-04-09T00:002623120-54.5-68.5
2013-04-09T00:002633020-54.3-68.328020
2013-04-09T00:002642719-54.5-68.5
2013-04-09T00:002665919-52.3-68.3
2013-04-09T00:002726217-53.7-69.7
2013-04-09T00:002880813-52.5-72.5
2013-04-09T00:002955912-53.5-75.5
2013-04-09T00:003023510-49.3-76.3
2013-04-09T00:003081010-49.1-78.125031
2013-04-09T00:00314279-49.1-80.1
2013-04-09T00:00318768-46.5-77.5
2013-04-09T00:00325267-49.3-81.3
2013-04-09T12:001181000
2013-04-09T12:00772925
2013-04-09T12:001471850
2013-04-09T12:001949800-11.5-13.8
2013-04-09T12:002520742-15.5-17.4
2013-04-09T12:002633731-14.1-15.2
2013-04-09T12:002779717-13.9-14.6
2013-04-09T12:002961700-14.5-15.434512
2013-04-09T12:003257673-15.7-16.8
2013-04-09T12:003336666-15.3-16.2
2013-04-09T12:003579645-11.1-11.1
2013-04-09T12:003736632-6.9-6.9
2013-04-09T12:003785628-6.3-6.3
2013-04-09T12:003998611-7.3-7.4
2013-04-09T12:004126601-7.7-9.8
2013-04-09T12:004230593-8.1-10.4
2013-04-09T12:004864546-12.1-13.8
2013-04-09T12:005005536-13.3-14.9
2013-04-09T12:005162525-14.7-18.9
2013-04-09T12:005454505-17.3-24.3
2013-04-09T12:005540500-17.7-24.718524
2013-04-09T12:005797483-19.1-27.1
2013-04-09T12:007040407-29.9-35.9
2013-04-09T12:007170400-30.9-36.918529
2013-04-09T12:008745318-45.3-52.3
2013-04-09T12:009130300-46.9-54.918030
2013-04-09T12:009219296-46.7-54.7
2013-04-09T12:0010320250-54.7-62.719034
2013-04-09T12:0010580240-54.9-62.9
2013-04-09T12:0010688236-52.9-60.9
2013-04-09T12:0011023224-53.9-61.9
2013-04-09T12:0011226217-55.3-63.3
2013-04-09T12:0011558206-54.5-63.5
2013-04-09T12:0011652203-53.9-62.9
2013-04-09T12:0011750200-51.9-60.920527
2013-04-09T12:0011947194-52.1-61.1
2013-04-09T12:0012014192-49.9-59.9
2013-04-09T12:0012117189-49.3-59.3
2013-04-09T12:0012581176-51.1-63.1
2013-04-09T12:0012730172-50.5-62.5
2013-04-09T12:0013039164-52.1-65.1
2013-04-09T12:0013199160-51.5-64.5
2013-04-09T12:0013281158-50.5-64.5
2013-04-09T12:0013405155-51.7-65.7
2013-04-09T12:0013620150-51.7-65.722517
2013-04-09T12:0013751147-50.3-65.3
2013-04-09T12:0014068140-51.7-66.7
2013-04-09T12:0014598129-51.3-68.3
2013-04-09T12:0014905123-53.3-70.3
2013-04-09T12:0015503112-55.7-72.7
2013-04-09T12:0015676109-54.9-71.9
2013-04-09T12:0016097102-56.9-73.9
2013-04-09T12:0016230100-56.1-73.125016
2013-04-09T12:001723985-61.9-76.9
2013-04-09T12:001755880-62.5-76.5
2013-04-09T12:001767379-61.9-76.9
2013-04-09T12:001780877-57.9-73.9
2013-04-09T12:001836071-56.1-75.1
2013-04-09T12:001847070-56.7-74.728012
2013-04-09T12:001939260-61.5-77.5
2013-04-09T12:001987055-61.7-77.7
2013-04-09T12:001994855-59.5-76.5
2013-04-09T12:002013253-57.9-75.9
2013-04-09T12:002057050-60.7-77.71706
2013-04-09T12:002109645-64.7-79.7
2013-04-09T12:002168541-61.3-78.3
2013-04-09T12:002209839-62.5-78.5
2013-04-09T12:002266135-60.9-78.9
2013-04-09T12:002326132-62.9-79.9
2013-04-09T12:002373030-60.7-79.728012
2013-04-09T12:002385629-59.5-79.5
2013-04-09T12:002425027-59.9-80.9
2013-04-09T12:002457626-58.1-83.1
2013-04-09T12:002497024-59.5-83.5
2013-04-09T12:002531223-55.7-87.7
2013-04-09T12:002573421-56.1-88.1
2013-04-09T12:002585221-54.3-87.3
2013-04-09T12:002629020-55.3-87.324014
2013-04-09T12:002678318-57.9-89.9
2013-04-09T12:002837314-53.7-86.7
2013-04-09T12:002980611-56.1-88.1
2013-04-09T12:003063810-51.1-85.1
2013-04-09T12:003071010-50.7-84.725035
2013-04-09T12:00310449-50.1-84.1
2013-04-10T00:002331000
2013-04-10T00:00851925
2013-04-10T00:001513850
2013-04-10T00:001712828-11.3-14.0
2013-04-10T00:002311765-16.3-18.0
2013-04-10T00:002980700-19.7-21.233511
2013-04-10T00:003001698-19.9-21.3
2013-04-10T00:003260674-19.7-21.2
2013-04-10T00:003360665-16.7-17.7
2013-04-10T00:003485654-16.3-17.0
2013-04-10T00:003626642-13.7-13.7
2013-04-10T00:003732633-12.7-12.7
2013-04-10T00:003964614-12.9-12.9
2013-04-10T00:004343584-14.7-16.6
2013-04-10T00:004473574-15.5-19.6
2013-04-10T00:004685558-16.5-20.2
2013-04-10T00:004752553-17.3-21.3
2013-04-10T00:004847546-18.3-25.3
2013-04-10T00:005237518-21.1-27.1
2013-04-10T00:005352510-21.1-25.2
2013-04-10T00:005510500-21.7-25.51556
2013-04-10T00:005584495-22.3-26.1
2013-04-10T00:007110400-34.9-40.91408
2013-04-10T00:007739365-40.7-46.7
2013-04-10T00:008498326-45.7-52.7
2013-04-10T00:008580322-45.1-52.1
2013-04-10T00:009050300-46.9-55.91759
2013-04-10T00:009229292-46.7-56.7
2013-04-10T00:009819267-48.5-59.5
2013-04-10T00:0010173253-47.9-58.9
2013-04-10T00:0010260250-46.5-58.518013
2013-04-10T00:0010340247-45.9-57.9
2013-04-10T00:0010782231-48.3-60.3
2013-04-10T00:0010926226-47.3-59.3
2013-04-10T00:0011604204-45.9-58.9
2013-04-10T00:0011740200-46.3-59.322013
2013-04-10T00:0011976193-45.9-59.9
2013-04-10T00:0012185187-47.3-60.3
2013-04-10T00:0012400181-46.9-60.9
2013-04-10T00:0012510178-47.5-61.5
2013-04-10T00:0012852169-47.3-61.3
2013-04-10T00:0012970166-46.7-60.7
2013-04-10T00:0013380156-48.1-62.1
2013-04-10T00:0013508153-47.5-61.5
2013-04-10T00:0013640150-48.5-62.524512
2013-04-10T00:0013684149-48.9-62.9
2013-04-10T00:0013999142-48.7-62.7
2013-04-10T00:0014426133-51.1-64.1
2013-04-10T00:0014524131-50.9-63.9
2013-04-10T00:0014931123-52.9-65.9
2013-04-10T00:0015144119-52.9-65.9
2013-04-10T00:0015308116-54.3-67.3
2013-04-10T00:0015419114-53.7-66.7
2013-04-10T00:0015647110-54.7-66.7
2013-04-10T00:0015824107-53.9-66.9
2013-04-10T00:0016067103-54.7-67.7
2013-04-10T00:0016260100-54.1-67.124014
2013-04-10T00:001701788-55.7-67.7
2013-04-10T00:001801175-60.5-71.5
2013-04-10T00:001835871-58.9-70.9
2013-04-10T00:001852070-59.7-71.726515
2013-04-10T00:001886666-61.7-72.7
2013-04-10T00:001933461-59.1-71.1
2013-04-10T00:001966758-61.3-72.3
2013-04-10T00:002031652-61.3-72.3
2013-04-10T00:002061050-62.7-73.72406
2013-04-10T00:002072149-63.3-74.3
2013-04-10T00:002098947-63.1-74.1
2013-04-10T00:002110846-61.1-72.1
2013-04-10T00:002145243-63.1-74.1
2013-04-10T00:002166742-62.7-73.7
2013-04-10T00:002225138-60.7-72.7
2013-04-10T00:002236637-58.9-70.9
2013-04-10T00:002339031-60.7-72.7
2013-04-10T00:002378030-58.7-71.727511
2013-04-10T00:002437227-57.5-70.5
2013-04-10T00:002561322-59.1-72.1
2013-04-10T00:002578421-55.9-69.9
2013-04-10T00:002634020-55.9-69.925513
2013-04-10T00:002640419-56.1-70.1
2013-04-10T00:002656719-53.7-69.7
2013-04-10T00:002741216-56.9-71.9
2013-04-10T00:002804215-55.5-71.5
2013-04-10T00:002847114-56.5-72.5
2013-04-10T12:002451000
2013-04-10T12:00857925
2013-04-10T12:001512850
2013-04-10T12:001666833-12.9-15.1
2013-04-10T12:002211775-16.5-18.5
2013-04-10T12:002309765-15.5-17.3
2013-04-10T12:002589737-17.1-18.9
2013-04-10T12:002858711-16.7-18.4
2013-04-10T12:002932704-15.3-17.2
2013-04-10T12:002980700-15.1-17.135515
2013-04-10T12:003143685-14.3-16.6
2013-04-10T12:003210679-12.9-15.6
2013-04-10T12:003437659-13.7-16.0
2013-04-10T12:003695637-13.1-15.2
2013-04-10T12:003803628-13.7-15.9
2013-04-10T12:003937617-12.9-15.2
2013-04-10T12:004405580-14.9-17.5
2013-04-10T12:004563568-14.7-18.3
2013-04-10T12:004724556-15.1-22.1
2013-04-10T12:005055532-16.9-26.9
2013-04-10T12:005520500-20.9-30.93156
2013-04-10T12:007130400-34.9-43.93253
2013-04-10T12:007253393-35.9-44.9
2013-04-10T12:009030302-48.3-56.3
2013-04-10T12:009070300-48.3-56.33158
2013-04-10T12:009407285-48.3-56.3
2013-04-10T12:009547279-46.7-54.7
2013-04-10T12:009642275-47.1-56.1
2013-04-10T12:009715272-45.9-54.9
2013-04-10T12:009813268-45.7-54.7
2013-04-10T12:0010143255-46.1-55.1
2013-04-10T12:0010270250-47.1-56.12453
2013-04-10T12:0010457243-48.3-57.3
2013-04-10T12:0010539240-47.1-57.1
2013-04-10T12:0010848229-47.7-57.7
2013-04-10T12:0011112220-47.3-57.3
2013-04-10T12:0011172218-46.7-56.7
2013-04-10T12:0011750200-47.1-57.12206
2013-04-10T12:0012408181-47.9-58.9
2013-04-10T12:0012668174-47.3-58.3
2013-04-10T12:0013097163-49.3-60.3
2013-04-10T12:0013640150-50.1-61.12858
2013-04-10T12:0013861145-50.5-61.5
2013-04-10T12:0014278136-50.3-61.3
2013-04-10T12:0014570130-52.5-62.5
2013-04-10T12:0014926123-52.9-62.9
2013-04-10T12:0015032121-52.3-63.3
2013-04-10T12:0015471113-54.9-64.9
2013-04-10T12:0015999104-55.3-65.3
2013-04-10T12:0016260100-56.9-66.926511
2013-04-10T12:001697789-59.9-69.9
2013-04-10T12:001730184-58.1-68.1
2013-04-10T12:001788477-57.9-67.9
2013-04-10T12:001850070-59.5-69.526512
2013-04-10T12:001911663-60.9-69.9
2013-04-10T12:001952859-63.3-72.3
2013-04-10T12:001966558-61.1-70.1
2013-04-10T12:001990455-61.1-70.1
2013-04-10T12:002045651-64.7-73.7
2013-04-10T12:002058050-63.1-72.127514
2013-04-10T12:002087047-61.1-70.1
2013-04-10T12:002174241-63.7-72.7
2013-04-10T12:002198439-61.3-70.3
2013-04-10T12:002255236-62.1-71.1
2013-04-10T12:002306933-59.3-69.3
2013-04-10T12:002374030-61.5-71.52957
2013-04-10T12:002429827-63.5-72.5
2013-04-10T12:002534523-62.9-72.9
2013-04-10T12:002564522-62.1-72.1
2013-04-10T12:002581721-58.3-68.3
2013-04-10T12:002625020-57.3-68.327022
2013-04-10T12:002691518-56.9-67.9
2013-04-10T12:002713017-55.3-66.3
2013-04-10T12:002807215-56.5-68.5
2013-04-10T12:002842114-53.9-66.9
2013-04-10T12:002908112-57.1-70.1
2013-04-10T12:002954511-53.7-67.7
2013-04-10T12:003016510-54.5-70.5
2013-04-11T00:001971000
2013-04-11T00:00816925
2013-04-11T00:001479850
2013-04-11T00:001724824-5.9-11.9
2013-04-11T00:001886807-7.7-13.7
2013-04-11T00:002418753-12.3-14.3
2013-04-11T00:002592736-12.3-13.8
2013-04-11T00:002844712-13.5-14.9
2013-04-11T00:002876709-13.1-14.5
2013-04-11T00:002930704-10.3-10.9
2013-04-11T00:002977700-10.3-11.033514
2013-04-11T00:003110688-10.1-12.9
2013-04-11T00:003533651-12.1-16.6
2013-04-11T00:004188597-15.9-19.6
2013-04-11T00:004341585-15.1-19.0
2013-04-11T00:004629563-15.9-20.9
2013-04-11T00:004859546-17.7-21.7
2013-04-11T00:004928541-17.1-21.2
2013-04-11T00:005166524-18.9-23.0
2013-04-11T00:005520500-20.1-28.133514
2013-04-11T00:005699488-20.9-30.9
2013-04-11T00:006100462-23.9-31.9
2013-04-11T00:006470439-26.1-36.1
2013-04-11T00:007140400-32.1-41.134519
2013-04-11T00:007300391-33.5-41.5
2013-04-11T00:007872360-38.3-47.3
2013-04-11T00:008426332-40.3-50.3
2013-04-11T00:009084301-45.5-55.5
2013-04-11T00:009110300-45.5-55.531
2013-04-11T00:009473284-47.1-57.1
2013-04-11T00:0010320250-48.7-58.7538
2013-04-11T00:0010753234-49.1-59.1
2013-04-11T00:0010838231-48.5-58.5
2013-04-11T00:0011128221-49.3-59.3
2013-04-11T00:0011401212-47.5-57.5
2013-04-11T00:0011720202-46.7-57.7
2013-04-11T00:0011780200-47.1-58.134015
2013-04-11T00:0012049192-47.3-58.3
2013-04-11T00:0012582177-50.1-60.1
2013-04-11T00:0012807171-50.3-60.3
2013-04-11T00:0013040165-49.5-60.5
2013-04-11T00:0013446155-51.7-61.7
2013-04-11T00:0013670150-52.1-62.13008
2013-04-11T00:0013844146-52.3-62.3
2013-04-11T00:0013888145-51.9-61.9
2013-04-11T00:0014161139-52.7-62.7
2013-04-11T00:0014208138-52.1-62.1
2013-04-11T00:0014446133-53.1-63.1
2013-04-11T00:0015001122-52.7-62.7
2013-04-11T00:0015161119-53.7-63.7
2013-04-11T00:0015380115-53.5-63.5
2013-04-11T00:0015722109-55.1-65.1
2013-04-11T00:0015840107-54.3-64.3
2013-04-11T00:0016207101-56.7-66.7
2013-04-11T00:0016280100-56.1-66.130012
2013-04-11T00:001814474-60.5-69.5
2013-04-11T00:001852070-60.9-69.926016
2013-04-11T00:001985056-60.1-69.1
2013-04-11T00:002042251-63.3-72.3
2013-04-11T00:002061050-62.1-71.12704
2013-04-11T00:002097847-62.3-71.3
2013-04-11T00:002176941-64.1-73.1
2013-04-11T00:002196540-61.9-70.9
2013-04-11T00:002251236-61.9-70.9
2013-04-11T00:002284234-58.7-68.7
2013-04-11T00:002338631-59.3-69.3
2013-04-11T00:002348531-57.9-67.9
2013-04-11T00:002372930-59.7-69.7
2013-04-11T00:002378030-59.7-69.72907
2013-04-11T00:002462326-60.5-70.5
2013-04-11T00:002489125-58.1-68.1
2013-04-11T00:002549222-59.7-69.7
2013-04-11T00:002594621-58.9-68.9
2013-04-11T00:002632020-55.7-65.726017
2013-04-11T00:002727217-58.1-68.1
2013-04-11T00:002764916-57.3-68.3
2013-04-11T00:002788815-54.9-65.9
2013-04-11T00:002848314-58.1-69.1
2013-04-11T00:002870813-57.7-68.7
2013-04-11T00:002982411-52.1-66.1
2013-04-11T00:002993811-50.1-64.1
2013-04-11T00:003075010-49.7-64.725527
2013-04-11T00:00311549-49.3-65.3
2013-04-11T12:001051000
2013-04-11T12:00734925
2013-04-11T12:001408850
2013-04-11T12:001668822-5.5-9.0
2013-04-11T12:001726816-5.3-9.8
2013-04-11T12:001773811-4.1-9.1
2013-04-11T12:0018428040.8-6.2
2013-04-11T12:0019227961.0-8.0
2013-04-11T12:0019737912.4-7.6
2013-04-11T12:0020767813.2-8.8
2013-04-11T12:002958700-3.1-12.132517
2013-04-11T12:003151683-4.7-12.7
2013-04-11T12:004332586-13.7-15.8
2013-04-11T12:004502573-14.3-15.6
2013-04-11T12:005449505-18.5-20.7
2013-04-11T12:005530500-19.1-21.634526
2013-04-11T12:005831480-21.5-23.9
2013-04-11T12:005939473-20.5-23.0
2013-04-11T12:006241454-21.9-26.0
2013-04-11T12:006807420-26.1-30.6
2013-04-11T12:006928413-26.9-32.9
2013-04-11T12:007033407-26.5-36.5
2013-04-11T12:007104403-26.1-38.1
2013-04-11T12:007160400-26.3-38.331533
2013-04-11T12:007306392-26.7-37.7
2013-04-11T12:009180300-42.9-50.930031
2013-04-11T12:009687278-47.7-54.7
2013-04-11T12:0010051263-49.3-56.3
2013-04-11T12:0010380250-52.5-59.529036
2013-04-11T12:0010406249-52.7-59.7
2013-04-11T12:0010670239-53.3-60.3
2013-04-11T12:0011312216-58.3-65.3
2013-04-11T12:0011489210-57.7-64.7
2013-04-11T12:0011800200-59.3-66.329023
2013-04-11T12:0011958195-59.5
2013-04-11T12:0012088191-58.1
2013-04-11T12:0012154189-55.9
2013-04-11T12:0012290185-53.9
2013-04-11T12:0012830170-55.3
2013-04-11T12:0013137162-55.1
2013-04-11T12:0013337157-53.7
2013-04-11T12:0013630150-54.1-62.129513
2013-04-11T12:0013716148-54.3
2013-04-11T12:0013847145-53.7
2013-04-11T12:0013981142-54.5
2013-04-11T12:0014026141-52.7
2013-04-11T12:0014118139-51.5
2013-04-11T12:0014649128-53.5
2013-04-11T12:0014853124-52.3
2013-04-11T12:0015559111-57.3
2013-04-11T12:0015674109-55.9
2013-04-11T12:0015851106-54.9
2013-04-11T12:0016230100-56.1-64.127515
2013-04-11T12:001703588-59.1
2013-04-11T12:001783877-58.5
2013-04-11T12:001847070-61.724012
2013-04-11T12:001856868-62.1
2013-04-11T12:001864968-61.1
2013-04-11T12:001937060-62.9
2013-04-11T12:001982456-61.9
2013-04-11T12:002025452-63.5
2013-04-11T12:002049350-62.9
2013-04-11T12:002055050-62.126514
2013-04-11T12:002065049-60.5
2013-04-11T12:002121844-60.1
2013-04-11T12:002193240-62.9
2013-04-11T12:002304933-59.3
2013-04-11T12:002372030-61.127513
2013-04-11T12:002374129-61.1
2013-04-11T12:002480225-60.1
2013-04-11T12:002562422-57.5
2013-04-11T12:002626020-58.926016
2013-04-11T12:002709217-60.9
2013-04-11T12:002757616-55.9
2013-04-11T12:002927212-55.9
2013-04-11T12:002969811-52.7
2013-04-11T12:002992311-53.5
2013-04-11T12:003040210-49.9
2013-04-11T12:003067010-51.324020
2013-04-11T12:00310709-51.7
2013-04-11T12:00312829-46.7-62.7
2013-04-12T00:00901000
2013-04-12T00:00736925
2013-04-12T00:001427850
2013-04-12T00:0017108217.0-1.0
2013-04-12T00:0019627964.6-2.4
2013-04-12T00:002505744-0.5-3.3
2013-04-12T00:002994700-3.9-5.33008
2013-04-12T00:003073693-4.7-5.7
2013-04-12T00:003384666-6.3-7.1
2013-04-12T00:003657643-7.7-9.9
2013-04-12T00:004126605-11.1-13.9
2013-04-12T00:004408583-13.7-15.6
2013-04-12T00:004632566-15.1-18.4
2013-04-12T00:004902546-16.7-18.7
2013-04-12T00:005423509-21.3-27.3
2013-04-12T00:005560500-22.5-31.531521
2013-04-12T00:005589498-22.9-31.9
2013-04-12T00:006152461-24.3-38.3
2013-04-12T00:006855418-30.1-43.1
2013-04-12T00:007170400-32.3-44.331019
2013-04-12T00:007603376-34.9-45.9
2013-04-12T00:009140300-47.5-56.529021
2013-04-12T00:009430287-50.1-58.1
2013-04-12T00:0010265252-56.5-64.5
2013-04-12T00:0010320250-56.5-64.527522
2013-04-12T00:0010552241-56.5-64.5
2013-04-12T00:0010605239-55.3-63.3
2013-04-12T00:0010685236-55.5-63.5
2013-04-12T00:0010849230-54.1-62.1
2013-04-12T00:0011221217-54.1-62.1
2013-04-12T00:0011587205-51.1-60.1
2013-04-12T00:0011750200-52.528016
2013-04-12T00:0011913195-53.7
2013-04-12T00:0011979193-53.5
2013-04-12T00:0012114189-52.1
2013-04-12T00:0012183187-50.3
2013-04-12T00:0012324183-49.7
2013-04-12T00:0012615175-50.7
2013-04-12T00:0012727172-50.5-59.5
2013-04-12T00:0012765171-50.3
2013-04-12T00:0012958166-51.5
2013-04-12T00:0013486153-51.5
2013-04-12T00:0013620150-52.329523
2013-04-12T00:0014249136-54.3
2013-04-12T00:0014440132-53.1
2013-04-12T00:0014587129-53.9
2013-04-12T00:0014738126-51.9
2013-04-12T00:0015106119-53.5
2013-04-12T00:0015780107-58.7
2013-04-12T00:0016080102-58.1
2013-04-12T00:0016210100-58.728514
2013-04-12T00:001648695-58.1
2013-04-12T00:001680191-59.5
2013-04-12T00:001706387-54.5
2013-04-12T00:001801075-60.9
2013-04-12T00:001834171-60.7
2013-04-12T00:001845070-59.72806
2013-04-12T00:001855868-57.5
2013-04-12T00:001919762-61.7
2013-04-12T00:001933860-60.7
2013-04-12T00:001954558-61.5
2013-04-12T00:001966257-59.9
2013-04-12T00:002055050-62.125011
2013-04-12T00:002070048-62.5
2013-04-12T00:002086647-61.7
2013-04-12T00:002098546-58.5
2013-04-12T00:002208039-60.5
2013-04-12T00:002237637-57.5
2013-04-12T00:002295734-58.5
2013-04-12T00:002341931-55.5
2013-04-12T00:002375030-58.12758
2013-04-12T00:002411828-56.3
2013-04-12T00:002484625-60.3
2013-04-12T00:002533523-58.7
2013-04-12T00:002625920-59.3
2013-04-12T00:002630020-59.127017
2013-04-12T00:002672618-54.5
2013-04-12T00:002791515-57.5
2013-04-12T00:002821014-51.7
2013-04-12T00:002940112-53.9
2013-04-12T00:002977611-53.7
2013-04-12T00:003017710-50.9-63.9
2013-04-12T12:00951000
2013-04-12T12:00749925
2013-04-12T12:001449850
2013-04-12T12:0017188223.2-1.8
2013-04-12T12:0020787861.0-6.0
2013-04-12T12:002483747-2.3-3.0
2013-04-12T12:002622734-1.5-2.4
2013-04-12T12:002808717-1.9-6.5
2013-04-12T12:003008700-3.5-8.22859
2013-04-12T12:003742637-9.5-12.1
2013-04-12T12:003851628-9.9-12.8
2013-04-12T12:004074610-10.3-17.3
2013-04-12T12:004290593-12.1-20.1
2013-04-12T12:004617568-14.9-20.9
2013-04-12T12:004886548-16.7-29.7
2013-04-12T12:005220524-19.3-30.3
2013-04-12T12:005580500-20.3-31.329020
2013-04-12T12:005774487-21.3-30.3
2013-04-12T12:006143463-24.3-31.3
2013-04-12T12:006269455-25.5-30.2
2013-04-12T12:006462443-27.1-31.0
2013-04-12T12:006809422-29.5-33.4
2013-04-12T12:007048408-30.9-36.9
2013-04-12T12:007190400-32.1-38.128021
2013-04-12T12:009150300-49.1-55.128025
2013-04-12T12:009172299-49.5-55.5
2013-04-12T12:0010320250-57.9-63.928024
2013-04-12T12:0010550241-59.5-65.5
2013-04-12T12:0010926227-57.5-63.5
2013-04-12T12:0011209217-57.5-63.5
2013-04-12T12:0011297214-56.3-62.3
2013-04-12T12:0011416210-56.3-62.3
2013-04-12T12:0011477208-55.3-61.3
2013-04-12T12:0011695201-53.9-60.9
2013-04-12T12:0011730200-53.728521
2013-04-12T12:0011892195-53.7
2013-04-12T12:0011958193-52.3
2013-04-12T12:0012230185-53.5
2013-04-12T12:0012335182-52.5
2013-04-12T12:0012406180-52.5
2013-04-12T12:0012515177-51.1
2013-04-12T12:0012739171-50.9
2013-04-12T12:0012893167-49.7
2013-04-12T12:0013051163-50.1
2013-04-12T12:0013172160-48.7
2013-04-12T12:0013466153-47.9
2013-04-12T12:0013600150-48.327519
2013-04-12T12:0013822145-49.1
2013-04-12T12:0014238136-52.1
2013-04-12T12:0014579129-52.5
2013-04-12T12:0015204117-55.3
2013-04-12T12:0015885105-60.1
2013-04-12T12:0016005103-60.3
2013-04-12T12:0016200100-58.526524
2013-04-12T12:001747081-60.1
2013-04-12T12:001760979-58.7
2013-04-12T12:001811373-60.7
2013-04-12T12:001843070-59.728515
2013-04-12T12:001846669-59.9
2013-04-12T12:001861268-57.9
2013-04-12T12:001889565-59.1
2013-04-12T12:001900263-58.1
2013-04-12T12:001922161-59.7
2013-04-12T12:002006753-58.1
2013-04-12T12:002054050-59.32608
2013-04-12T12:002099146-60.9
2013-04-12T12:002145043-58.7
2013-04-12T12:002197839-59.5
2013-04-12T12:002242037-57.3
2013-04-12T12:002321032-61.5
2013-04-12T12:002373030-60.926014
2013-04-12T12:002436227-59.5
2013-04-12T12:002474325-57.5
2013-04-12T12:002509724-59.1
2013-04-12T12:002607620-59.7
2013-04-12T12:002627020-57.529013
2013-04-12T12:002683018-56.9
2013-04-12T12:002711117-58.1
2013-04-12T12:002744516-55.3
2013-04-12T12:002784015-55.9
2013-04-12T12:002813314-53.9
2013-04-12T12:002885613-56.3
2013-04-12T12:002961611-55.1
2013-04-12T12:003018510-51.5
2013-04-12T12:003055510-51.3
2013-04-12T12:003070010-49.926521
2013-04-12T12:00311769-47.9
2013-04-12T12:00313189-48.5
2013-04-12T12:00318488-44.5
2013-04-12T12:00320918-44.1
2013-04-12T12:00324287-46.1
2013-04-12T12:00326037-43.7-79.7
2013-04-13T00:001061000
2013-04-13T00:00762925
2013-04-13T00:001463850
2013-04-13T00:0017608206.6-2.4
2013-04-13T00:002448753-0.1-4.1
2013-04-13T00:002770723-3.1-4.2
2013-04-13T00:003002702-4.5-5.6
2013-04-13T00:003029700-4.5-5.82855
2013-04-13T00:003108693-4.7-8.9
2013-04-13T00:003176687-4.9-9.9
2013-04-13T00:003361671-3.3-14.3
2013-04-13T00:004410586-12.7-23.7
2013-04-13T00:004673566-14.9-25.9
2013-04-13T00:004999542-16.7-30.7
2013-04-13T00:005600500-22.1-35.130020
2013-04-13T00:006426446-29.5-40.5
2013-04-13T00:007200400-34.9-45.930522
2013-04-13T00:009150300-49.1-58.131028
2013-04-13T00:009348291-50.9-59.9
2013-04-13T00:009950265-54.7-62.7
2013-04-13T00:0010047261-54.9-62.9
2013-04-13T00:0010146257-53.9-61.9
2013-04-13T00:0010320250-55.1-63.130032
2013-04-13T00:0010397247-55.5-63.5
2013-04-13T00:0010713235-56.1-64.1
2013-04-13T00:0011456209-55.9-63.9
2013-04-13T00:0011578205-56.3-64.3
2013-04-13T00:0011672202-54.9-62.9
2013-04-13T00:0011740200-52.928024
2013-04-13T00:0011837197-52.3-61.3
2013-04-13T00:0012104189-53.1-62.1
2013-04-13T00:0012347182-52.1-61.1
2013-04-13T00:0012673173-53.7-62.7
2013-04-13T00:0013058163-50.3-59.3
2013-04-13T00:0013344156-49.7-58.7
2013-04-13T00:0013513152-50.7-59.7
2013-04-13T00:0013556151-49.9-58.9
2013-04-13T00:0013600150-50.126022
2013-04-13T00:0014047140-52.5-61.5
2013-04-13T00:0014187137-51.9-60.9
2013-04-13T00:0014426132-53.3-62.3
2013-04-13T00:0014674127-53.1-62.1
2013-04-13T00:0015365114-54.7-63.7
2013-04-13T00:0015650109-57.1-66.1
2013-04-13T00:0016200100-58.925523
2013-04-13T00:001726284-58.5
2013-04-13T00:001794075-61.1
2013-04-13T00:001829571-58.7
2013-04-13T00:001843070-59.528017
2013-04-13T00:001854768-60.3
2013-04-13T00:001874266-56.9
2013-04-13T00:001949559-57.7
2013-04-13T00:001971257-56.7
2013-04-13T00:001990255-58.3
2013-04-13T00:002014653-55.9
2013-04-13T00:002056050-57.326012
2013-04-13T00:002102846-60.3
2013-04-13T00:002137443-57.9
2013-04-13T00:002163742-58.7
2013-04-13T00:002199139-56.1
2013-04-13T00:002269335-58.9
2013-04-13T00:002332632-56.5
2013-04-13T00:002358730-53.9
2013-04-13T00:002378030-54.32706
2013-04-13T00:002435527-57.7
2013-04-13T00:002485925-55.7
2013-04-13T00:002551722-57.5
2013-04-13T00:002580121-54.5
2013-04-13T00:002613220-53.3
2013-04-13T00:002636020-53.925514
2013-04-13T00:002790915-54.1
2013-04-13T00:002846014-55.9
2013-04-13T00:002926112-53.9
2013-04-13T00:002946712-51.1
2013-04-13T00:003049010-52.5
2013-04-13T00:003055210-51.3-62.3
2013-04-13T12:00761000
2013-04-13T12:00726925
2013-04-13T12:001424850
2013-04-13T12:0016598260.6-0.5
2013-04-13T12:0018558061.8-0.7
2013-04-13T12:0019267993.8-0.2
2013-04-13T12:0020487874.8-2.2
2013-04-13T12:0021427786.0-8.0
2013-04-13T12:0025067445.2-12.8
2013-04-13T12:0030017001.0-16.027012
2013-04-13T12:003649645-4.7-20.7
2013-04-13T12:004252597-7.5-25.5
2013-04-13T12:004663566-11.3-28.3
2013-04-13T12:004909548-13.1-25.1
2013-04-13T12:005190528-15.5-26.5
2013-04-13T12:005610500-18.5-29.529011
2013-04-13T12:006710430-28.1-38.1
2013-04-13T12:007230400-30.9-40.929013
2013-04-13T12:007301396-31.5-41.5
2013-04-13T12:009190300-48.1-55.130018
2013-04-13T12:009919268-55.3-62.3
2013-04-13T12:0010370250-58.9-65.929023
2013-04-13T12:0010626240-58.5-65.5
2013-04-13T12:0010838232-58.9-65.9
2013-04-13T12:0010892230-58.5-65.5
2013-04-13T12:0011057224-59.5-66.5
2013-04-13T12:0011760200-60.729523
2013-04-13T12:0012015192-57.7-64.7
2013-04-13T12:0012281184-59.9-66.9
2013-04-13T12:0012349182-57.9-64.9
2013-04-13T12:0012419180-57.1-64.1
2013-04-13T12:0012742171-57.7-64.7
2013-04-13T12:0012968165-55.9-62.9
2013-04-13T12:0013124161-55.7-62.7
2013-04-13T12:0013406154-56.7-63.7
2013-04-13T12:0013489152-55.7-62.7
2013-04-13T12:0013580150-55.729022
2013-04-13T12:0013665148-55.1-62.1
2013-04-13T12:0013928142-56.1-63.1
2013-04-13T12:0014109138-55.7-62.7
2013-04-13T12:0015041119-59.5-66.5
2013-04-13T12:0015827105-56.9-64.9
2013-04-13T12:0016140100-59.128019
2013-04-13T12:001703886-59.5
2013-04-13T12:001717784-57.7
2013-04-13T12:001790575-60.1
2013-04-13T12:001814272-57.3
2013-04-13T12:001838070-56.927013
2013-04-13T12:001842669-56.9
2013-04-13T12:001890364-59.9
2013-04-13T12:001941059-57.1
2013-04-13T12:002029051-60.9
2013-04-13T12:002049050-58.527012
2013-04-13T12:002052849-57.9
2013-04-13T12:002101746-55.9
2013-04-13T12:002186440-60.1
2013-04-13T12:002233737-53.3
2013-04-13T12:002289234-55.1
2013-04-13T12:002368730-53.3
2013-04-13T12:002373030-53.32955
2013-04-13T12:002442226-58.3
2013-04-13T12:002535223-57.7
2013-04-13T12:002586421-54.7
2013-04-13T12:002630020-57.72853
2013-04-13T12:002655619-58.7
2013-04-13T12:002692918-54.3
2013-04-13T12:002744316-55.1
2013-04-13T12:002763816-52.7
2013-04-13T12:002792215-52.7
2013-04-13T12:002804715-54.1
2013-04-13T12:002830514-52.7
2013-04-13T12:002900013-54.3
2013-04-13T12:003001511-48.3
2013-04-13T12:003050210-47.7
2013-04-13T12:003063010-45.9
2013-04-13T12:003078010-45.925013
2013-04-13T12:00315538-46.1-62.1
2013-04-14T00:00605925
2013-04-14T00:001314850
2013-04-14T00:00166381516.8-10.2
2013-04-14T00:00206577713.0-11.0
2013-04-14T00:00225076012.0-12.0
2013-04-14T00:0029337005.8-14.21753
2013-04-14T00:003919619-3.1-16.1
2013-04-14T00:005217523-15.5-18.2
2013-04-14T00:005560500-17.5-19.526522
2013-04-14T00:005620496-17.7-19.6
2013-04-14T00:005864480-18.5-21.4
2013-04-14T00:006965413-26.3-30.4
2013-04-14T00:007200400-28.3-32.727025
2013-04-14T00:007983358-34.3-41.3
2013-04-14T00:009200300-45.5-51.527026
2013-04-14T00:009470288-48.1-54.1
2013-04-14T00:0010380250-55.5-61.528533
2013-04-14T00:0011617205-63.9-69.9
2013-04-14T00:0011770200-64.5-70.529031
2013-04-14T00:0011955194-64.7-70.7
2013-04-14T00:0012212186-64.1-70.1
2013-04-14T00:0012312183-62.3-68.3
2013-04-14T00:0012518177-60.5-66.5
2013-04-14T00:0012660173-60.9-66.9
2013-04-14T00:0012880167-58.5-64.5
2013-04-14T00:0013071162-58.1-65.1
2013-04-14T00:0013149160-57.3-64.3
2013-04-14T00:0013269157-53.9-60.9
2013-04-14T00:0013434153-53.5-61.5
2013-04-14T00:0013570150-53.9-61.926519
2013-04-14T00:0014009140-56.5-64.5
2013-04-14T00:0014286134-56.5-65.5
2013-04-14T00:0014723125-58.9-67.9
2013-04-14T00:0014876122-58.5-67.5
2013-04-14T00:0014927121-56.9-65.9
2013-04-14T00:0015195116-55.1-64.1
2013-04-14T00:0015476111-54.7-64.7
2013-04-14T00:0015534110-55.1-65.1
2013-04-14T00:0016140100-59.7-69.723519
2013-04-14T00:001632397-60.9-69.9
2013-04-14T00:001704786-60.9-70.9
2013-04-14T00:001738781-60.1-70.1
2013-04-14T00:001762978-57.7-67.7
2013-04-14T00:001795674-59.7-69.7
2013-04-14T00:001822971-58.9-68.9
2013-04-14T00:001837070-59.7-69.724517
2013-04-14T00:001855068-60.9-70.9
2013-04-14T00:001890664-60.9-70.9
2013-04-14T00:001927660-58.7-69.7
2013-04-14T00:001940259-55.9-66.9
2013-04-14T00:001981355-53.9-65.9
2013-04-14T00:002049050-57.7-69.72755
2013-04-14T00:002059149-58.3-69.3
2013-04-14T00:002100346-54.5-67.5
2013-04-14T00:002130044-55.9-67.9
2013-04-14T00:002167241-54.9-67.9
2013-04-14T00:002203339-57.5-69.5
2013-04-14T00:002329732-55.7-69.7
2013-04-14T00:002343831-53.9-67.9
2013-04-14T00:002374030-55.1-69.125017
2013-04-14T00:002418128-53.9-68.9
2013-04-14T00:002462826-56.3-70.3
2013-04-14T00:002519023-53.1-70.1
2013-04-14T00:002589821-54.5-71.5
2013-04-14T00:002595821-52.5-70.5
2013-04-14T00:002614320-52.3-71.3
2013-04-14T00:002634020-52.3-72.327012
2013-04-14T00:002673718-54.3-73.3
2013-04-14T00:002705117-53.1-74.1
2013-04-14T00:002723217-54.5-73.5
2013-04-14T00:002769216-51.1-76.1
2013-04-14T00:002974411-51.7-84.7
2013-04-14T00:003008311-49.5-83.5
2013-04-14T00:003038110-50.1-84.1
2013-04-14T00:003056710-47.9-82.9
2013-04-14T00:003069610-44.5-80.5
2013-04-14T00:003084010-44.3-80.327016
2013-04-14T00:00309079-43.5-79.5
2013-04-14T00:00316208-44.3-80.3
2013-04-14T12:00626925
2013-04-14T12:001343850
2013-04-14T12:0017208124.6-4.4
2013-04-14T12:0017908054.0-10.0
2013-04-14T12:0022637590.4-11.6
2013-04-14T12:002750714-1.5-12.5
2013-04-14T12:002916700-2.9-13.927518
2013-04-14T12:003213674-5.7-15.7
2013-04-14T12:003604641-7.5-17.5
2013-04-14T12:004024607-11.3-18.3
2013-04-14T12:004855544-15.3-22.3
2013-04-14T12:005224518-15.5-24.5
2013-04-14T12:005500500-17.5-27.525540
2013-04-14T12:005943471-20.9-29.9
2013-04-14T12:007120400-31.9-36.225041
2013-04-14T12:007316389-33.7-37.5
2013-04-14T12:008856310-47.9-51.6
2013-04-14T12:009080300-47.9-52.426539
2013-04-14T12:009510281-48.3-54.3
2013-04-14T12:0010043259-49.9-55.9
2013-04-14T12:0010280250-51.1-58.128050
2013-04-14T12:0011556205-54.9-61.9
2013-04-14T12:0011710200-53.927032
2013-04-14T12:0011742199-53.7
2013-04-14T12:0012210185-53.3
2013-04-14T12:0012350181-54.1
2013-04-14T12:0012421179-53.9
2013-04-14T12:0012530176-52.1
2013-04-14T12:0012754170-51.3
2013-04-14T12:0012986164-52.1
2013-04-14T12:0013065162-51.3
2013-04-14T12:0013434153-52.9
2013-04-14T12:0013476152-51.3
2013-04-14T12:0013570150-51.126027
2013-04-14T12:0013969141-53.7
2013-04-14T12:0015043119-58.9
2013-04-14T12:0015203116-58.1
2013-04-14T12:0015258115-56.3
2013-04-14T12:0015426112-57.5
2013-04-14T12:0015539110-56.5
2013-04-14T12:0015773106-57.1
2013-04-14T12:0015833105-54.1
2013-04-14T12:0016150100-54.725016
2013-04-14T12:001670691-57.3
2013-04-14T12:001729983-55.7
2013-04-14T12:001807773-59.5
2013-04-14T12:001821572-56.5
2013-04-14T12:001841070-55.32456
2013-04-14T12:001845669-54.7
2013-04-14T12:001889964-58.5
2013-04-14T12:001900763-57.1
2013-04-14T12:001940559-57.7
2013-04-14T12:002017052-61.3
2013-04-14T12:002052050-60.925516
2013-04-14T12:002098546-59.3
2013-04-14T12:002139943-62.3
2013-04-14T12:002177040-55.9
2013-04-14T12:002218638-56.1
2013-04-14T12:002230337-54.7
2013-04-14T12:002309033-58.3
2013-04-14T12:002328232-57.9
2013-04-14T12:002358530-53.5
2013-04-14T12:002374030-53.321515
2013-04-14T12:002411528-53.1
2013-04-14T12:002439227-55.1
2013-04-14T12:002545822-57.5
2013-04-14T12:002588621-56.5
2013-04-14T12:002609820-54.1
2013-04-14T12:002633020-54.32706
2013-04-14T12:002679318-54.9
2013-04-14T12:002776516-49.3
2013-04-14T12:002863314-51.9
2013-04-14T12:002891813-49.3
2013-04-14T12:002901713-46.3
2013-04-14T12:002943412-43.7
2013-04-14T12:002987811-46.7
2013-04-14T12:003017011-45.5
2013-04-14T12:003053910-46.3
2013-04-14T12:003088010-45.12809
2013-04-14T12:00310849-43.1
2013-04-14T12:00318878-46.1
2013-04-14T12:00321238-45.1-80.1
2013-04-15T00:00151000
2013-04-15T00:00673925
2013-04-15T00:001377850
2013-04-15T00:0016718207.4-11.6
2013-04-15T00:0017518126.2-10.8
2013-04-15T00:0020877792.8-12.2
2013-04-15T00:002916702-3.3-17.3
2013-04-15T00:002947700-3.5-17.525016
2013-04-15T00:003560647-9.5-19.5
2013-04-15T00:004023609-13.3-21.3
2013-04-15T00:004263590-14.9-23.9
2013-04-15T00:004643561-15.1-26.1
2013-04-15T00:004902542-16.7-29.7
2013-04-15T00:005013534-16.7-26.7
2013-04-15T00:005197521-17.5-28.5
2013-04-15T00:005385508-18.9-28.9
2013-04-15T00:005510500-18.9-28.927545
2013-04-15T00:005615493-18.7-30.7
2013-04-15T00:006730423-28.9-38.9
2013-04-15T00:007130400-30.1-40.128049
2013-04-15T00:007273392-30.9-41.9
2013-04-15T00:007549377-30.5-43.5
2013-04-15T00:008626323-38.9-49.9
2013-04-15T00:008927309-40.5-51.5
2013-04-15T00:009140300-42.1-53.127565
2013-04-15T00:009697276-46.7-56.7
2013-04-15T00:0010350250-51.5-60.528060
2013-04-15T00:0010941228-55.5-64.5
2013-04-15T00:0011343214-56.1-65.1
2013-04-15T00:0011770200-57.7-66.728054
2013-04-15T00:0011865197-56.5-65.5
2013-04-15T00:0011995193-55.9-64.9
2013-04-15T00:0012332183-56.7-65.7
2013-04-15T00:0012472179-56.1-65.1
2013-04-15T00:0012652174-54.1-63.1
2013-04-15T00:0012801170-54.5-63.5
2013-04-15T00:0012954166-52.5-61.5
2013-04-15T00:0013071163-53.1-62.1
2013-04-15T00:0013353156-52.7-61.7
2013-04-15T00:0013610150-53.1-62.127531
2013-04-15T00:0014144138-54.5-63.5
2013-04-15T00:0014428132-53.7-62.7
2013-04-15T00:0014626128-52.1-62.1
2013-04-15T00:0014830124-53.3-63.3
2013-04-15T00:0014935122-52.7-62.7
2013-04-15T00:0015313115-55.5-64.5
2013-04-15T00:0015369114-54.1-64.1
2013-04-15T00:0015539111-55.1-64.1
2013-04-15T00:0015597110-52.5-62.5
2013-04-15T00:0015715108-51.9-61.9
2013-04-15T00:0015896105-53.5-63.5
2013-04-15T00:0015957104-52.9-62.9
2013-04-15T00:0016220100-54.9-63.92403
2013-04-15T00:001721885-61.5-70.5
2013-04-15T00:001816273-62.1-71.1
2013-04-15T00:001827371-60.5-69.5
2013-04-15T00:001844070-60.7-69.726021
2013-04-15T00:001882365-61.7-70.7
2013-04-15T00:001921361-59.1-68.1
2013-04-15T00:001975056-60.3-69.3
2013-04-15T00:001999854-56.5-65.5
2013-04-15T00:002055050-60.5-69.521517
2013-04-15T00:002066349-61.1-70.1
2013-04-15T00:002075348-58.3-67.3
2013-04-15T00:002118145-59.1-68.1
2013-04-15T00:002136443-56.9-65.9
2013-04-15T00:002176441-57.3-66.3
2013-04-15T00:002199939-55.3-65.3
2013-04-15T00:002226038-56.7-66.7
2013-04-15T00:002278235-53.5-63.5
2013-04-15T00:002343831-51.7-61.7
2013-04-15T00:002380030-53.9-63.927012
2013-04-15T00:002433027-56.7-66.7
2013-04-15T00:002501124-53.5-64.5
2013-04-15T00:002583521-55.1-65.1
2013-04-15T00:002601521-49.3-61.3
2013-04-15T00:002640020-50.3-62.32004
2013-04-15T00:002697618-52.7-63.7
2013-04-15T00:002726317-52.3-64.3
2013-04-15T00:002752716-51.7-63.7
2013-04-15T00:002801215-46.7-59.7
2013-04-15T00:002911313-48.3-62.3
2013-04-15T00:002968712-45.9-60.9
2013-04-15T00:003020011-45.9-60.9
2013-04-15T00:003056810-42.3-58.3
2013-04-15T00:003089410-42.1-58.1
2013-04-15T00:003098010-40.5-56.526014
2013-04-15T00:00312599-37.9-54.9
2013-04-15T00:00317019-38.9-55.9
2013-04-15T00:00320948-36.3-54.3
2013-04-15T12:00411000
2013-04-15T12:00696925
2013-04-15T12:001397850
2013-04-15T12:001777811-0.3-7.3
2013-04-15T12:0018668020.8-7.2
2013-04-15T12:0020077880.2-9.8
2013-04-15T12:002284761-2.1-12.1
2013-04-15T12:002883705-7.7-13.7
2013-04-15T12:002944700-8.1-13.117517
2013-04-15T12:003431657-11.9-11.9
2013-04-15T12:003631640-12.3-12.3
2013-04-15T12:003679636-11.7-11.7
2013-04-15T12:003912617-9.3
2013-04-15T12:004013609-9.5
2013-04-15T12:004089603-8.5
2013-04-15T12:004153598-8.7
2013-04-15T12:004671559-11.7-11.7
2013-04-15T12:005380509-16.3-17.5
2013-04-15T12:005520500-17.5-19.624537
2013-04-15T12:005885476-20.5-28.5
2013-04-15T12:006345447-24.1-32.1
2013-04-15T12:006880415-28.5-34.5
2013-04-15T12:007150400-30.9-36.926538
2013-04-15T12:007640373-34.7-40.7
2013-04-15T12:008562326-42.5-50.5
2013-04-15T12:009054303-43.3-55.3
2013-04-15T12:009130300-43.9-55.926055
2013-04-15T12:009518283-46.7-61.7
2013-04-15T12:0010224254-52.3-66.3
2013-04-15T12:0010320250-52.7-65.725559
2013-04-15T12:0010718235-53.1-66.1
2013-04-15T12:0011255216-56.7-68.7
2013-04-15T12:0011344213-54.7-67.7
2013-04-15T12:0011496208-54.3-67.3
2013-04-15T12:0011620204-52.9-65.9
2013-04-15T12:0011760200-52.7-66.727048
2013-04-15T12:0011923195-51.9-65.9
2013-04-15T12:0012439180-53.3-67.3
2013-04-15T12:0012620175-52.5-67.5
2013-04-15T12:0013037164-54.3-68.3
2013-04-15T12:0013195160-52.5-67.5
2013-04-15T12:0013526152-52.9-68.9
2013-04-15T12:0013610150-52.1-68.126533
2013-04-15T12:0013918143-53.5-69.5
2013-04-15T12:0014147138-52.9-69.9
2013-04-15T12:0014630128-53.9-70.9
2013-04-15T12:0014680127-53.1-71.1
2013-04-15T12:0014782125-53.5-70.5
2013-04-15T12:0014886123-52.3-70.3
2013-04-15T12:0015262116-54.7-71.7
2013-04-15T12:0015373114-53.9-71.9
2013-04-15T12:0015601110-54.7-72.7
2013-04-15T12:0016210100-58.3-74.324022
2013-04-15T12:001709586-63.5-77.5
2013-04-15T12:001755880-62.1-76.1
2013-04-15T12:001793675-63.3-77.3
2013-04-15T12:001842070-62.1-77.125511
2013-04-15T12:001874766-60.5-76.5
2013-04-15T12:001946659-62.7-77.7
2013-04-15T12:001968957-60.7-77.7
2013-04-15T12:002031751-61.5-77.5
2013-04-15T12:002050050-58.9-76.926021
2013-04-15T12:002074448-56.9-77.9
2013-04-15T12:002124844-58.5-78.5
2013-04-15T12:002136343-55.7-78.7
2013-04-15T12:002155642-54.7-80.7
2013-04-15T12:002250036-61.1-82.1
2013-04-15T12:002286734-61.9-82.9
2013-04-15T12:002309033-56.3-85.3
2013-04-15T12:002328432-57.3-85.3
2013-04-15T12:002364930-56.1-87.1
2013-04-15T12:002373030-56.3-86.323015
2013-04-15T12:002385829-57.3-87.3
2013-04-15T12:002403328-54.9
2013-04-15T12:002471725-53.3
2013-04-15T12:002507624-54.9
2013-04-15T12:002565122-55.3
2013-04-15T12:002582621-53.7
2013-04-15T12:002609820-54.7
2013-04-15T12:002632020-52.522010
2013-04-15T12:002668418-52.7
2013-04-15T12:002685818-48.5
2013-04-15T12:002733717-50.5
2013-04-15T12:002773116-47.7
2013-04-15T12:002802315-48.9
2013-04-15T12:002824014-47.1
2013-04-15T12:002884313-46.7
2013-04-15T12:002904113-45.1
2013-04-15T12:003006911-48.1
2013-04-15T12:003042810-47.1
2013-04-15T12:003090010-43.124522
2013-04-15T12:00310369-41.9-77.9
2013-04-16T00:001261000
2013-04-16T00:00761925
2013-04-16T00:001443850
2013-04-16T00:001782814-5.7-6.6
2013-04-16T00:002045787-6.7-7.7
2013-04-16T00:002255766-6.7-7.2
2013-04-16T00:002706723-5.1-5.1
2013-04-16T00:002968700-6.3-6.81455
2013-04-16T00:003471656-8.9-10.4
2013-04-16T00:004208596-11.5-13.0
2013-04-16T00:005038534-17.3-19.3
2013-04-16T00:005236520-17.3-19.3
2013-04-16T00:005540500-18.3-20.323029
2013-04-16T00:005615495-18.5-20.6
2013-04-16T00:006204457-22.7-26.3
2013-04-16T00:007170400-30.7-36.723538
2013-04-16T00:008520329-42.5-51.5
2013-04-16T00:009005306-45.5-54.5
2013-04-16T00:009140300-45.3-55.326062
2013-04-16T00:009366290-45.1-56.1
2013-04-16T00:009790272-47.9-60.9
2013-04-16T00:0010340250-50.9-63.925564
2013-04-16T00:0010766234-53.9-65.9
2013-04-16T00:0010989226-53.3-66.3
2013-04-16T00:0011279216-53.5-66.5
2013-04-16T00:0011369213-52.1-65.1
2013-04-16T00:0011461210-51.9-65.9
2013-04-16T00:0011523208-49.3-64.3
2013-04-16T00:0011586206-47.5-63.5
2013-04-16T00:0011748201-46.9-62.9
2013-04-16T00:0011790200-46.9-62.927046
2013-04-16T00:0011957195-47.5-64.5
2013-04-16T00:0012059192-46.7-63.7
2013-04-16T00:0012520179-48.9-66.9
2013-04-16T00:0013214161-48.9-69.9
2013-04-16T00:0013462155-50.7-69.7
2013-04-16T00:0013680150-51.1-71.125537
2013-04-16T00:0014081141-51.5-71.5
2013-04-16T00:0014457133-53.5-72.5
2013-04-16T00:0014852125-56.5-73.5
2013-04-16T00:0015006122-56.7-73.7
2013-04-16T00:0015378115-58.7-74.7
2013-04-16T00:0015830107-58.1-74.1
2013-04-16T00:0016260100-60.9-75.923025
2013-04-16T00:001659194-60.9-75.9
2013-04-16T00:001677192-57.9-74.9
2013-04-16T00:001707987-57.3-75.3
2013-04-16T00:001756181-60.5-76.5
2013-04-16T00:001780478-58.9-75.9
2013-04-16T00:001849070-61.1-77.12259
2013-04-16T00:001879766-63.3-78.3
2013-04-16T00:001963358-63.7-78.7
2013-04-16T00:001986056-60.7-77.7
2013-04-16T00:002045350-60.1-78.1
2013-04-16T00:002055250-57.5-77.5
2013-04-16T00:002057050-57.3-77.324512
2013-04-16T00:002082848-55.3-78.3
2013-04-16T00:002127944-57.1-79.1
2013-04-16T00:002166042-53.3-81.3
2013-04-16T00:002189240-54.5-81.5
2013-04-16T00:002218238-53.5-83.5
2013-04-16T00:002252036-55.9-82.9
2013-04-16T00:002306233-53.5-85.5
2013-04-16T00:002363430-55.7-86.7
2013-04-16T00:002383030-54.9-86.923520
2013-04-16T00:002400329-53.9-86.9
2013-04-16T00:002418228-51.1-85.1
2013-04-16T00:002513824-51.9-84.9
2013-04-16T00:002538123-50.5-84.5
2013-04-16T00:002607421-53.3-86.3
2013-04-16T00:002646020-52.1-85.123019
2013-04-16T00:002652619-51.3-84.3
2013-04-16T00:002696318-52.9-85.9
2013-04-16T00:002736017-49.9-83.9
2013-04-16T12:001661000
2013-04-16T12:00794925
2013-04-16T12:001467850
2013-04-16T12:001686827-5.5-5.9
2013-04-16T12:002153779-5.9-5.9
2013-04-16T12:002982700-10.9-10.918014
2013-04-16T12:003015697-10.9-10.9
2013-04-16T12:003445659-10.5-10.5
2013-04-16T12:003574648-11.1-11.1
2013-04-16T12:003694638-8.1-8.1
2013-04-16T12:003767632-7.7-7.7
2013-04-16T12:003965616-8.9-14.9
2013-04-16T12:004193598-10.7-20.7
2013-04-16T12:004734557-14.3-30.3
2013-04-16T12:005124529-14.3-31.3
2013-04-16T12:005560500-16.1-33.124040
2013-04-16T12:005913477-17.5-34.5
2013-04-16T12:006494441-21.3-38.3
2013-04-16T12:007210400-27.3-44.324043
2013-04-16T12:007764370-32.3-49.3
2013-04-16T12:009210300-42.1-57.124045
2013-04-16T12:0010036265-48.3-62.3
2013-04-16T12:0010420250-50.5-63.524044
2013-04-16T12:0010578244-51.1-64.1
2013-04-16T12:0011420214-55.5-66.5
2013-04-16T12:0011571209-53.9-65.9
2013-04-16T12:0011664206-52.1-65.1
2013-04-16T12:0011759203-52.3-65.3
2013-04-16T12:0011860200-51.5-64.524547
2013-04-16T12:0011958197-50.9-63.9
2013-04-16T12:0012719175-55.5-67.5
2013-04-16T12:0013016167-56.3-67.3
2013-04-16T12:0013208162-57.9-68.9
2013-04-16T12:0013406157-55.7-67.7
2013-04-16T12:0013611152-55.9-67.9
2013-04-16T12:0013690150-55.3-67.324546
2013-04-16T12:0013733149-55.3-67.3
2013-04-16T12:0013776148-54.3-66.3
2013-04-16T12:0014129140-57.1-68.1
2013-04-16T12:0014266137-56.7-67.7
2013-04-16T12:0014453133-57.9-68.9
2013-04-16T12:0014645129-58.3-69.3
2013-04-16T12:0014694128-57.9-68.9
2013-04-16T12:0015046121-59.5-70.5
2013-04-16T12:0015363115-59.9-70.9
2013-04-16T12:0015528112-59.3-70.3
2013-04-16T12:0015812107-60.9-70.9
2013-04-16T12:0016240100-61.7-71.725530
2013-04-16T12:001645496-60.1-71.1
2013-04-16T12:001687290-62.1-72.1
2013-04-16T12:001713986-58.7-69.7
2013-04-16T12:001784477-63.1-73.1
2013-04-16T12:001803974-60.7-71.7
2013-04-16T12:001846070-60.9-71.921513
2013-04-16T12:001910163-62.5-72.5
2013-04-16T12:001973956-61.3-72.3
2013-04-16T12:001984955-59.9-70.9
2013-04-16T12:002047650-64.5-74.5
2013-04-16T12:002054050-63.7-73.721519
2013-04-16T12:002065149-62.5-73.5
2013-04-16T12:002098646-62.3-73.3
2013-04-16T12:002117645-60.5-71.5
2013-04-16T12:002127344-56.9-68.9
2013-04-16T12:002195539-52.3-66.3
2013-04-16T12:002237237-52.3-67.3
2013-04-16T12:002274235-55.1-69.1
2013-04-16T12:002366830-57.3-70.3
2013-04-16T12:002378030-55.3-69.323512
2013-04-16T12:002424227-54.7-68.7
2013-04-16T12:002442927-51.3-66.3
2013-04-16T12:002485025-50.1-65.1
2013-04-16T12:002549323-52.3-67.3
2013-04-16T12:002641020-50.1-65.124014
2013-04-16T12:002654219-50.1-65.1
2013-04-16T12:002702218-52.5-67.5
2013-04-16T12:002757716-51.7-66.7
2013-04-16T12:002801615-53.3-68.3
2013-04-16T12:002871914-47.9-62.9
2013-04-16T12:002896213-41.7-56.7
2013-04-16T12:002953812-40.3-56.3
2013-04-16T12:003010811-41.9-57.9
2013-04-16T12:003053710-40.5-56.5
2013-04-17T00:001141000
2013-04-17T00:00747925
2013-04-17T00:001427850
2013-04-17T00:001835808-1.1-2.8
2013-04-17T00:002004791-0.3-2.2
2013-04-17T00:002280764-2.5-4.5
2013-04-17T00:002353757-1.7-3.6
2013-04-17T00:002479745-2.5-4.5
2013-04-17T00:002554738-2.1-4.1
2013-04-17T00:002727722-3.3-5.7
2013-04-17T00:002972700-5.5-6.815513
2013-04-17T00:003073691-6.3-7.1
2013-04-17T00:003394663-7.7-7.7
2013-04-17T00:003465657-7.1-7.1
2013-04-17T00:003513653-5.7-6.4
2013-04-17T00:003561649-4.3-8.4
2013-04-17T00:003622644-3.7-10.7
2013-04-17T00:003746634-2.1-11.1
2013-04-17T00:004539573-7.5-16.5
2013-04-17T00:005369514-15.5-19.9
2013-04-17T00:005590500-17.1-21.822031
2013-04-17T00:006128465-21.9-26.2
2013-04-17T00:006883419-27.9-34.9
2013-04-17T00:007210400-30.3-38.323543
2013-04-17T00:007967359-36.3-46.3
2013-04-17T00:008142350-36.9-47.9
2013-04-17T00:009200300-44.7-57.723056
2013-04-17T00:009245298-45.3-58.3
2013-04-17T00:009472288-45.9-58.9
2013-04-17T00:009729277-48.1-61.1
2013-04-17T00:0010400250-50.7-62.724051
2013-04-17T00:0010747237-50.5-63.5
2013-04-17T00:0010941230-51.7-63.7
2013-04-17T00:0011026227-50.1-63.1
2013-04-17T00:0011261219-47.9-61.9
2013-04-17T00:0011321217-48.1-62.1
2013-04-17T00:0011382215-46.5-60.5
2013-04-17T00:0011538210-45.1-59.1
2013-04-17T00:0011602208-43.3-57.3
2013-04-17T00:0011700205-42.9-56.9
2013-04-17T00:0011870200-44.3-59.322539
2013-04-17T00:0012421184-49.1-63.1
2013-04-17T00:0013284161-54.3-67.3
2013-04-17T00:0013652152-53.7-66.7
2013-04-17T00:0013740150-54.1-67.123534
2013-04-17T00:0014360136-58.5-69.5
2013-04-17T00:0014547132-58.7-69.7
2013-04-17T00:0014987123-61.3-71.3
2013-04-17T00:0015140120-61.7-71.7
2013-04-17T00:0015350116-60.9-70.9
2013-04-17T00:0015458114-61.5-71.5
2013-04-17T00:0015679110-60.3-71.3
2013-04-17T00:0015736109-56.1-68.1
2013-04-17T00:0015913106-55.3-67.3
2013-04-17T00:0016290100-56.9-68.922014
2013-04-17T00:001662094-57.1-69.1
2013-04-17T00:001727885-61.7-71.7
2013-04-17T00:001782878-63.3-73.3
2013-04-17T00:001851070-61.3-72.324513
2013-04-17T00:001880066-60.7-71.7
2013-04-17T00:001961758-63.9-73.9
2013-04-17T00:001985456-58.1-70.1
2013-04-17T00:002024652-57.5-69.5
2013-04-17T00:002045451-53.7-67.7
2013-04-17T00:002061050-54.1-68.117511
2013-04-17T00:002156143-60.5-72.5
2013-04-17T00:002196940-54.9-68.9
2013-04-17T00:002232638-56.3-69.3
2013-04-17T00:002254736-53.1-68.1
2013-04-17T00:002268836-53.7-68.7
2013-04-17T00:002290634-51.9-66.9
2013-04-17T00:002352931-52.3-67.3
2013-04-17T00:002387030-53.9-68.924010
2013-04-17T00:002404329-54.5-69.5
2013-04-17T00:002464226-51.7-67.7
2013-04-17T00:002614521-50.1-67.1
2013-04-17T00:002651020-47.1-65.122513
2013-04-17T00:002664419-46.3-64.3
2013-04-17T00:002717218-45.5-64.5
2013-04-17T00:002786416-48.1-68.1
2013-04-17T00:002859014-46.9-66.9
2013-04-17T00:002886714-48.1-69.1
2013-04-17T00:002935813-44.5-64.5
2013-04-17T00:002967412-44.5-65.5
2013-04-17T00:003006511-41.1-61.1
2013-04-17T00:003054310-42.5-62.5
2013-04-17T00:003113010-39.7-59.723014
2013-04-17T00:00312689-38.7-58.7
2013-04-17T12:001331000
2013-04-17T12:00771925
2013-04-17T12:001454850
2013-04-17T12:001890805-3.9-3.9
2013-04-17T12:001919802-4.1
2013-04-17T12:002422752-6.7
2013-04-17T12:002537741-6.7
2013-04-17T12:002847712-8.3
2013-04-17T12:002980700-8.12157
2013-04-17T12:002991699-8.1
2013-04-17T12:003283673-9.9
2013-04-17T12:003410662-7.3
2013-04-17T12:003576648-7.5-12.5
2013-04-17T12:003930619-8.9-17.9
2013-04-17T12:004998538-15.9-25.9
2013-04-17T12:005550500-20.5-32.521535
2013-04-17T12:005565499-20.7-32.7
2013-04-17T12:006210457-23.5-36.5
2013-04-17T12:006976411-29.1-36.1
2013-04-17T12:007170400-30.5-39.521047
2013-04-17T12:007385388-31.9-41.9
2013-04-17T12:007812365-35.7-46.7
2013-04-17T12:008122349-36.9-50.9
2013-04-17T12:009102302-45.5-60.5
2013-04-17T12:009150300-45.7-60.722050
2013-04-17T12:009992264-49.5-63.5
2013-04-17T12:0010350250-51.9-64.922050
2013-04-17T12:0011499209-54.9-66.9
2013-04-17T12:0011592206-53.1-65.1
2013-04-17T12:0011780200-52.9-64.921541
2013-04-17T12:0011812199-52.9-64.9
2013-04-17T12:0011943195-51.7-64.7
2013-04-17T12:0012077191-52.3-65.3
2013-04-17T12:0012145189-50.5-63.5
2013-04-17T12:0012391182-49.5-63.5
2013-04-17T12:0012573177-50.3-64.3
2013-04-17T12:0012951167-50.3-64.3
2013-04-17T12:0013269159-51.7-64.7
2013-04-17T12:0013351157-51.1-65.1
2013-04-17T12:0013650150-52.9-65.922541
2013-04-17T12:0013823146-53.9-66.9
2013-04-17T12:0014092140-53.3-66.3
2013-04-17T12:0014914123-58.1-69.1
2013-04-17T12:0015122119-57.5-69.5
2013-04-17T12:0015337115-58.3-69.3
2013-04-17T12:0015392114-56.3-68.3
2013-04-17T12:0015852106-57.1-69.1
2013-04-17T12:0015912105-55.5-67.5
2013-04-17T12:0016230100-57.1-69.125528
2013-04-17T12:001684890-60.1-71.1
2013-04-17T12:001693889-57.5-69.5
2013-04-17T12:001713286-57.1-69.1
2013-04-17T12:001827172-63.5-73.5
2013-04-17T12:001842670-63.7-73.7
2013-04-17T12:001846070-63.3-73.323514
2013-04-17T12:001854869-61.9-72.9
2013-04-17T12:001915662-63.3-73.3
2013-04-17T12:001970457-59.3-71.3
2013-04-17T12:002035751-61.1-72.1
2013-04-17T12:002052950-58.3-70.3
2013-04-17T12:002055050-58.3-70.325014
2013-04-17T12:002078048-58.5-70.5
2013-04-17T12:002091247-55.9-68.9
2013-04-17T12:002162342-55.3-69.3
2013-04-17T12:002196640-52.7-67.7
2013-04-17T12:002274935-54.7-69.7
2013-04-17T12:002302633-54.3-69.3
2013-04-17T12:002317933-51.7-67.7
2013-04-17T12:002345931-51.3-68.3
2013-04-17T12:002370830-53.1-70.1
2013-04-17T12:002382030-52.5-69.523016
2013-04-17T12:002435627-53.7-71.7
2013-04-17T12:002494225-51.1-71.1
2013-04-17T12:002520424-52.1-72.1
2013-04-17T12:002570622-49.7-73.7
2013-04-17T12:002645020-48.7-76.720515
2013-04-17T12:002664919-49.1-78.1
2013-04-17T12:002725317-46.1-78.1
2013-04-17T12:002848614-45.5-80.5
2013-04-17T12:002895713-42.5-78.5
2013-04-17T12:002973512-44.5-80.5
2013-04-17T12:003025111-40.9-77.9
2013-04-17T12:003087810-41.9-77.9
2013-04-17T12:003110010-41.5-77.521522
2013-04-17T12:00315929-40.7-77.7
2013-04-18T00:001761000
2013-04-18T00:00806925
2013-04-18T00:001483850
2013-04-18T00:001639833-5.1-6.2
2013-04-18T00:001905805-7.5-8.8
2013-04-18T00:002824714-13.9-15.8
2013-04-18T00:002985700-14.3-16.43557
2013-04-18T00:003532651-16.1-18.9
2013-04-18T00:003861623-16.9-21.4
2013-04-18T00:004093604-16.1-21.1
2013-04-18T00:005133525-21.9-26.7
2013-04-18T00:005500500-24.3-28.723019
2013-04-18T00:006481436-31.3-37.3
2013-04-18T00:007090400-34.3-40.320043
2013-04-18T00:009030300-48.9-56.920545
2013-04-18T00:009770268-47.9-61.9
2013-04-18T00:009919262-46.7-62.7
2013-04-18T00:0010240250-46.1-65.122037
2013-04-18T00:0010566238-45.7-69.7
2013-04-18T00:0010736232-44.3-73.3
2013-04-18T00:0010970224-44.5-76.5
2013-04-18T00:0011430209-47.5-75.5
2013-04-18T00:0011720200-47.9-75.922532
2013-04-18T00:0012126188-50.5-73.5
2013-04-18T00:0012409180-48.9-75.9
2013-04-18T00:0012631174-49.3-76.3
2013-04-18T00:0012938166-49.7-76.7
2013-04-18T00:0013426154-52.5-75.5
2013-04-18T00:0013600150-52.3-75.323536
2013-04-18T00:0013643149-52.1-75.1
2013-04-18T00:0013863144-53.1-75.1
2013-04-18T00:0013953142-52.1-76.1
2013-04-18T00:0014185137-50.9-76.9
2013-04-18T00:0014377133-51.3-77.3
2013-04-18T00:0014526130-50.5-78.5
2013-04-18T00:0014937122-51.7-78.7
2013-04-18T00:0015044120-50.5-79.5
2013-04-18T00:0015264116-50.9-80.9
2013-04-18T00:0015377114-49.9-81.9
2013-04-18T00:0015788107-51.9-80.9
2013-04-18T00:0015972104-51.5-80.5
2013-04-18T00:0016230100-53.1-79.124520
2013-04-18T00:001718686-59.1-78.1
2013-04-18T00:001749381-56.7-77.7
2013-04-18T00:001773778-56.7-78.7
2013-04-18T00:001849070-58.7-79.723015
2013-04-18T00:001904964-60.7-79.7
2013-04-18T00:002008054-60.7-79.7
2013-04-18T00:002054550-59.1-80.1
2013-04-18T00:002059050-58.3-80.324011
2013-04-18T00:002067949-54.7-82.7
2013-04-18T00:002090347-53.5-85.5
2013-04-18T00:002139044-56.3-84.3
2013-04-18T00:002164042-54.3-86.3
2013-04-18T00:002210539-57.9-84.9
2013-04-18T00:002220238-56.5-85.5
2013-04-18T00:002236737-57.1-85.1
2013-04-18T00:002245137-54.9-86.9
2013-04-18T00:002260736-53.7
2013-04-18T00:002325832-51.3
2013-04-18T00:002386030-51.32358
2013-04-18T00:002461226-52.9
2013-04-18T00:002572822-46.9
2013-04-18T00:002637720-45.7
2013-04-18T00:002652020-46.323513
2013-04-18T00:002692918-47.7
2013-04-18T00:002725417-45.5
2013-04-18T00:002759617-46.1
2013-04-18T00:002791716-44.5
2013-04-18T00:002888814-46.3
2013-04-18T00:002928013-43.7
2013-04-18T00:002986312-43.5
2013-04-18T00:003056810-40.7-77.7
2013-04-18T12:002161000
2013-04-18T12:00839925
2013-04-18T12:001507850
2013-04-18T12:001667833-8.3-10.9
2013-04-18T12:001864812-9.7-13.6
2013-04-18T12:001997798-10.9-14.2
2013-04-18T12:002094788-10.3-13.7
2013-04-18T12:002371760-11.7-15.4
2013-04-18T12:002792719-14.9-18.6
2013-04-18T12:002996700-16.7-19.535011
2013-04-18T12:003136687-17.9-19.8
2013-04-18T12:003234678-17.9-19.6
2013-04-18T12:004195595-24.3-25.8
2013-04-18T12:004582564-26.1-28.0
2013-04-18T12:004659558-25.1-27.5
2013-04-18T12:004777549-23.9-29.9
2013-04-18T12:004951536-24.3-32.3
2013-04-18T12:005460500-28.7-38.729012
2013-04-18T12:005503497-29.1-39.1
2013-04-18T12:006372439-37.3-41.8
2013-04-18T12:007010400-42.9-47.924013
2013-04-18T12:007529370-47.5-52.5
2013-04-18T12:008449322-45.3-53.3
2013-04-18T12:008745308-45.5-54.5
2013-04-18T12:008876302-44.1-54.1
2013-04-18T12:008920300-44.3-54.324513
2013-04-18T12:009623270-45.1-56.1
2013-04-18T12:0010005255-42.9-54.9
2013-04-18T12:0010140250-43.1-56.125016
2013-04-18T12:0010555235-43.7-56.7
2013-04-18T12:0010641232-43.1-56.1
2013-04-18T12:0011245212-44.7-57.7
2013-04-18T12:0011640200-44.9-57.924523
2013-04-18T12:0011878193-44.7-57.7
2013-04-18T12:0012159185-46.3-59.3
2013-04-18T12:0012341180-45.7-58.7
2013-04-18T12:0013079161-47.5-60.5
2013-04-18T12:0013371154-48.7-60.7
2013-04-18T12:0013457152-47.9-60.9
2013-04-18T12:0013550150-48.3-60.325029
2013-04-18T12:0013864143-48.7-60.7
2013-04-18T12:0013957141-47.3-60.3
2013-04-18T12:0014099138-47.7-60.7
2013-04-18T12:0014799124-50.1-62.1
2013-04-18T12:0015012120-51.9-63.9
2013-04-18T12:0015121118-50.9-62.9
2013-04-18T12:0015517111-51.9-63.9
2013-04-18T12:0015693108-53.5-65.5
2013-04-18T12:0016190100-54.1-66.124521
2013-04-18T12:001697688-55.9-66.9
2013-04-18T12:001751081-59.5-70.5
2013-04-18T12:001758880-58.1-69.1
2013-04-18T12:001815573-56.9-67.9
2013-04-18T12:001845070-57.7-68.725519
2013-04-18T12:001904363-58.1-69.1
2013-04-18T12:001936560-59.9-70.9
2013-04-18T12:001956558-56.5-67.5
2013-04-18T12:001978456-57.5-68.5
2013-04-18T12:001986355-56.3-67.3
2013-04-18T12:002057050-59.3-70.32709
2013-04-18T12:002059549-59.3-70.3
2013-04-18T12:002078748-58.1-69.1
2013-04-18T12:002138643-58.7-69.7
2013-04-18T12:002153142-57.7-68.7
2013-04-18T12:002163542-54.7-66.7
2013-04-18T12:002180341-55.3-67.3
2013-04-18T12:002222138-53.1-65.1
2013-04-18T12:002296034-55.1-67.1
2013-04-18T12:002330532-53.1-65.1
2013-04-18T12:002377630-53.7-65.7
2013-04-18T12:002383030-53.3-66.325013
2013-04-18T12:002413928-50.7-64.7
2013-04-18T12:002441727-51.5-64.5
2013-04-18T12:002493525-49.9-63.9
2013-04-18T12:002517024-51.3-65.3
2013-04-18T12:002552623-51.1-65.1
2013-04-18T12:002608721-47.1-63.1
2013-04-18T12:002640520-48.5-64.5
2013-04-18T12:002648020-48.1-64.12158
2013-04-18T12:002658019-46.5-63.5
2013-04-18T12:002729217-44.1-62.1
2013-04-18T12:002763916-46.5-64.5
2013-04-18T12:002834615-46.1-64.1
2013-04-18T12:002935013-40.9-59.9
2013-04-18T12:003012611-39.7-59.7
2013-04-19T00:002011000
2013-04-19T00:00830925
2013-04-19T00:001506850
2013-04-19T00:001736826-0.7-12.7
2013-04-19T00:002029796-3.5-15.5
2013-04-19T00:002671733-9.5-15.5
2013-04-19T00:002734727-10.3-17.3
2013-04-19T00:002829718-11.1-15.7
2013-04-19T00:002958706-11.7-18.7
2013-04-19T00:003026700-12.3-19.33107
2013-04-19T00:003324673-14.3-20.3
2013-04-19T00:004070609-20.9-24.3
2013-04-19T00:004402582-23.5-28.5
2013-04-19T00:004528572-24.3-30.3
2013-04-19T00:004631564-23.5-35.5
2013-04-19T00:004683560-23.5-35.5
2013-04-19T00:004934541-25.7-36.7
2013-04-19T00:005110528-25.7-45.7
2013-04-19T00:005444504-28.5-48.5
2013-04-19T00:005510500-28.5-49.534519
2013-04-19T00:005683488-29.1-50.1
2013-04-19T00:006476436-35.9-51.9
2013-04-19T00:007070400-40.1-57.135520
2013-04-19T00:007542373-43.7-59.7
2013-04-19T00:008141341-45.5-62.5
2013-04-19T00:008990300-50.3-66.31537
2013-04-19T00:009302286-49.5-66.5
2013-04-19T00:009607273-48.3-66.3
2013-04-19T00:0010180250-50.3-68.333520
2013-04-19T00:0010259247-49.5-68.5
2013-04-19T00:0010447240-49.3-68.3
2013-04-19T00:0010529237-48.5-68.5
2013-04-19T00:0010613234-48.7-68.7
2013-04-19T00:0010900224-46.9-68.9
2013-04-19T00:0011295211-46.7-69.7
2013-04-19T00:0011390208-45.9-69.9
2013-04-19T00:0011616201-47.3-72.3
2013-04-19T00:0011650200-47.1-72.130518
2013-04-19T00:0011953191-48.1-74.1
2013-04-19T00:0012417178-47.7-74.7
2013-04-19T00:0012834167-50.7-74.7
2013-04-19T00:0013072161-49.3-75.3
2013-04-19T00:0013404153-50.9-75.9
2013-04-19T00:0013490151-49.9-75.9
2013-04-19T00:0013540150-50.1-76.128522
2013-04-19T00:0013627148-50.5-75.5
2013-04-19T00:0013943141-49.3-77.3
2013-04-19T00:0014522129-50.9-76.9
2013-04-19T00:0014778124-52.7-76.7
2013-04-19T00:0015097118-52.5-76.5
2013-04-19T00:0015547110-54.5-76.5
2013-04-19T00:0015724107-53.9-76.9
2013-04-19T00:0015784106-52.5-77.5
2013-04-19T00:0016170100-53.3-77.325523
2013-04-19T00:001699387-55.7-77.7
2013-04-19T00:001733683-53.3-79.3
2013-04-19T00:001795375-57.1-79.1
2013-04-19T00:001845070-56.3-79.324011
2013-04-19T00:001851469-55.7-79.7
2013-04-19T00:001948559-59.3-79.3
2013-04-19T00:002043151-56.7-80.7
2013-04-19T00:002057050-55.1-82.124511
2013-04-19T00:002092647-53.1-83.1
2013-04-19T00:002118745-54.7-83.7
2013-04-19T00:002137344-52.3-85.3
2013-04-19T00:002206339-54.7-85.7
2013-04-19T00:002207939-54.3-86.3
2013-04-19T00:002214439-53.1
2013-04-19T00:002331132-53.7
2013-04-19T00:002355231-52.1
2013-04-19T00:002380330-52.5
2013-04-19T00:002386030-51.723010
2013-04-19T00:002396929-50.1
2013-04-19T00:002555723-51.5
2013-04-19T00:002584522-49.5
2013-04-19T00:002650020-48.324011
2013-04-19T00:002663219-48.9
2013-04-19T00:002683719-45.9
2013-04-19T00:002734617-44.7
2013-04-19T00:002742217-44.7-79.7
2013-04-19T00:002868614-44.3
2013-04-19T00:002912013-41.9
2013-04-19T00:002942712-42.5
2013-04-19T00:002964012-40.1
2013-04-19T00:003057610-38.3
2013-04-19T00:003109710-40.1
2013-04-19T00:003118010-40.12606
2013-04-19T00:00316019-39.7-76.7
2013-04-19T12:001861000
2013-04-19T12:00822925
2013-04-19T12:001505850
2013-04-19T12:001639836-1.3-9.3
2013-04-19T12:0016878312.0-8.0
2013-04-19T12:0018638131.8-14.2
2013-04-19T12:002815721-5.3-19.3
2013-04-19T12:003049700-7.3-19.334510
2013-04-19T12:003990619-15.1-22.1
2013-04-19T12:004274596-16.7-24.7
2013-04-19T12:004452582-17.1-27.1
2013-04-19T12:004634568-16.5-34.5
2013-04-19T12:004956544-19.5-35.5
2013-04-19T12:005346516-20.9-34.9
2013-04-19T12:005580500-22.9-33.933025
2013-04-19T12:005639496-23.5-33.5
2013-04-19T12:006630432-31.7-38.7
2013-04-19T12:006963412-33.7-39.7
2013-04-19T12:007180400-34.5-41.534029
2013-04-19T12:007427386-36.1-45.1
2013-04-19T12:008252342-43.5-52.5
2013-04-19T12:009120300-50.1-58.135036
2013-04-19T12:009681275-54.3-62.3
2013-04-19T12:0010290250-56.5-64.534534
2013-04-19T12:0010817230-56.9-64.9
2013-04-19T12:0011040222-57.5-65.5
2013-04-19T12:0011213216-56.5-64.5
2013-04-19T12:0011302213-52.9-60.9
2013-04-19T12:0011363211-52.3-60.3
2013-04-19T12:0011517206-53.5-61.5
2013-04-19T12:0011676201-52.9-60.9
2013-04-19T12:0011710200-53.130526
2013-04-19T12:0011905194-53.7
2013-04-19T12:0011971192-53.1
2013-04-19T12:0012106188-53.7
2013-04-19T12:0012458178-51.9
2013-04-19T12:0012605174-52.1
2013-04-19T12:0012680172-51.3
2013-04-19T12:0013028163-51.3
2013-04-19T12:0013580150-50.130525
2013-04-19T12:0013624149-49.9
2013-04-19T12:0014029140-51.1
2013-04-19T12:0014707126-54.3
2013-04-19T12:0014861123-54.1
2013-04-19T12:0015629109-57.1
2013-04-19T12:0015866105-55.3
2013-04-19T12:0016180100-55.330026
2013-04-19T12:001786176-59.1
2013-04-19T12:001835370-58.9
2013-04-19T12:001843070-58.329514
2013-04-19T12:001857668-57.3
2013-04-19T12:001902263-59.3
2013-04-19T12:001922261-57.7
2013-04-19T12:001964257-59.7
2013-04-19T12:002002154-58.9
2013-04-19T12:002029552-53.7
2013-04-19T12:002056050-54.126510
2013-04-19T12:002121645-56.7
2013-04-19T12:002148943-54.9
2013-04-19T12:002194740-55.9
2013-04-19T12:002247637-53.5
2013-04-19T12:002346431-55.1
2013-04-19T12:002382030-52.926514
2013-04-19T12:002438327-49.9
2013-04-19T12:002502824-51.3
2013-04-19T12:002529523-49.5
2013-04-19T12:002574722-50.3
2013-04-19T12:002598621-47.5
2013-04-19T12:002647020-47.52006
2013-04-19T12:002841714-45.7
2013-04-19T12:002917613-43.3
2013-04-19T12:002954012-40.1
2013-04-19T12:003045911-42.5
2013-04-19T12:003077610-38.7
2013-04-19T12:003097310-38.7-75.7
2013-04-20T00:001161000
2013-04-20T00:00768925
2013-04-20T00:001465850
2013-04-20T00:0017118259.8-11.2
2013-04-20T00:0019338037.6-17.4
2013-04-20T00:0023607623.6-16.4
2013-04-20T00:003043700-2.5-16.527511
2013-04-20T00:003563655-7.3-17.3
2013-04-20T00:004224601-12.5-19.5
2013-04-20T00:004546576-14.1-21.1
2013-04-20T00:005310520-20.7-23.3
2013-04-20T00:005439511-19.7-22.5
2013-04-20T00:005541504-19.7-25.7
2013-04-20T00:005610500-20.1-26.130513
2013-04-20T00:005865483-22.1-29.1
2013-04-20T00:006907418-30.5-36.5
2013-04-20T00:007200401-32.5-41.5
2013-04-20T00:007220400-32.5-41.531021
2013-04-20T00:007634377-35.5-41.5
2013-04-20T00:009180300-48.7-54.730028
2013-04-20T00:009491286-51.5-57.5
2013-04-20T00:0010350250-58.1-64.130533
2013-04-20T00:0010980226-60.9-66.9
2013-04-20T00:0011497208-58.5-65.5
2013-04-20T00:0011619204-57.5-64.5
2013-04-20T00:0011750200-55.1-62.129029
2013-04-20T00:0011945194-52.1-60.1
2013-04-20T00:0012217186-51.7-60.7
2013-04-20T00:0012722172-52.9-62.9
2013-04-20T00:0012835169-52.5-62.5
2013-04-20T00:0013186160-53.9-64.9
2013-04-20T00:0013610150-51.5-64.529024
2013-04-20T00:0013653149-51.5-64.5
2013-04-20T00:0014194137-53.9-67.9
2013-04-20T00:0014730126-53.7-68.7
2013-04-20T00:0015314115-54.9-70.9
2013-04-20T00:0015596110-56.3-72.3
2013-04-20T00:0015891105-55.3-72.3
2013-04-20T00:0016210100-55.9-72.928025
2013-04-20T00:001674791-54.7-73.7
2013-04-20T00:001796175-59.9-77.9
2013-04-20T00:001832771-57.5-77.5
2013-04-20T00:001846070-58.1-77.13107
2013-04-20T00:001911063-59.5-78.5
2013-04-20T00:001959058-62.3-79.3
2013-04-20T00:001966557-58.7-78.7
2013-04-20T00:001979756-57.1-80.1
2013-04-20T00:002051050-54.1-86.1
2013-04-20T00:002058050-54.3-86.32609
2013-04-20T00:002116645-56.3-88.3
2013-04-20T00:002158142-57.5
2013-04-20T00:002204339-54.3
2013-04-20T00:002222438-50.7
2013-04-20T00:002278235-53.9
2013-04-20T00:002321633-49.5
2013-04-20T00:002387030-50.924013
2013-04-20T00:002448127-51.9
2013-04-20T00:002515824-48.9
2013-04-20T00:002594821-49.9
2013-04-20T00:002652020-46.32506
2013-04-20T00:002655319-45.9
2013-04-20T00:002748517-44.7
2013-04-20T00:002792116-46.7
2013-04-20T00:002804515-45.3
2013-04-20T00:002830015-46.5
2013-04-20T00:002861214-43.3
2013-04-20T00:002904013-42.5
2013-04-20T00:002923913-43.9
2013-04-20T00:003004711-40.1
2013-04-20T00:003077710-40.3
2013-04-20T00:003084210-38.1
2013-04-20T00:003110910-37.9-75.9
2013-04-20T12:00891000
2013-04-20T12:00746925
2013-04-20T12:001449850
2013-04-20T12:0016508294.0-2.0
2013-04-20T12:0017588185.0-5.0
2013-04-20T12:0019907955.0-6.0
2013-04-20T12:003018700-3.5-10.53008
2013-04-20T12:003108692-4.3-10.3
2013-04-20T12:003538655-5.9-12.9
2013-04-20T12:004215600-11.5-16.5
2013-04-20T12:005334517-19.9-24.9
2013-04-20T12:005590500-20.7-26.728511
2013-04-20T12:006151463-25.5-31.5
2013-04-20T12:007200400-33.7-39.729010
2013-04-20T12:008988307-49.7-57.7
2013-04-20T12:009140300-50.9-58.930011
2013-04-20T12:009653277-55.1-63.1
2013-04-20T12:0010177255-57.7-64.7
2013-04-20T12:0010310250-58.1-65.126517
2013-04-20T12:0010335249-58.1-65.1
2013-04-20T12:0010437245-56.9-63.9
2013-04-20T12:0010647237-56.5-63.5
2013-04-20T12:0010755233-55.3-63.3
2013-04-20T12:0010977225-56.1-64.1
2013-04-20T12:0011236216-55.1-63.1
2013-04-20T12:0011538206-55.5-63.5
2013-04-20T12:0011730200-53.7-61.728024
2013-04-20T12:0011926194-52.3-61.3
2013-04-20T12:0012304183-50.7-59.7
2013-04-20T12:0012896167-52.5-61.5
2013-04-20T12:0013132161-51.7-61.7
2013-04-20T12:0013419154-52.3-62.3
2013-04-20T12:0013546151-51.3-61.3
2013-04-20T12:0013590150-51.5-61.530524
2013-04-20T12:0013677148-51.5-61.5
2013-04-20T12:0013944142-53.3-63.3
2013-04-20T12:0014459131-55.3-65.3
2013-04-20T12:0014757125-55.3-65.3
2013-04-20T12:0015180117-53.1-64.1
2013-04-20T12:0015576110-54.1-64.1
2013-04-20T12:0015872105-55.9-65.9
2013-04-20T12:0016190100-55.9-65.929522
2013-04-20T12:001695188-55.9-66.9
2013-04-20T12:001751681-58.7-68.7
2013-04-20T12:001845070-55.7-66.730013
2013-04-20T12:001849669-55.5-66.5
2013-04-20T12:001948159-61.3-71.3
2013-04-20T12:001973857-58.5-69.5
2013-04-20T12:002056050-61.5-71.52456
2013-04-20T12:002063549-61.5-71.5
2013-04-20T12:002082647-59.9-70.9
2013-04-20T12:002102446-60.5-70.5
2013-04-20T12:002127344-55.3-67.3
2013-04-20T12:002203139-54.5-67.5
2013-04-20T12:002214538-52.7-66.7
2013-04-20T12:002234637-53.9-66.9
2013-04-20T12:002260736-52.1-66.1
2013-04-20T12:002352431-52.7-68.7
2013-04-20T12:002373330-50.9-67.9
2013-04-20T12:002383030-51.3-68.32655
2013-04-20T12:002422928-53.5-71.5
2013-04-20T12:002436827-51.1-69.1
2013-04-20T12:002535423-52.1-75.1
2013-04-20T12:002566322-48.5-74.5
2013-04-20T12:002643320-47.9-82.9
2013-04-20T12:002647020-47.9-82.924510
2013-04-20T12:002677619-45.3-80.3
2013-04-20T12:002695118-46.3-81.3
2013-04-20T12:002754917-44.5-80.5
2013-04-20T12:002799415-46.1-81.1
2013-04-20T12:002825015-43.9-79.9
2013-04-20T12:002894013-44.5-80.5
2013-04-20T12:002903813-42.5-78.5
2013-04-20T12:002960912-39.9-76.9
2013-04-20T12:003066510-41.1-78.1
2013-04-20T12:003114010-39.9-76.921513
2013-04-21T00:00891000
2013-04-21T00:00748925
2013-04-21T00:001453850
2013-04-21T00:00164183112.2-6.8
2013-04-21T00:0019667999.0-6.0
2013-04-21T00:003042700-1.3-8.31003
2013-04-21T00:003190687-2.9-8.9
2013-04-21T00:003708643-7.7-9.3
2013-04-21T00:004738562-14.5-18.3
2013-04-21T00:004901550-15.9-20.8
2013-04-21T00:005406514-19.9-24.1
2013-04-21T00:005620500-21.5-27.529514
2013-04-21T00:005813487-22.9-30.9
2013-04-21T00:006212461-25.9-33.9
2013-04-21T00:006793425-31.1-39.1
2013-04-21T00:007046410-33.3-43.3
2013-04-21T00:007220400-34.9-44.929011
2013-04-21T00:007485385-37.3-47.3
2013-04-21T00:008545329-47.1-55.1
2013-04-21T00:009150300-52.3-60.328015
2013-04-21T00:009778272-55.1-62.1
2013-04-21T00:0010320250-56.5-64.530015
2013-04-21T00:0010711235-57.1-65.1
2013-04-21T00:0010874229-56.3-64.3
2013-04-21T00:0011101221-53.7-61.7
2013-04-21T00:0011159219-52.3-60.3
2013-04-21T00:0011278215-52.5-60.5
2013-04-21T00:0011369212-51.1-60.1
2013-04-21T00:0011750200-51.5-60.530026
2013-04-21T00:0011815198-51.5-60.5
2013-04-21T00:0012327183-49.7-59.7
2013-04-21T00:0012693173-51.1-61.1
2013-04-21T00:0013620150-52.3-62.329022
2013-04-21T00:0013839145-52.5-62.5
2013-04-21T00:0014490131-54.9-64.9
2013-04-21T00:0014638128-54.1-64.1
2013-04-21T00:0014841124-55.3-65.3
2013-04-21T00:0015378114-53.5-64.5
2013-04-21T00:0015607110-54.3-65.3
2013-04-21T00:0016220100-55.5-65.530032
2013-04-21T00:001647996-56.5-66.5
2013-04-21T00:001690389-54.7-65.7
2013-04-21T00:001716386-56.7-66.7
2013-04-21T00:001814273-57.7-67.7
2013-04-21T00:001838671-55.7-66.7
2013-04-21T00:001848070-56.5-67.532018
2013-04-21T00:001981756-62.3-72.3
2013-04-21T00:002017653-61.7-71.7
2013-04-21T00:002048850-56.9-67.9
2013-04-21T00:002058050-57.1-68.13057
2013-04-21T00:002124145-59.3-69.3
2013-04-21T00:002154142-56.7-67.7
2013-04-21T00:002199839-57.7-68.7
2013-04-21T00:002219238-53.5-64.5
2013-04-21T00:002255136-51.5-63.5
2013-04-21T00:002291434-52.9-64.9
2013-04-21T00:002385030-49.9-62.929010
2013-04-21T00:002432427-49.5-62.5
2013-04-21T00:002456226-50.9-63.9
2013-04-21T00:002519824-48.5-63.5
2013-04-21T00:002605221-51.9-65.9
2013-04-21T00:002636420-48.3-64.3
2013-04-21T00:002650020-48.3-65.32255
2013-04-21T00:002673319-49.5-65.5
2013-04-21T00:002715518-46.7-65.7
2013-04-21T00:002831115-46.3-67.3
2013-04-21T00:002910413-41.9-63.9
2013-04-21T00:002935913-42.3-65.3
2013-04-21T12:001221000
2013-04-21T12:00781925
2013-04-21T12:001486850
2013-04-21T12:0016508335.81.8
2013-04-21T12:0016798306.60.6
2013-04-21T12:0017288256.8-3.2
2013-04-21T12:0017988187.2-4.8
2013-04-21T12:0020117976.4-7.6
2013-04-21T12:002752727-0.3-9.3
2013-04-21T12:003062700-2.7-10.728013
2013-04-21T12:003678647-7.7-13.7
2013-04-21T12:003811636-8.5-14.5
2013-04-21T12:003896629-8.7-16.7
2013-04-21T12:004057616-10.3-17.3
2013-04-21T12:004120611-10.7-18.7
2013-04-21T12:004412588-13.5-20.5
2013-04-21T12:004477583-13.9-21.9
2013-04-21T12:004568576-13.9-25.9
2013-04-21T12:004687567-14.7-27.7
2013-04-21T12:005630500-21.5-38.529511
2013-04-21T12:005733493-22.3-39.3
2013-04-21T12:006144466-24.7-45.7
2013-04-21T12:007240400-34.1-49.131020
2013-04-21T12:008392338-43.7-55.7
2013-04-21T12:009190300-48.7-59.731530
2013-04-21T12:0010041263-54.7-64.7
2013-04-21T12:0010164258-54.3-64.3
2013-04-21T12:0010360250-56.1-66.130532
2013-04-21T12:0010943228-56.7-66.7
2013-04-21T12:0011027225-54.9-64.9
2013-04-21T12:0011113222-54.7-64.7
2013-04-21T12:0011377213-54.9-64.9
2013-04-21T12:0011745201-57.1-67.1
2013-04-21T12:0011780200-56.9-66.929031
2013-04-21T12:0012071191-56.1-66.1
2013-04-21T12:0012414181-53.5-64.5
2013-04-21T12:0012630175-53.9-64.9
2013-04-21T12:0012968166-53.3-65.3
2013-04-21T12:0013244159-54.3-66.3
2013-04-21T12:0013630150-53.3-65.329532
2013-04-21T12:0013716148-53.3-66.3
2013-04-21T12:0014072140-53.7-66.7
2013-04-21T12:0014257136-54.9-66.9
2013-04-21T12:0014496131-55.1-67.1
2013-04-21T12:0014594129-54.9-67.9
2013-04-21T12:0014900123-51.9-65.9
2013-04-21T12:0015114119-51.3-65.3
2013-04-21T12:0015621110-53.5-67.5
2013-04-21T12:0016230100-55.5-68.527514
2013-04-21T12:001667493-59.3-71.3
2013-04-21T12:001751481-61.9-72.9
2013-04-21T12:001807174-59.9-71.9
2013-04-21T12:001846070-61.3-73.327525
2013-04-21T12:001857668-61.5-73.5
2013-04-21T12:001893164-57.9-70.9
2013-04-21T12:001986555-60.1-73.1
2013-04-21T12:002018653-57.9-71.9
2013-04-21T12:002056050-60.5-73.52407
2013-04-21T12:002063549-61.1-74.1
2013-04-21T12:002106246-61.9-73.9
2013-04-21T12:002133844-58.3-72.3
2013-04-21T12:002182840-56.1-71.1
2013-04-21T12:002239537-56.9-71.9
2013-04-21T12:002271035-53.3-71.3
2013-04-21T12:002341831-52.7-72.7
2013-04-21T12:002370930-50.9-71.9
2013-04-21T12:002381030-51.3-72.32508
2013-04-21T12:002398529-52.1-74.1
2013-04-21T12:002421228-48.1-72.1
2013-04-21T12:002462126-47.3-74.3
2013-04-21T12:002518824-51.3-82.3
2013-04-21T12:002557422-49.3
2013-04-21T12:002646020-48.32208
2013-04-21T12:002697118-48.9
2013-04-21T12:002752917-45.3
2013-04-21T12:002784916-46.7
2013-04-21T12:002835915-45.9
2013-04-21T12:002886913-41.7
2013-04-21T12:003015011-41.7
2013-04-21T12:003083310-39.1
2013-04-21T12:003096610-37.5-75.5
2013-04-22T00:001031000
2013-04-22T00:00765925
2013-04-22T00:001474850
2013-04-22T00:00168282914.0-9.0
2013-04-22T00:0024127596.8-13.2
2013-04-22T00:0030737000.8-14.22954
2013-04-22T00:003588656-3.9-14.9
2013-04-22T00:004448587-12.1-15.2
2013-04-22T00:004632573-13.5-15.8
2013-04-22T00:004873555-15.7-19.0
2013-04-22T00:005562506-20.3-21.5
2013-04-22T00:005660500-21.1-22.425012
2013-04-22T00:007260400-34.3-40.327521
2013-04-22T00:007312397-34.7-40.7
2013-04-22T00:007968361-39.1-45.1
2013-04-22T00:009210300-50.5-57.528529
2013-04-22T00:009678279-54.1-61.1
2013-04-22T00:009935268-54.9-61.9
2013-04-22T00:0010129260-53.7-60.7
2013-04-22T00:0010380250-55.1-63.130047
2013-04-22T00:0010509245-54.7-62.7
2013-04-22T00:0011162221-57.5-65.5
2013-04-22T00:0011365214-56.5-64.5
2013-04-22T00:0011800200-56.7-64.728548
2013-04-22T00:0011864198-56.7-64.7
2013-04-22T00:0012159189-55.1-64.1
2013-04-22T00:0012364183-55.7-64.7
2013-04-22T00:0012540178-54.3-63.3
2013-04-22T00:0012871169-54.9-63.9
2013-04-22T00:0013142162-53.3-63.3
2013-04-22T00:0013640150-54.3-64.329034
2013-04-22T00:0013769147-55.1-65.1
2013-04-22T00:0013901144-54.3-64.3
2013-04-22T00:0013991142-52.5-63.5
2013-04-22T00:0014176138-53.3-64.3
2013-04-22T00:0014461132-52.7-63.7
2013-04-22T00:0014914123-54.5-65.5
2013-04-22T00:0015179118-54.5-65.5
2013-04-22T00:0016036103-59.9-70.9
2013-04-22T00:0016220100-59.9-70.928529
2013-04-22T00:001713886-59.9-70.9
2013-04-22T00:001724084-57.5-68.5
2013-04-22T00:001751481-56.1-68.1
2013-04-22T00:001846070-61.1-72.12858
2013-04-22T00:001871267-62.1-73.1
2013-04-22T00:001899464-61.7-72.7
2013-04-22T00:001911163-59.5-70.5
2013-04-22T00:001959258-62.1-73.1
2013-04-22T00:001981856-62.1-73.1
2013-04-22T00:001990755-59.7-70.7
2013-04-22T00:002050650-62.1-73.1
2013-04-22T00:002055050-61.9-72.929010
2013-04-22T00:002076548-59.3-71.3
2013-04-22T00:002109645-60.3-71.3
2013-04-22T00:002126344-55.7-67.7
2013-04-22T00:002213538-53.7-66.7
2013-04-22T00:002235437-51.7-65.7
2013-04-22T00:002315333-54.9-68.9
2013-04-22T00:002349031-52.1-67.1
2013-04-22T00:002367730-52.3-67.3
2013-04-22T00:002381030-51.1-66.12707
2013-04-22T00:002389729-49.7-65.7
2013-04-22T00:002466626-51.1-68.1
2013-04-22T00:002486825-47.9-66.9
2013-04-22T00:002510524-46.1-67.1
2013-04-22T00:002549223-48.1-69.1
2013-04-22T00:002621320-46.3-70.3
2013-04-22T00:002648020-47.7-70.72854
2013-04-22T00:002709718-50.7-71.7
2013-04-22T00:002802315-46.9-72.9
2013-04-22T00:002845514-46.5-73.5
2013-04-22T00:002942812-40.9-68.9
2013-04-22T00:003009611-40.9-67.9
2013-04-22T00:003033511-39.5-66.5
2013-04-22T00:003077410-41.3-68.3
2013-04-22T00:003112010-38.3-66.31452
2013-04-22T00:00312599-37.3-66.3
2013-04-22T00:00316939-38.9-66.9
2013-04-22T00:00324008-37.3-66.3
2013-04-22T12:00841000
2013-04-22T12:00747925
2013-04-22T12:001457850
2013-04-22T12:0016408315.2-0.8
2013-04-22T12:0017198235.6-5.4
2013-04-22T12:0019827978.2-6.8
2013-04-22T12:002985704-0.7-9.7
2013-04-22T12:003041700-1.1-9.130011
2013-04-22T12:004052615-10.5-11.1
2013-04-22T12:004331593-12.1-12.3
2013-04-22T12:005362517-19.5-22.9
2013-04-22T12:005620500-21.5-25.229020
2013-04-22T12:005949478-23.9-27.0
2013-04-22T12:007220400-34.9-39.328033
2013-04-22T12:007924361-41.1-46.1
2013-04-22T12:008965309-46.9-53.9
2013-04-22T12:009160300-47.7-55.729045
2013-04-22T12:009497285-48.9-56.9
2013-04-22T12:0010143258-53.1-61.1
2013-04-22T12:0010350250-53.7-61.729555
2013-04-22T12:0011494209-55.1-63.1
2013-04-22T12:0011648204-55.7-63.7
2013-04-22T12:0011780200-54.5-63.529045
2013-04-22T12:0011812199-54.1-63.1
2013-04-22T12:0012074191-54.1-63.1
2013-04-22T12:0012142189-52.3-61.3
2013-04-22T12:0012350183-51.9-60.9
2013-04-22T12:0012676174-52.9-62.9
2013-04-22T12:0012938167-54.7-64.7
2013-04-22T12:0013015165-53.9-63.9
2013-04-22T12:0013415155-54.7-64.7
2013-04-22T12:0013498153-53.5-63.5
2013-04-22T12:0013630150-53.9-63.928536
2013-04-22T12:0013759147-54.7-64.7
2013-04-22T12:0013980142-54.1-64.1
2013-04-22T12:0014492131-57.1-67.1
2013-04-22T12:0014688127-57.3-67.3
2013-04-22T12:0014994121-55.5-66.5
2013-04-22T12:0015598110-56.9-67.9
2013-04-22T12:0016200100-58.7-69.729028
2013-04-22T12:001765679-62.3-72.3
2013-04-22T12:001786476-58.1-69.1
2013-04-22T12:001843070-58.5-69.527019
2013-04-22T12:001858468-59.7-70.7
2013-04-22T12:001879866-58.5-69.5
2013-04-22T12:001902963-59.9-70.9
2013-04-22T12:001949859-58.1-69.1
2013-04-22T12:002026052-61.9-72.9
2013-04-22T12:002053050-59.9-70.92254
2013-04-22T12:002070848-57.9-69.9
2013-04-22T12:002099846-59.3-71.3
2013-04-22T12:002114845-57.9-69.9
2013-04-22T12:002153242-60.7-71.7
2013-04-22T12:002228437-54.5-67.5
2013-04-22T12:002266535-56.5-69.5
2013-04-22T12:002299633-52.5-66.5
2013-04-22T12:002349231-51.7-66.7
2013-04-22T12:002377030-52.1-67.12107
2013-04-22T12:002407828-52.9-67.9
2013-04-22T12:002430827-51.5-67.5
2013-04-22T12:002466826-54.1-69.1
2013-04-22T12:002515324-52.7-68.7
2013-04-22T12:002528923-48.3-68.3
2013-04-22T12:002551522-47.1-68.1
2013-04-22T12:002624320-49.1-69.1
2013-04-22T12:002637320-46.9-69.9
2013-04-22T12:002642020-46.7-69.71602
2013-04-22T12:002665519-46.9-69.9
2013-04-22T12:002714917-49.7-70.7
2013-04-22T12:002744717-49.5-71.5
2013-04-22T12:002776216-45.9-70.9
2013-04-22T12:002835714-46.3-72.3
2013-04-22T12:002921513-43.5-70.5
2013-04-22T12:002947612-44.5-71.5
2013-04-22T12:002985911-41.1-67.1
2013-04-23T00:002021000
2013-04-23T00:00844925
2013-04-23T00:001530850
2013-04-23T00:001819819-5.1-6.0
2013-04-23T00:002258774-8.7-8.9
2013-04-23T00:002460754-9.3-9.3
2013-04-23T00:002698731-11.5-12.0
2013-04-23T00:003039700-12.5-12.93555
2013-04-23T00:003181687-13.3-14.0
2013-04-23T00:003292677-13.1-13.9
2013-04-23T00:003406667-8.7-8.7
2013-04-23T00:003476661-7.1-7.1
2013-04-23T00:003702642-8.1-8.2
2013-04-23T00:004210601-10.5-14.0
2013-04-23T00:004857552-14.7-19.4
2013-04-23T00:005610500-20.1-26.125024
2013-04-23T00:005849484-22.1-29.1
2013-04-23T00:006188462-25.1-31.1
2013-04-23T00:006314454-25.9-30.9
2013-04-23T00:007220400-32.7-39.725535
2013-04-23T00:007397390-34.1-41.1
2013-04-23T00:008147350-37.5-52.5
2013-04-23T00:008843316-42.1-62.1
2013-04-23T00:009190300-45.1-64.127557
2013-04-23T00:009279296-45.9-63.9
2013-04-23T00:009765275-48.5-65.5
2013-04-23T00:0010390250-53.7-67.727562
2013-04-23T00:0010920230-57.3-70.3
2013-04-23T00:0011257218-57.9-70.9
2013-04-23T00:0011374214-56.3-69.3
2013-04-23T00:0011463211-56.1-70.1
2013-04-23T00:0011810200-58.1-71.128042
2013-04-23T00:0012471180-58.3-71.3
2013-04-23T00:0012612176-58.3-71.3
2013-04-23T00:0012795171-54.1-69.1
2013-04-23T00:0013102163-53.5-69.5
2013-04-23T00:0013423155-55.7-70.7
2013-04-23T00:0013547152-55.3-71.3
2013-04-23T00:0013630150-55.7-70.727533
2013-04-23T00:0013845145-56.9-71.9
2013-04-23T00:0014249136-57.3-72.3
2013-04-23T00:0014486131-55.9-71.9
2013-04-23T00:0014937122-56.3-73.3
2013-04-23T00:0015042120-53.9-72.9
2013-04-23T00:0015597110-55.7-74.7
2013-04-23T00:0015655109-54.9-74.9
2013-04-23T00:0015893105-55.3-75.3
2013-04-23T00:0016078102-53.7-75.7
2013-04-23T00:0016210100-54.5-76.528521
2013-04-23T00:001668092-54.5-78.5
2013-04-23T00:001742482-57.9-80.9
2013-04-23T00:001767379-56.3-81.3
2013-04-23T00:001847070-60.3-83.326510
2013-04-23T00:001865068-61.7-82.7
2013-04-23T00:001936860-63.7-82.7
2013-04-23T00:001963757-63.1-83.1
2013-04-23T00:001974456-61.5-83.5
2013-04-23T00:001999954-62.3-83.3
2013-04-23T00:002025452-58.7-84.7
2013-04-23T00:002055050-57.9-85.92503
2013-04-23T00:002057649-57.9-85.9
2013-04-23T00:002122144-61.3-87.3
2013-04-23T00:002162342-57.7-88.7
2013-04-23T00:002185140-57.5-88.5
2013-04-23T00:002202439-57.5
2013-04-23T00:002223638-54.7
2013-04-23T00:002296034-55.1
2013-04-23T00:002334832-51.5
2013-04-23T00:002380030-50.92507
2013-04-23T00:002441227-51.3
2013-04-23T00:002450826-50.3
2013-04-23T00:002503424-53.1
2013-04-23T00:002527323-50.7
2013-04-23T00:002546623-50.9
2013-04-23T00:002584421-46.7
2013-04-23T00:002621820-45.5
2013-04-23T00:002645020-46.91756
2013-04-23T00:002682318-47.5
2013-04-23T00:002722017-45.9
2013-04-23T00:002801115-46.1
2013-04-23T00:002858514-42.7
2013-04-23T00:002952612-44.5
2013-04-23T00:002990911-42.7
2013-04-23T00:003008011-44.1
2013-04-23T00:003068510-42.7-78.7
2013-04-23T12:002351000
2013-04-23T12:00862925
2013-04-23T12:001535850
2013-04-23T12:001751827-7.7-8.4
2013-04-23T12:002222778-10.7-10.7
2013-04-23T12:003029700-15.5-16.23052
2013-04-23T12:003247680-16.5-17.2
2013-04-23T12:003414665-16.1-16.6
2013-04-23T12:003645645-12.3-12.3
2013-04-23T12:003764635-11.9-11.9
2013-04-23T12:005051535-20.1-21.3
2013-04-23T12:005304517-20.1-21.7
2013-04-23T12:005448507-21.1-22.9
2013-04-23T12:005560500-21.3-23.123022
2013-04-23T12:005860480-22.1-24.0
2013-04-23T12:006139462-24.7-27.2
2013-04-23T12:006874417-30.5-32.0
2013-04-23T12:007170400-33.1-35.825040
2013-04-23T12:007258395-33.7-36.7
2013-04-23T12:007880361-39.1-42.4
2013-04-23T12:008528328-44.5-51.5
2013-04-23T12:009130300-45.9-55.925554
2013-04-23T12:009152299-45.9-55.9
2013-04-23T12:009241295-45.5-56.5
2013-04-23T12:0010170256-52.1-63.1
2013-04-23T12:0010320250-52.5-63.525558
2013-04-23T12:0010582240-53.7-64.7
2013-04-23T12:0010938227-54.7-65.7
2013-04-23T12:0011224217-56.3-66.3
2013-04-23T12:0011708201-57.3-67.3
2013-04-23T12:0011750200-57.1-67.126045
2013-04-23T12:0011845197-56.5-66.5
2013-04-23T12:0011877196-54.7-65.7
2013-04-23T12:0011976193-53.7-64.7
2013-04-23T12:0012316183-55.5-66.5
2013-04-23T12:0012637174-54.5-65.5
2013-04-23T12:0012711172-52.1-64.1
2013-04-23T12:0012826169-51.5-64.5
2013-04-23T12:0013019164-52.3-65.3
2013-04-23T12:0013179160-51.1-65.1
2013-04-23T12:0013600150-52.3-66.328036
2013-04-23T12:0013774146-53.1-67.1
2013-04-23T12:0014137138-51.9-67.9
2013-04-23T12:0015032120-55.9-70.9
2013-04-23T12:0015469112-56.3-72.3
2013-04-23T12:0015699108-57.7-72.7
2013-04-23T12:0016120101-58.7-73.7
2013-04-23T12:0016190100-57.7-72.726529
2013-04-23T12:001719985-57.1-74.1
2013-04-23T12:001755580-59.7-75.7
2013-04-23T12:001803174-58.7-75.7
2013-04-23T12:001843070-61.9-76.925511
2013-04-23T12:001852768-62.9-77.9
2013-04-23T12:001883765-63.5-78.5
2013-04-23T12:001902863-61.1-77.1
2013-04-23T12:001932860-60.5-77.5
2013-04-23T12:001941159-58.5-76.5
2013-04-23T12:001976556-61.1-78.1
2013-04-23T12:002052050-60.5-78.52458
2013-04-23T12:002053249-60.5-78.5
2013-04-23T12:002082647-58.7-78.7
2013-04-23T12:002103946-60.5-79.5
2013-04-23T12:002154842-58.3-80.3
2013-04-23T12:002203939-59.5-82.5
2013-04-23T12:002216838-58.3-82.3
2013-04-23T12:002225137-55.9-83.9
2013-04-23T12:002270235-55.5-86.5
2013-04-23T12:002277634-54.1-86.1
2013-04-23T12:002281234-53.5
2013-04-23T12:002337431-52.1
2013-04-23T12:002370530-54.7
2013-04-23T12:002375030-54.521511
2013-04-23T12:002394429-54.5
2013-04-23T12:002535623-48.3
2013-04-23T12:002591121-49.5
2013-04-23T12:002639020-47.91957
2013-04-23T12:002655719-46.9
2013-04-23T12:002727017-47.9
2013-04-23T12:002815715-46.3
2013-04-23T12:002842114-48.1
2013-04-23T12:002860314-47.1
2013-04-23T12:002888513-48.1
2013-04-23T12:002954512-45.1
2013-04-23T12:002976312-46.1
2013-04-23T12:003010511-43.9-79.9
2013-04-24T00:002111000
2013-04-24T00:00841925
2013-04-24T00:001517850
2013-04-24T00:001687832-2.1-10.1
2013-04-24T00:001792821-3.1-12.1
2013-04-24T00:002324767-8.1-12.0
2013-04-24T00:002591741-8.9-17.9
2013-04-24T00:002738727-9.7-17.7
2013-04-24T00:002823719-9.1-14.1
2013-04-24T00:002986704-8.7-14.7
2013-04-24T00:003034700-9.1-15.13356
2013-04-24T00:003980618-16.9-21.1
2013-04-24T00:004350588-20.1-25.1
2013-04-24T00:004400584-20.3-26.3
2013-04-24T00:004592569-21.9-26.9
2013-04-24T00:004696561-22.1-31.1
2013-04-24T00:004828551-23.3-36.3
2013-04-24T00:004976540-23.7-42.7
2013-04-24T00:005208523-24.3-45.3
2013-04-24T00:005540500-27.1-47.130016
2013-04-24T00:007100400-40.1-55.128521
2013-04-24T00:007151397-40.5-55.5
2013-04-24T00:008669316-50.1-62.1
2013-04-24T00:009020300-50.9-62.926031
2013-04-24T00:009085297-50.9-62.9
2013-04-24T00:009286288-48.9-60.9
2013-04-24T00:009879263-50.5-62.5
2013-04-24T00:0010055256-49.9-61.9
2013-04-24T00:0010210250-50.1-62.127028
2013-04-24T00:0010503239-50.7-62.7
2013-04-24T00:0011012221-50.3-62.3
2013-04-24T00:0011376209-48.9-61.9
2013-04-24T00:0011670200-49.5-62.526541
2013-04-24T00:0011736198-49.5-62.5
2013-04-24T00:0011903193-50.7-62.7
2013-04-24T00:0012924165-49.3-62.3
2013-04-24T00:0013290156-50.3-63.3
2013-04-24T00:0013540150-52.5-64.527041
2013-04-24T00:0013714146-53.5-65.5
2013-04-24T00:0013848143-51.3-63.3
2013-04-24T00:0013893142-51.1-64.1
2013-04-24T00:0014172136-52.5-64.5
2013-04-24T00:0014364132-52.5-64.5
2013-04-24T00:0014463130-51.9-63.9
2013-04-24T00:0014613127-53.1-65.1
2013-04-24T00:0015032119-52.3-64.3
2013-04-24T00:0015422112-53.5-65.5
2013-04-24T00:0015773106-56.3-68.3
2013-04-24T00:0016150100-57.7-68.726030
2013-04-24T00:001679690-59.7-70.7
2013-04-24T00:001713985-57.3-68.3
2013-04-24T00:001795875-56.9-68.9
2013-04-24T00:001840070-58.3-69.327021
2013-04-24T00:001977956-61.3-72.3
2013-04-24T00:001988055-58.5-69.5
2013-04-24T00:002014652-60.3-71.3
2013-04-24T00:002037451-58.9-69.9
2013-04-24T00:002050050-59.5-70.523513
2013-04-24T00:002057649-59.7-70.7
2013-04-24T00:002069048-57.9-69.9
2013-04-24T00:002088747-57.9-69.9
2013-04-24T00:002100946-54.5-66.5
2013-04-24T00:002273235-54.3-67.3
2013-04-24T00:002295534-51.9-65.9
2013-04-24T00:002357230-52.3-66.3
2013-04-24T00:002377030-51.1-65.12058
2013-04-24T00:002379229-51.1-65.1
2013-04-24T00:002440327-53.3-67.3
2013-04-24T00:002564722-43.7-63.7
2013-04-24T00:002644020-45.7-65.71809
2013-04-24T00:002684918-47.5-67.5
2013-04-24T00:002843714-44.3-70.3
2013-04-24T00:002871314-45.7-71.7
2013-04-24T00:002924913-45.3-73.3
2013-04-24T00:002961612-42.9-71.9
2013-04-24T00:003029811-44.3-74.3
2013-04-24T00:003099210-42.3-74.3
2013-04-24T12:002031000
2013-04-24T12:00838925
2013-04-24T12:001518850
2013-04-24T12:001753825-2.3-11.3
2013-04-24T12:001820818-1.7-12.7
2013-04-24T12:0018798120.4-16.6
2013-04-24T12:0019888010.2-19.8
2013-04-24T12:003054700-8.3-23.33054
2013-04-24T12:003357673-10.7-25.7
2013-04-24T12:003565655-11.1-34.1
2013-04-24T12:003742640-12.1-37.1
2013-04-24T12:004433584-17.7-47.7
2013-04-24T12:004639568-19.7-40.7
2013-04-24T12:004836553-21.3-26.3
2013-04-24T12:005038538-22.3-33.3
2013-04-24T12:005217525-23.9-28.6
2013-04-24T12:005357515-25.3-28.8
2013-04-24T12:005580500-27.1-30.027520
2013-04-24T12:005991472-30.3-32.9
2013-04-24T12:006204458-31.5-34.2
2013-04-24T12:006439443-31.7-34.0
2013-04-24T12:006914414-34.5-36.6
2013-04-24T12:007150400-36.5-39.328033
2013-04-24T12:007720368-41.3-44.7
2013-04-24T12:008798313-49.1-53.2
2013-04-24T12:009080300-49.7-54.727550
2013-04-24T12:009576278-51.3-57.3
2013-04-24T12:0010260250-54.7-61.728059
2013-04-24T12:0010680234-56.9-63.9
2013-04-24T12:0011670200-58.1-65.128551
2013-04-24T12:0011701199-57.9-64.9
2013-04-24T12:0011926192-58.9-65.9
2013-04-24T12:0012058188-57.7-64.7
2013-04-24T12:0012297181-57.1-64.1
2013-04-24T12:0012476176-54.1-61.1
2013-04-24T12:0012734169-54.3-61.3
2013-04-24T12:0012927164-52.7-59.7
2013-04-24T12:0013126159-52.5-60.5
2013-04-24T12:0013510150-53.5-61.527541
2013-04-24T12:0013596148-53.9-61.9
2013-04-24T12:0013772144-53.3-61.3
2013-04-24T12:0014427130-54.1-63.1
2013-04-24T12:0015041118-58.1-66.1
2013-04-24T12:0015597108-58.5-67.5
2013-04-24T12:0016090100-57.1-66.127033
2013-04-24T12:001621898-56.1-65.1
2013-04-24T12:001752879-61.5-70.5
2013-04-24T12:001792274-60.1-69.1
2013-04-24T12:001811672-61.3-70.3
2013-04-24T12:001829970-60.9-69.9
2013-04-24T12:001832070-60.5-69.527532
2013-04-24T12:001843768-58.3-67.3
2013-04-24T12:001918461-57.7-66.7
2013-04-24T12:001938559-54.5-64.5
2013-04-24T12:001953857-54.1-64.1
2013-04-24T12:001992454-57.3-67.3
2013-04-24T12:002044050-58.7-68.724515
2013-04-24T12:002065648-59.9-69.9
2013-04-24T12:002097645-58.3-68.3
2013-04-24T12:002119944-54.9-65.9
2013-04-24T12:002197639-56.5-67.5
2013-04-24T12:002209038-54.7-65.7
2013-04-24T12:002225737-55.7-66.7
2013-04-24T12:002242936-54.3-66.3
2013-04-24T12:002255435-51.3-64.3
2013-04-24T12:002324232-50.1-64.1
2013-04-24T12:002338631-48.3-63.3
2013-04-24T12:002372030-50.5-65.51808
2013-04-24T12:002400828-51.1-66.1
2013-04-24T12:002491025-47.5-65.5
2013-04-24T12:002580721-50.1-69.1
2013-04-24T12:002633820-47.9-70.9
2013-04-24T12:002638020-48.1-70.11707
2013-04-24T12:002668119-50.3-71.3
2013-04-24T12:002706818-48.7-72.7
2013-04-24T12:002767716-49.5-75.5
2013-04-24T12:002872314-43.9-74.9
2013-04-24T12:002959012-43.5-74.5
2013-04-24T12:003016111-41.3-73.3
2013-04-24T12:003100010-42.5-74.51406
2013-04-24T12:00313469-42.3-73.3
2013-04-24T12:00317099-44.1-76.1
2013-04-24T12:00320928-43.3-75.3
2013-04-25T00:001671000
2013-04-25T00:00819925
2013-04-25T00:001516850
2013-04-25T00:00165183610.6-16.4
2013-04-25T00:0018018218.8-16.2
2013-04-25T00:0027207330.0-19.0
2013-04-25T00:003091700-3.5-19.52857
2013-04-25T00:003692648-9.3-21.3
2013-04-25T00:004167609-13.3-25.3
2013-04-25T00:004419589-15.9-24.9
2013-04-25T00:004509582-16.3-26.3
2013-04-25T00:004758563-17.1-45.1
2013-04-25T00:005000545-18.5-47.5
2013-04-25T00:005640500-23.3-48.331015
2013-04-25T00:006447447-29.9-51.9
2013-04-25T00:007143405-33.1-54.1
2013-04-25T00:007230400-33.7-53.728020
2013-04-25T00:008711322-45.1-59.1
2013-04-25T00:009135302-47.9-60.9
2013-04-25T00:009190300-47.7-60.728523
2013-04-25T00:009390291-48.3-61.3
2013-04-25T00:009830272-51.5-63.5
2013-04-25T00:0010380250-54.1-66.127533
2013-04-25T00:0011517209-57.5-68.5
2013-04-25T00:0011762201-58.5-69.5
2013-04-25T00:0011790200-58.5-69.528044
2013-04-25T00:0011981194-57.3-68.3
2013-04-25T00:0012313184-59.3-70.3
2013-04-25T00:0012485179-58.5-69.5
2013-04-25T00:0012770171-60.5-71.5
2013-04-25T00:0012917167-59.3-70.3
2013-04-25T00:0013222159-61.1-72.1
2013-04-25T00:0013380155-59.3-70.3
2013-04-25T00:0013590150-58.5-69.528041
2013-04-25T00:0013890143-57.9-68.9
2013-04-25T00:0014296134-60.3-71.3
2013-04-25T00:0014532129-60.1-71.1
2013-04-25T00:0015406112-62.7-72.7
2013-04-25T00:0015630108-60.9-71.9
2013-04-25T00:0016120100-61.5-72.527536
2013-04-25T00:001666691-63.5-73.5
2013-04-25T00:001731682-62.7-73.7
2013-04-25T00:001790674-60.7-71.7
2013-04-25T00:001808372-58.7-69.7
2013-04-25T00:001832070-59.3-70.327530
2013-04-25T00:001861166-61.3-72.3
2013-04-25T00:001906262-61.5-72.5
2013-04-25T00:001976655-55.9-67.9
2013-04-25T00:001990654-52.3-65.3
2013-04-25T00:002005053-52.1-65.1
2013-04-25T00:002045050-54.3-67.326515
2013-04-25T00:002144342-60.9-72.9
2013-04-25T00:002148742-60.3-72.3
2013-04-25T00:002157741-55.3-68.3
2013-04-25T00:002211938-53.3-67.3
2013-04-25T00:002230737-50.1-65.1
2013-04-25T00:002266735-49.3-65.3
2013-04-25T00:002348931-52.3-67.3
2013-04-25T00:002359430-50.5-66.5
2013-04-25T00:002373030-50.3-66.325011
2013-04-25T00:002383929-50.7-66.7
2013-04-25T00:002397328-48.3-66.3
2013-04-25T00:002451426-50.9-67.9
2013-04-25T00:002549722-46.1-68.1
2013-04-25T00:002616520-47.1-71.1
2013-04-25T00:002640020-45.9-71.918013
2013-04-25T00:002756216-44.1-75.1
2013-04-25T12:001511000
2013-04-25T12:00807925
2013-04-25T12:001508850
2013-04-25T12:0016308372.4-3.6
2013-04-25T12:0016888313.4-5.6
2013-04-25T12:0017568243.2-9.8
2013-04-25T12:0019268074.8-10.2
2013-04-25T12:0020577944.2-10.8
2013-04-25T12:0021817825.0-18.0
2013-04-25T12:002979708-1.3-27.3
2013-04-25T12:003078700-1.3-28.33059
2013-04-25T12:003639652-3.9-47.9
2013-04-25T12:004326597-8.5-52.5
2013-04-25T12:005680500-18.7-53.726516
2013-04-25T12:005860488-20.1-54.1
2013-04-25T12:007195406-29.1-58.1
2013-04-25T12:007300400-30.1-59.126530
2013-04-25T12:008213351-37.9-58.9
2013-04-25T12:008492337-39.3-52.3
2013-04-25T12:009143306-45.1-54.1
2013-04-25T12:009280300-46.1-55.126543
2013-04-25T12:0010362254-55.1-63.1
2013-04-25T12:0010470250-55.9-63.926535
2013-04-25T12:0011860200-62.5-70.526040
2013-04-25T12:0012048194-61.5-69.5
2013-04-25T12:0012242188-62.7-70.7
2013-04-25T12:0012612177-63.5-71.5
2013-04-25T12:0012752173-62.5-70.5
2013-04-25T12:0012860170-60.7-68.7
2013-04-25T12:0012933168-60.9-68.9
2013-04-25T12:0013008166-59.1-67.1
2013-04-25T12:0013278159-57.3-66.3
2013-04-25T12:0013561152-59.1-68.1
2013-04-25T12:0013650150-59.1-68.127541
2013-04-25T12:0014126139-59.9-68.9
2013-04-25T12:0014306135-61.5-70.5
2013-04-25T12:0014539130-61.7-70.7
2013-04-25T12:0014984121-60.1-69.1
2013-04-25T12:0015193117-61.1-70.1
2013-04-25T12:0015519111-60.5-69.5
2013-04-25T12:0015921104-63.5-72.5
2013-04-25T12:0016170100-63.5-72.528031
2013-04-25T12:001663892-65.9-74.9
2013-04-25T12:001810772-62.1-71.1
2013-04-25T12:001835070-63.3-72.328526
2013-04-25T12:001847468-64.1-73.1
2013-04-25T12:001903362-63.9-72.9
2013-04-25T12:001958757-61.5-71.5
2013-04-25T12:001979755-58.1-68.1
2013-04-25T12:002012652-55.9-66.9
2013-04-25T12:002044050-55.1-66.127519
2013-04-25T12:002088946-54.9-66.9
2013-04-25T12:002104245-53.3-65.3
2013-04-25T12:002178440-56.7-68.7
2013-04-25T12:002257135-52.9-65.9
2013-04-25T12:002335531-52.1-67.1
2013-04-25T12:002352130-50.1-66.1
2013-04-25T12:002372030-50.7-66.721011
2013-04-25T12:002387329-51.5-67.5
2013-04-25T12:002435827-48.5-67.5
2013-04-25T12:002462826-49.3-68.3
2013-04-25T12:002520623-47.3-70.3
2013-04-25T12:002575022-49.1-72.1
2013-04-25T12:002602421-47.7-73.7
2013-04-25T12:002624520-49.1-74.1
2013-04-25T12:002638020-48.5-74.51758
2013-04-25T12:002675118-48.3-76.3
2013-04-25T12:002714717-45.9-76.9
2013-04-25T12:002773116-46.1-79.1
2013-04-25T12:002889413-41.7-76.7
2013-04-25T12:002984411-42.7-78.7
2013-04-25T12:003050210-39.3-76.3
2013-04-25T12:003104010-40.1-77.11359
2013-04-25T12:00313179-41.5-77.5
2013-04-25T12:00321408-41.5-77.5
2013-04-26T00:00811000
2013-04-26T00:00743925
2013-04-26T00:001452850
2013-04-26T00:00173382215.2-10.8
2013-04-26T00:00227877010.0-12.0
2013-04-26T00:0030637004.4-13.61706
2013-04-26T00:0032036883.4-14.6
2013-04-26T00:004199607-5.1-18.1
2013-04-26T00:005128538-14.1-18.8
2013-04-26T00:005690500-18.5-22.826019
2013-04-26T00:005885487-20.3-24.4
2013-04-26T00:006226465-22.5-28.5
2013-04-26T00:007186407-29.9-36.9
2013-04-26T00:007310400-30.9-37.925027
2013-04-26T00:009012312-46.1-54.1
2013-04-26T00:009280300-46.7-56.725532
2013-04-26T00:009369296-46.9-56.9
2013-04-26T00:0010470250-53.9-64.925528
2013-04-26T00:0010626244-54.9-65.9
2013-04-26T00:0010784238-54.9-65.9
2013-04-26T00:0011519212-56.1-67.1
2013-04-26T00:0011670207-57.1-67.1
2013-04-26T00:0011880200-57.1-67.125029
2013-04-26T00:0011944198-56.1-67.1
2013-04-26T00:0012271188-57.7-67.7
2013-04-26T00:0012724175-55.9-66.9
2013-04-26T00:0012982168-57.5-68.5
2013-04-26T00:0013614152-56.5-68.5
2013-04-26T00:0013710150-57.1-68.126533
2013-04-26T00:0014099141-58.7-69.7
2013-04-26T00:0014953123-59.5-70.5
2013-04-26T00:0015483113-58.7-70.7
2013-04-26T00:0015824107-59.7-71.7
2013-04-26T00:0016250100-57.7-70.727032
2013-04-26T00:001717386-59.5-72.5
2013-04-26T00:001776878-62.5-74.5
2013-04-26T00:001794376-61.7-73.7
2013-04-26T00:001841170-65.1-76.1
2013-04-26T00:001847070-65.1-76.128018
2013-04-26T00:001990455-61.3-74.3
2013-04-26T00:002041251-64.5-76.5
2013-04-26T00:002054050-63.7-76.728522
2013-04-26T00:002062649-62.5-75.5
2013-04-26T00:002075348-59.1-74.1
2013-04-26T00:002087147-59.1-74.1
2013-04-26T00:002093846-56.3-73.3
2013-04-26T00:002113145-53.9-72.9
2013-04-26T00:002155342-53.9-73.9
2013-04-26T00:002178341-52.3-75.3
2013-04-26T00:002255836-56.7-81.7
2013-04-26T00:002284434-53.3-85.3
2013-04-26T00:002305033-53.7
2013-04-26T00:002312733-51.5
2013-04-26T00:002334432-51.9
2013-04-26T00:002352931-48.3
2013-04-26T00:002382030-48.72059
2013-04-26T00:002384229-48.7
2013-04-26T00:002393129-47.5
2013-04-26T00:002506724-50.5
2013-04-26T00:002528024-50.1
2013-04-26T00:002594521-43.9
2013-04-26T00:002649020-45.91105
2013-04-26T00:002652319-45.9
2013-04-26T00:002828115-42.3
2013-04-26T00:002868814-43.9
2013-04-26T00:002907213-41.9
2013-04-26T00:003032311-42.1
2013-04-26T00:003101710-40.1
2013-04-26T12:001151000
2013-04-26T12:00785925
2013-04-26T12:001499850
2013-04-26T12:0016608346.6-2.4
2013-04-26T12:0016998307.4-3.6
2013-04-26T12:0018188188.2-7.8
2013-04-26T12:0019398067.4-8.6
2013-04-26T12:0020937919.2-10.8
2013-04-26T12:0021777839.0-13.0
2013-04-26T12:0028737193.4-15.6
2013-04-26T12:0030927001.6-15.43504
2013-04-26T12:003430671-1.3-14.3
2013-04-26T12:004670572-13.1-14.6
2013-04-26T12:005202533-17.3-20.2
2013-04-26T12:005401519-18.1-26.1
2013-04-26T12:005690500-19.5-28.52809
2013-04-26T12:005735497-19.7-28.7
2013-04-26T12:005976481-21.9-27.9
2013-04-26T12:006270462-24.1-31.1
2013-04-26T12:006888424-28.9-39.9
2013-04-26T12:007300400-32.3-40.32459
2013-04-26T12:007936365-38.1-43.1
2013-04-26T12:008660328-44.3-50.3
2013-04-26T12:008763323-44.9-50.9
2013-04-26T12:008846319-44.1-50.1
2013-04-26T12:008994312-45.3-52.3
2013-04-26T12:009260300-45.1-53.12709
2013-04-26T12:009282299-45.1-53.1
2013-04-26T12:0010248258-52.7-60.7
2013-04-26T12:0010460250-52.7-60.725519
2013-04-26T12:0010538247-52.9-60.9
2013-04-26T12:0010803237-54.7-62.7
2013-04-26T12:0010884234-54.1-62.1
2013-04-26T12:0011880200-56.925021
2013-04-26T12:0012008196-57.1
2013-04-26T12:0012106193-55.1
2013-04-26T12:0012239189-54.7
2013-04-26T12:0012550180-55.5
2013-04-26T12:0012839172-54.9
2013-04-26T12:0013141164-57.1
2013-04-26T12:0013376158-56.9
2013-04-26T12:0013661151-58.1
2013-04-26T12:0013710150-57.927025
2013-04-26T12:0013924145-56.7
2013-04-26T12:0014328136-57.3
2013-04-26T12:0014807126-59.5
2013-04-26T12:0015217118-59.1
2013-04-26T12:0015432114-60.1
2013-04-26T12:0016004104-59.3
2013-04-26T12:0016250100-59.927024
2013-04-26T12:001693389-60.3
2013-04-26T12:001789976-63.9
2013-04-26T12:001846070-61.129521
2013-04-26T12:001851369-60.9
2013-04-26T12:001947759-60.9
2013-04-26T12:002015753-62.9
2013-04-26T12:002055050-60.129511
2013-04-26T12:002065049-59.7
2013-04-26T12:002144743-59.3
2013-04-26T12:002185240-56.3
2013-04-26T12:002240537-56.9
2013-04-26T12:002268535-52.9
2013-04-26T12:002286834-53.3
2013-04-26T12:002305733-50.5
2013-04-26T12:002333432-50.7-62.7
2013-04-26T12:002364330-51.7
2013-04-26T12:002380030-49.72552
2013-04-26T12:002393229-47.7
2013-04-26T12:002429827-50.1
2013-04-26T12:002439327-48.3
2013-04-26T12:002496725-49.3
2013-04-26T12:002589321-47.3
2013-04-26T12:002610821-48.3
2013-04-26T12:002647020-46.512011
2013-04-26T12:002653719-45.7
2013-04-26T12:002799915-44.1
2013-04-26T12:002866614-41.3
2013-04-26T12:002930613-41.5
2013-04-26T12:002978912-39.7
2013-04-26T12:003074710-40.1-67.1
2013-04-27T00:001401000
2013-04-27T00:00811925
2013-04-27T00:001527850
2013-04-27T00:00173383016.2-9.8
2013-04-27T00:00206379812.8-11.2
2013-04-27T00:0029897133.8-14.2
2013-04-27T00:0031387002.4-13.6105
2013-04-27T00:003961631-5.7-15.7
2013-04-27T00:004730571-13.3-16.4
2013-04-27T00:005166539-15.7-19.9
2013-04-27T00:005292530-16.3-22.3
2013-04-27T00:005740500-19.7-28.73008
2013-04-27T00:005770498-19.9-29.9
2013-04-27T00:006057479-21.7-34.7
2013-04-27T00:006578446-24.9-38.9
2013-04-27T00:007360400-31.7-44.73007
2013-04-27T00:008228353-39.1-50.1
2013-04-27T00:008424343-40.1-51.1
2013-04-27T00:009320300-47.7-57.7156
2013-04-27T00:009453294-48.9-58.9
2013-04-27T00:0010199262-53.9-62.9
2013-04-27T00:0010500250-54.9-63.9259
2013-04-27T00:0011229223-54.5-63.5
2013-04-27T00:0011403217-54.9-63.9
2013-04-27T00:0011764205-57.3-66.3
2013-04-27T00:0011920200-57.5-66.53509
2013-04-27T00:0011952199-57.7-66.7
2013-04-27T00:0012344187-57.3-66.3
2013-04-27T00:0012586180-54.9-63.9
2013-04-27T00:0012876172-53.9-62.9
2013-04-27T00:0013142165-54.5-63.5
2013-04-27T00:0013418158-56.1-65.1
2013-04-27T00:0013622153-55.1-64.1
2013-04-27T00:0013750150-55.3-64.327515
2013-04-27T00:0014098142-56.1-65.1
2013-04-27T00:0014188140-55.7-64.7
2013-04-27T00:0014657130-57.1-66.1
2013-04-27T00:0015321117-57.5-66.5
2013-04-27T00:0015939106-60.3-69.3
2013-04-27T00:0016310100-59.9-68.928022
2013-04-27T00:001748082-61.7-70.7
2013-04-27T00:001848070-58.9-67.9
2013-04-27T00:001854070-59.3-68.328518
2013-04-27T00:001925262-62.9-71.9
2013-04-27T00:001984056-63.3-72.3
2013-04-27T00:002007254-62.1-71.1
2013-04-27T00:002022253-58.3-67.3
2013-04-27T00:002062050-61.7-70.730012
2013-04-27T00:002063249-61.7-70.7
2013-04-27T00:002100147-62.9-71.9
2013-04-27T00:002155643-56.1-65.1
2013-04-27T00:002195240-55.3-65.3
2013-04-27T00:002250837-57.7-66.7
2013-04-27T00:002269835-56.7-66.7
2013-04-27T00:002299034-51.3-61.3
2013-04-27T00:002327832-53.3-63.3
2013-04-27T00:002386030-50.9-61.92854
2013-04-27T00:002394729-50.9-61.9
2013-04-27T00:002431128-47.1-59.1
2013-04-27T00:002450227-48.5-60.5
2013-04-27T00:002490125-47.1-59.1
2013-04-27T00:002554923-48.1-60.1
2013-04-27T00:002614721-44.1-58.1
2013-04-27T00:002655020-43.9-57.9807
2013-04-27T00:002682219-45.5-59.5
2013-04-27T00:002732817-42.9-57.9
2013-04-27T00:002825515-44.3-60.3
2013-04-27T00:002939113-39.3-56.3
2013-04-27T00:002993312-39.9-57.9
2013-04-27T00:003097110-36.9-56.9
2013-04-27T00:003126010-37.3-57.311517
2013-04-27T00:00313999-37.9-57.9
2013-04-27T00:00323028-34.9-56.9
2013-04-27T12:001401000
2013-04-27T12:00812925
2013-04-27T12:001530850
2013-04-27T12:0016508389.0-4.0
2013-04-27T12:00169083410.8-10.2
2013-04-27T12:00181082211.8-12.2
2013-04-27T12:00210979311.2-15.8
2013-04-27T12:0031337002.4-18.63357
2013-04-27T12:003748648-3.1-20.1
2013-04-27T12:004439593-9.7-18.7
2013-04-27T12:004930556-14.5-21.5
2013-04-27T12:005109543-14.5-30.5
2013-04-27T12:005249533-15.1-33.1
2013-04-27T12:005740500-18.9-36.96
2013-04-27T12:005815495-19.5-37.5
2013-04-27T12:006516450-23.1-42.1
2013-04-27T12:007360400-29.5-48.5108
2013-04-27T12:008254352-37.7-52.7
2013-04-27T12:009074312-43.1-57.1
2013-04-27T12:009350300-45.3-58.34016
2013-04-27T12:0010540250-54.7-65.72515
2013-04-27T12:0010799240-56.7-66.7
2013-04-27T12:0011151227-57.3-67.3
2013-04-27T12:0011698208-60.1-70.1
2013-04-27T12:0011850203-59.5-69.5
2013-04-27T12:0011940200-60.1-70.135014
2013-04-27T12:0012600180-57.1-67.1
2013-04-27T12:0012959170-58.7-68.7
2013-04-27T12:0013146165-58.1-68.1
2013-04-27T12:0013184164-56.9-66.9
2013-04-27T12:0013380159-56.3-67.3
2013-04-27T12:0013501156-54.7-65.7
2013-04-27T12:0013750150-55.1-66.132020
2013-04-27T12:0014144141-55.1-66.1
2013-04-27T12:0014562132-57.3-68.3
2013-04-27T12:0015008123-56.9-67.9
2013-04-27T12:0015323117-58.1-69.1
2013-04-27T12:0015654111-57.9-68.9
2013-04-27T12:0015711110-57.9-68.9
2013-04-27T12:0016320100-58.9-69.931520
2013-04-27T12:001826173-64.9-74.9
2013-04-27T12:001852070-61.7-71.73009
2013-04-27T12:001852969-61.5-71.5
2013-04-27T12:001876467-60.9-70.9
2013-04-27T12:001944060-63.9-73.9
2013-04-27T12:001976557-60.7-70.7
2013-04-27T12:002015553-62.5-72.5
2013-04-27T12:002060050-62.7-72.72759
2013-04-27T12:002092847-63.1-73.1
2013-04-27T12:002185440-60.1-71.1
2013-04-27T12:002228638-53.7-65.7
2013-04-27T12:002281035-54.7-66.7
2013-04-27T12:002311033-50.9-63.9
2013-04-27T12:002338632-52.1-65.1
2013-04-27T12:002367630-50.3-64.3
2013-04-27T12:002384030-50.7-64.72901
2013-04-27T12:002412828-50.7-64.7
2013-04-27T12:002482625-47.3-63.3
2013-04-27T12:002535523-49.3-65.3
2013-04-27T12:002611621-46.5-66.5
2013-04-27T12:002633820-47.3-67.3
2013-04-27T12:002651020-46.5-67.5807
2013-04-27T12:002674719-44.7-67.7
2013-04-27T12:002732417-45.1-71.1
2013-04-27T12:002900413-38.9-71.9
2013-04-27T12:002984212-41.9-77.9
2013-04-27T12:003030011-41.9-77.9
2013-04-27T12:003048111-39.7-76.7
2013-04-27T12:003112310-40.5-77.5
2013-04-27T12:003120010-40.3-77.39523
2013-04-27T12:00323158-35.9-73.9
2013-04-27T12:00330017-35.3-73.3
2013-04-28T00:00921000
2013-04-28T00:00770925
2013-04-28T00:001492850
2013-04-28T00:00179782019.0-24.0
2013-04-28T00:00208179316.2-23.8
2013-04-28T00:0031247006.4-20.62756
2013-04-28T00:003908635-1.5-18.5
2013-04-28T00:004459592-6.3-20.3
2013-04-28T00:005057548-9.9-49.9
2013-04-28T00:005443521-13.3-52.3
2013-04-28T00:005650507-13.5-56.5
2013-04-28T00:005760500-14.3-56.333011
2013-04-28T00:007410400-28.3-57.33309
2013-04-28T00:007627388-30.5-57.5
2013-04-28T00:008877324-40.7-59.7
2013-04-28T00:009400300-44.9-58.935018
2013-04-28T00:009927277-49.1-61.1
2013-04-28T00:0010590250-55.3-66.335515
2013-04-28T00:0011198227-59.5-69.5
2013-04-28T00:0011624212-60.5-70.5
2013-04-28T00:0011990200-62.3-72.333012
2013-04-28T00:0012178194-62.3-72.3
2013-04-28T00:0012437186-63.3-73.3
2013-04-28T00:0012503184-62.9-72.9
2013-04-28T00:0012537183-61.1-71.1
2013-04-28T00:0012992170-62.1-72.1
2013-04-28T00:0013102167-61.1-71.1
2013-04-28T00:0013215164-58.5-69.5
2013-04-28T00:0013448158-59.3-70.3
2013-04-28T00:0013609154-57.9-68.9
2013-04-28T00:0013780150-58.1-69.129021
2013-04-28T00:0013864148-58.5-69.5
2013-04-28T00:0014730129-56.3-68.3
2013-04-28T00:0014930125-54.7-66.7
2013-04-28T00:0015033123-55.7-67.7
2013-04-28T00:0015351117-54.5-67.5
2013-04-28T00:0015743110-56.1-68.1
2013-04-28T00:0016350100-58.7-70.730512
2013-04-28T00:001725686-63.1-74.1
2013-04-28T00:001766180-61.9-72.9
2013-04-28T00:001855070-63.5-74.529513
2013-04-28T00:001918563-63.7-74.7
2013-04-28T00:001933361-62.1-73.1
2013-04-28T00:001952659-62.7-73.7
2013-04-28T00:001987856-60.1-72.1
2013-04-28T00:002005754-61.3-73.3
2013-04-28T00:002037152-59.1-71.1
2013-04-28T00:002064050-59.7-71.755
2013-04-28T00:002125345-61.5-73.5
2013-04-28T00:002166342-59.9-71.9
2013-04-28T00:002214139-54.9-68.9
2013-04-28T00:002230638-51.7-67.7
2013-04-28T00:002290434-53.7-68.7
2013-04-28T00:002358431-51.9-68.9
2013-04-28T00:002381430-53.5-69.5
2013-04-28T00:002389030-53.1-70.11256
2013-04-28T00:002486925-48.5-72.5
2013-04-28T00:002550923-48.9-75.9
2013-04-28T00:002573822-46.7-78.7
2013-04-28T00:002606821-46.9-79.9
2013-04-28T00:002641720-44.1-80.1
2013-04-28T00:002655020-44.5-80.511510
2013-04-28T00:002661719-44.5-80.5
2013-04-28T00:002722118-41.3-78.3
2013-04-28T00:002801216-42.1-78.1
2013-04-28T00:002941113-39.5-76.5
2013-04-28T00:003054011-40.1-77.1
2013-04-28T12:00711000
2013-04-28T12:00753925
2013-04-28T12:001480850
2013-04-28T12:00166183211.2-10.8
2013-04-28T12:00173282515.0-13.0
2013-04-28T12:00193880514.8-17.2
2013-04-28T12:00251775110.0-17.0
2013-04-28T12:0028427228.4-18.6
2013-04-28T12:0031017006.0-19.0251
2013-04-28T12:004585581-6.9-23.9
2013-04-28T12:005513515-12.5-33.5
2013-04-28T12:005617508-11.9-37.9
2013-04-28T12:005750500-12.1-47.12908
2013-04-28T12:005811496-12.5-49.5
2013-04-28T12:007400400-27.1-44.130010
2013-04-28T12:007527393-28.3-44.3
2013-04-28T12:008363349-35.5-47.5
2013-04-28T12:009400300-43.9-53.932511
2013-04-28T12:0010600250-54.3-63.333514
2013-04-28T12:0011517216-62.5-70.5
2013-04-28T12:0011990200-65.9-73.934011
2013-04-28T12:0012112196-66.9-74.9
2013-04-28T12:0012363188-66.9-74.9
2013-04-28T12:0012492184-67.3-75.3
2013-04-28T12:0012726177-66.5-74.5
2013-04-28T12:0012865173-64.1-72.1
2013-04-28T12:0012936171-62.3-70.3
2013-04-28T12:0013009169-61.3-69.3
2013-04-28T12:0013308161-62.7-70.7
2013-04-28T12:0013542155-62.5-70.5
2013-04-28T12:0013663152-60.5-68.5
2013-04-28T12:0013750150-59.7-67.731019
2013-04-28T12:0013876147-58.9-67.9
2013-04-28T12:0014226139-58.9-67.9
2013-04-28T12:0014599131-56.9-65.9
2013-04-28T12:0014696129-57.7-66.7
2013-04-28T12:0015364116-57.9-66.9
2013-04-28T12:0015927106-60.3-69.3
2013-04-28T12:0016290100-61.1-70.128520
2013-04-28T12:001722785-63.1-72.1
2013-04-28T12:001783777-61.5-70.5
2013-04-28T12:001830572-63.7-72.7
2013-04-28T12:001849070-63.5-72.530012
2013-04-28T12:001869567-62.5-71.5
2013-04-28T12:001939460-64.3-73.3
2013-04-28T12:002001454-61.5-70.5
2013-04-28T12:002014153-58.9-68.9
2013-04-28T12:002058050-58.1-68.12808
2013-04-28T12:002109046-58.3-68.3
2013-04-28T12:002159842-60.5-70.5
2013-04-28T12:002190140-55.7-66.7
2013-04-28T12:002228838-56.3-67.3
2013-04-28T12:002254536-52.3-64.3
2013-04-28T12:002309433-54.1-66.1
2013-04-28T12:002383030-51.9-64.956
2013-04-28T12:002425328-51.7-65.7
2013-04-28T12:002453726-48.5-64.5
2013-04-28T12:002531023-50.3-67.3
2013-04-28T12:002603721-45.3-68.3
2013-04-28T12:002649020-46.5-71.51108
2013-04-28T12:002655719-46.5-72.5
2013-04-28T12:002697318-43.7-74.7
2013-04-28T12:002726717-45.1-77.1
2013-04-28T12:002761416-43.3-78.3
2013-04-28T12:002815115-43.7-79.7
2013-04-28T12:002927813-40.7-77.7
2013-04-28T12:002948812-38.7-75.7
2013-04-28T12:002987312-38.7-75.7
2013-04-28T12:003027911-40.9-77.9
2013-04-28T12:003071010-39.7-76.7
2013-04-28T12:003118010-41.3-78.311014
2013-04-28T12:00313869-41.5-77.5
2013-04-28T12:00315999-40.3-77.3
2013-04-29T00:00191000
2013-04-29T00:00705925
2013-04-29T00:001436850
2013-04-29T00:00169582522.8-10.2
2013-04-29T00:0030867009.4-12.63006
2013-04-29T00:0038296392.2-13.8
2013-04-29T00:004544584-4.7-14.7
2013-04-29T00:005750500-15.1-22.127511
2013-04-29T00:005917489-16.7-22.7
2013-04-29T00:007390400-27.5-36.528018
2013-04-29T00:008176358-33.9-44.9
2013-04-29T00:008596337-35.7-49.7
2013-04-29T00:009400300-42.7-55.728517
2013-04-29T00:0010600250-53.5-63.529518
2013-04-29T00:0010626249-53.9-63.9
2013-04-29T00:0011990200-65.5-74.528516
2013-04-29T00:0012082197-66.1-75.1
2013-04-29T00:0012332189-66.7-75.7
2013-04-29T00:0012967170-69.1-77.1
2013-04-29T00:0013038168-67.9-75.9
2013-04-29T00:0013074167-62.7-71.7
2013-04-29T00:0013149165-58.1-68.1
2013-04-29T00:0013264162-57.1-67.1
2013-04-29T00:0013462157-57.7-67.7
2013-04-29T00:0013750150-59.9-69.928016
2013-04-29T00:0013833148-60.5-70.5
2013-04-29T00:0013918146-59.7-69.7
2013-04-29T00:0014269138-60.1-70.1
2013-04-29T00:0014406135-59.3-69.3
2013-04-29T00:0015087121-61.3-71.3
2013-04-29T00:0015349116-59.1-69.1
2013-04-29T00:0015403115-58.1-68.1
2013-04-29T00:0015513113-58.1-68.1
2013-04-29T00:0015798108-56.7-67.7
2013-04-29T00:0016098103-56.5-67.5
2013-04-29T00:0016290100-57.7-68.729015
2013-04-29T00:001741183-62.9-72.9
2013-04-29T00:001850070-64.5-74.525510
2013-04-29T00:001874067-64.5-74.5
2013-04-29T00:001889765-62.1-72.1
2013-04-29T00:001918562-62.1-72.1
2013-04-29T00:001933561-59.3-70.3
2013-04-29T00:001953259-60.1-71.1
2013-04-29T00:002007354-57.1-68.1
2013-04-29T00:002060050-60.9-71.93553
2013-04-29T00:002072649-61.5-72.5
2013-04-29T00:002094447-59.1-70.1
2013-04-29T00:002145143-60.5-71.5
2013-04-29T00:002153743-58.9-70.9
2013-04-29T00:002183541-58.9-70.9
2013-04-29T00:002191240-56.5-68.5
2013-04-29T00:002220238-53.3-66.3
2013-04-29T00:002254336-53.1-67.1
2013-04-29T00:002272135-51.3-66.3
2013-04-29T00:002318933-53.7-67.7
2013-04-29T00:002371230-53.1-68.1
2013-04-29T00:002385030-52.1-68.154
2013-04-29T00:002409128-52.1-69.1
2013-04-29T00:002427328-50.1-69.1
2013-04-29T00:002490725-49.1-73.1
2013-04-29T00:002522424-46.1-77.1
2013-04-29T00:002567422-47.5-82.5
2013-04-29T00:002594221-45.7-80.7
2013-04-29T00:002652020-46.7-81.78510
2013-04-29T00:002784416-42.5-78.5
2013-04-29T00:002967912-40.9-77.9
2013-04-29T00:003007211-38.3-75.3
2013-04-29T12:00261000
2013-04-29T12:00712925
2013-04-29T12:001446850
2013-04-29T12:00165183011.21.2
2013-04-29T12:00180281511.0-2.0
2013-04-29T12:00185381012.4-2.6
2013-04-29T12:00189480612.8-2.2
2013-04-29T12:00219977711.0-4.0
2013-04-29T12:0024587538.6-5.4
2013-04-29T12:0030617005.0-7.02657
2013-04-29T12:0030846985.0-7.0
2013-04-29T12:004044619-3.7-11.7
2013-04-29T12:005259529-12.9-19.9
2013-04-29T12:005346523-13.1-21.1
2013-04-29T12:005581507-14.1-37.1
2013-04-29T12:005700500-14.7-40.728520
2013-04-29T12:005791494-15.1-44.1
2013-04-29T12:006054477-17.1-45.1
2013-04-29T12:007350400-27.7-49.729014
2013-04-29T12:009340300-45.1-58.130018
2013-04-29T12:009889276-49.9-61.9
2013-04-29T12:0010530250-53.7-64.728023
2013-04-29T12:0010659245-54.5-65.5
2013-04-29T12:0011007232-55.1-66.1
2013-04-29T12:0011458216-59.3-69.3
2013-04-29T12:0011940200-60.3-70.330011
2013-04-29T12:0012522182-63.7-72.7
2013-04-29T12:0012831173-64.9-73.9
2013-04-29T12:0012902171-63.9-72.9
2013-04-29T12:0013010168-63.3-72.3
2013-04-29T12:0013084166-60.7-70.7
2013-04-29T12:0013235162-60.3-70.3
2013-04-29T12:0013469156-61.9-71.9
2013-04-29T12:0013720150-61.7-71.728010
2013-04-29T12:0013929145-61.9-71.9
2013-04-29T12:0014015143-60.5-70.5
2013-04-29T12:0014236138-61.3-71.3
2013-04-29T12:0014281137-59.5-69.5
2013-04-29T12:0014513132-58.5-68.5
2013-04-29T12:0014804126-59.3-69.3
2013-04-29T12:0014854125-58.5-69.5
2013-04-29T12:0015269117-58.1-69.1
2013-04-29T12:0015487113-59.1-70.1
2013-04-29T12:0015599111-58.7-69.7
2013-04-29T12:0015830107-56.3-67.3
2013-04-29T12:0016260100-57.1-68.131010
2013-04-29T12:001680991-60.3-71.3
2013-04-29T12:001698989-58.1-69.1
2013-04-29T12:001711787-58.3-69.3
2013-04-29T12:001788877-63.7-73.7
2013-04-29T12:001805175-59.3-70.3
2013-04-29T12:001813574-58.9-69.9
2013-04-29T12:001849070-60.7-71.72408
2013-04-29T12:001856169-61.3-72.3
2013-04-29T12:001881766-60.9-71.9
2013-04-29T12:001975657-64.1-74.1
2013-04-29T12:002015853-60.5-71.5
2013-04-29T12:002054250-60.7-71.7
2013-04-29T12:002057050-60.5-71.51454
2013-04-29T12:002074748-57.9-69.9
2013-04-29T12:002124844-54.7-66.7
2013-04-29T12:002173341-56.7-68.7
2013-04-29T12:002216038-53.9-66.9
2013-04-29T12:002236037-54.3-67.3
2013-04-29T12:002253336-51.7-65.7
2013-04-29T12:002359431-55.5-68.5
2013-04-29T12:002383030-53.5-67.51153
2013-04-29T12:002409228-52.5-66.5
2013-04-29T12:002436527-53.9-67.9
2013-04-29T12:002457826-52.3-67.3
2013-04-29T12:002472426-52.9-66.9
2013-04-29T12:002508124-50.3-66.3
2013-04-29T12:002577622-50.3-67.3
2013-04-29T12:002607621-48.7-66.7
2013-04-29T12:002647020-50.5-67.56514
2013-04-29T12:002650319-50.5-67.5
2013-04-29T12:002701518-48.3-68.3
2013-04-29T12:002723417-45.7-67.7
2013-04-29T12:002864614-44.5-71.5
2013-04-29T12:002954612-40.1-69.1
2013-04-29T12:003112010-42.5-74.55515
2013-04-29T12:00320668-38.5-73.5
2013-04-30T00:00638925
2013-04-30T00:001372850
2013-04-30T00:00165382323.8-15.2
2013-04-30T00:00247174816.0-17.0
2013-04-30T00:00302770010.6-15.43104
2013-04-30T00:0036106525.0-15.0
2013-04-30T00:005130538-9.7-16.7
2013-04-30T00:005480514-11.5-19.5
2013-04-30T00:005700500-11.7-26.729018
2013-04-30T00:005792494-11.9-28.9
2013-04-30T00:007360400-25.3-41.328018
2013-04-30T00:009102312-40.9-52.9
2013-04-30T00:009380300-42.9-54.930017
2013-04-30T00:0010056271-47.9-57.9
2013-04-30T00:0010580250-52.5-61.531019
2013-04-30T00:0011980200-65.5-73.532023
2013-04-30T00:0012258191-67.9-75.9
2013-04-30T00:0012547182-68.5-76.5
2013-04-30T00:0012613180-66.3-74.3
2013-04-30T00:0012783175-67.3-75.3
2013-04-30T00:0012957170-67.1-75.1
2013-04-30T00:0013138165-63.7-71.7
2013-04-30T00:0013289161-62.1-70.1
2013-04-30T00:0013730150-63.1-71.128019
2013-04-30T00:0013854147-63.5-71.5
2013-04-30T00:0013896146-63.1-72.1
2013-04-30T00:0013981144-61.1-70.1
2013-04-30T00:0014024143-60.7-69.7
2013-04-30T00:0014471133-63.3-72.3
2013-04-30T00:0014660129-58.1-67.1
2013-04-30T00:0014808126-58.7-67.7
2013-04-30T00:0014908124-58.1-67.1
2013-04-30T00:0014959123-56.7-66.7
2013-04-30T00:0015381115-59.5-68.5
2013-04-30T00:0015889106-59.5-69.5
2013-04-30T00:0016068103-60.3-70.3
2013-04-30T00:0016260100-59.1-69.126012
2013-04-30T00:001668093-59.1-69.1
2013-04-30T00:001730184-62.1-72.1
2013-04-30T00:001751081-59.5-69.5
2013-04-30T00:001819873-57.5-67.5
2013-04-30T00:001849070-59.1-69.12757
2013-04-30T00:001941360-63.5-73.5
2013-04-30T00:001990555-58.3-69.3
2013-04-30T00:002014653-58.9-69.9
2013-04-30T00:002058050-56.9-67.91805
2013-04-30T00:002083848-56.3-67.3
2013-04-30T00:002143143-56.9-67.9
2013-04-30T00:002151943-54.1-66.1
2013-04-30T00:002196740-51.5-64.5
2013-04-30T00:002276735-54.3-67.3
2013-04-30T00:002306333-52.3-66.3
2013-04-30T00:002315933-50.1-65.1
2013-04-30T00:002355831-53.7-67.7
2013-04-30T00:002386030-54.1-68.11953
2013-04-30T00:002394629-54.3-68.3
2013-04-30T00:002495925-50.1-68.1
2013-04-30T00:002554923-51.9-69.9
2013-04-30T00:002649020-51.1-73.1607
2013-04-30T00:002678819-52.1-74.1
2013-04-30T00:002762216-49.1-81.1
2013-04-30T00:002831915-49.7-83.7
2013-04-30T00:002945612-46.7-81.7
2013-04-30T12:00643925
2013-04-30T12:001378850
2013-04-30T12:00169281914.8-7.2
2013-04-30T12:00177681117.0-7.0
2013-04-30T12:00193379617.0-9.0
2013-04-30T12:00203078718.0-9.0
2013-04-30T12:0029877029.2-12.8
2013-04-30T12:0030207009.0-13.0954
2013-04-30T12:004107612-1.3-14.3
2013-04-30T12:005070541-10.1-16.1
2013-04-30T12:005579506-14.5-16.4
2013-04-30T12:005680500-15.3-16.427521
2013-04-30T12:006223465-18.3-18.8
2013-04-30T12:006466450-20.7-21.7
2013-04-30T12:006581443-21.7-24.0
2013-04-30T12:006748433-22.7-27.7
2013-04-30T12:007330400-25.7-33.726023
2013-04-30T12:007680381-27.7-37.7
2013-04-30T12:007967366-29.5-39.5
2013-04-30T12:009350300-41.5-49.525525
2013-04-30T12:0010560250-52.5-59.526525
2013-04-30T12:0010638247-53.3-60.3
2013-04-30T12:0011459217-58.9-65.9
2013-04-30T12:0011970200-63.527529
2013-04-30T12:0012808174-70.9
2013-04-30T12:0013526154-72.7
2013-04-30T12:0013680150-69.927533
2013-04-30T12:0013720149-69.1
2013-04-30T12:0013760148-67.9
2013-04-30T12:0013801147-63.7
2013-04-30T12:0014014142-61.3
2013-04-30T12:0014192138-57.7
2013-04-30T12:0014377134-57.1
2013-04-30T12:0014424133-55.9
2013-04-30T12:0014817125-56.7
2013-04-30T12:0015557111-62.7
2013-04-30T12:0015955104-64.9
2013-04-30T12:0016210100-63.725520
2013-04-30T12:001672791-63.7
2013-04-30T12:001725684-56.7
2013-04-30T12:001769178-56.1
2013-04-30T12:001829371-59.7
2013-04-30T12:001843070-58.32459
2013-04-30T12:001848469-58.1
2013-04-30T12:001918762-61.3
2013-04-30T12:001954958-58.9
2013-04-30T12:002002854-58.1
2013-04-30T12:002009853-56.5
2013-04-30T12:002030251-57.3
2013-04-30T12:002041351-55.3
2013-04-30T12:002055050-55.322511
2013-04-30T12:002087647-55.7
2013-04-30T12:002132344-51.3
2013-04-30T12:002182441-51.7
2013-04-30T12:002271035-56.3
2013-04-30T12:002298334-54.3
2013-04-30T12:002383030-55.31807
2013-04-30T12:002415728-54.7
2013-04-30T12:002487225-51.3
2013-04-30T12:002599721-55.5
2013-04-30T12:002643020-55.31407
2013-04-30T12:002699518-55.7
2013-04-30T12:002731717-53.9
2013-04-30T12:002885413-52.1
2013-04-30T12:002914613-48.3
2013-04-30T12:002967012-45.9
2013-04-30T12:003006411-47.9
2013-04-30T12:003094010-45.310013
2013-04-30T12:00312829-43.9
2013-04-30T12:00316439-44.9
2013-04-30T12:00318708-42.7
2013-04-30T12:00323538-41.1-54.1